ftp/pub/palmer/observations_modified/2019/September/AR190925_BASE.txt

Download

Sample DateTime	Unit Id	WS Avg 2min	WD Avg 2min	WGS 10min	WGD 10min	Air Temp	Rel Humidity	Dew Point	Pyranometer	Quantum	Air Pressure	Snow Level	Rainfall	PW Current	Visibility	CBase 1	CBase 2	CBase 3	Vert Vis
2019/09/25  00:00:01  BASE  3.92784  188  7.3206   157  -4.0  100   -4.0  0     0     984.0    NA       0.0000   9999     3280  4460  0    
2019/09/25  00:01:00  BASE  3.10464  188  7.3206   157  -4.0  100   -4.0  0     0     984.1    NA       0.0000   9999     4460  0     0    
2019/09/25  00:02:01  BASE  2.60484  181  7.3206   157  -4.0  100   -4.0  0     0     984.0    NA       0.0000   9999     4400  0     0    
2019/09/25  00:03:00  BASE  2.56368  209  7.3206   157  -4.0  100   -4.0  0     0     983.9    NA       0.0000   9999     2890  4490  0    
2019/09/25  00:04:00  BASE  3.40452  266  5.68596  164  -4.0  100   -4.0  0     0     983.8    NA       0.0000   9999     4490  0     0    
2019/09/25  00:05:00  BASE  3.94548  244  5.68596  164  -3.8  100   -3.8  0     0     983.7    NA       0.0000   9999     4430  0     0    
2019/09/25  00:06:01  BASE  5.15676  180  7.05012  162  -3.6  100   -3.6  0     0     983.6    NA       0.0000   9999     4270  0     0    
2019/09/25  00:07:00  BASE  6.5268   166  7.05012  162  -3.5  100   -3.5  0     0     983.4    NA       0.0000   9999     3350  4330  0    
2019/09/25  00:08:01  BASE  6.82668  171  8.19672  177  -3.4  100   -3.4  0     0     983.3    NA       0.0000   9999     4300  0     0    
2019/09/25  00:09:01  BASE  8.07324  166  10.3135  156  -3.4  100   -3.4  0     0     983.2    NA       0.0000   9999     4330  0     0    
2019/09/25  00:10:00  BASE  8.93172  159  10.3135  156  -3.6  100   -3.6  0     0     983.2    NA       0.0000   9999     3180  4360  0    
2019/09/25  00:11:00  BASE  8.17908  160  10.3135  156  -3.7  100   -3.7  0     0     983.4    NA       0.0000   9999     3250  0     0    
2019/09/25  00:12:00  BASE  6.86784  151  10.3135  156  -3.7  100   -3.7  0     0     983.7    NA       0.0000   9999     4170  0     0    
2019/09/25  00:13:00  BASE  4.9098   155  10.3135  156  -3.7  100   -3.7  0     0     983.7    NA       0.0000   9000     4360  0     0    
2019/09/25  00:14:00  BASE  3.16344  178  10.3135  156  -3.7  100   -3.7  0     0     983.7    NA       0.0000   9000     3710  4170  0    
2019/09/25  00:15:00  BASE  2.87532  188  10.3135  156  -3.7  100   -3.7  0     0     983.7    NA       0.0000   9000     3580  4270  0    
2019/09/25  00:16:00  BASE  3.22224  169  10.3135  156  -3.7  100   -3.7  0     0     983.7    NA       0.0000   8000     3480  4360  0    
2019/09/25  00:17:00  BASE  4.62168  153  10.3135  156  -3.6  100   -3.6  0     0     983.6    NA       0.0000   BR       8000  4330  0    
2019/09/25  00:18:00  BASE  5.53308  147  10.3135  156  -3.5  100   -3.5  0     0     983.5    NA       0.0000   BR       7000  4300  0    
2019/09/25  00:19:00  BASE  5.2038   145  9.22572  160  -3.4  100   -3.5  0     0     983.5    NA       0.0000   BR       7000  4330  0    
2019/09/25  00:20:00  BASE  5.48016  153  8.77296  157  -3.3  99    -3.4  0     0     983.4    NA       0.0000   BR       7000  4330  0    
2019/09/25  00:21:00  BASE  5.58012  151  7.56168  152  -3.2  98    -3.5  0     0     983.4    NA       0.0000   BR       7000  4400  0    
2019/09/25  00:22:00  BASE  5.3508   147  6.86784  152  -3.2  97    -3.6  0     0     983.3    NA       0.0000   BR       7000  3610  4330 
2019/09/25  00:23:00  BASE  5.60952  153  6.86784  164  -3.2  95    -3.8  0     0     983.2    NA       0.0000   BR       6000  4360  0    
2019/09/25  00:24:00  BASE  5.96232  153  6.86784  164  -3.2  94    -4.1  0     0     983.1    NA       0.0000   BR       6000  3380  4300 
2019/09/25  00:25:00  BASE  5.54484  149  6.86784  164  -3.1  92    -4.3  0     0     983.2    NA       0.0000   BR       6000  3450  4270 
2019/09/25  00:26:00  BASE  5.41548  154  6.86784  164  -3.1  91    -4.4  0     0     983.1    NA       0.0000   BR       6000  3670  4360 
2019/09/25  00:27:00  BASE  6.44448  154  8.80236  140  -3.1  89    -4.6  0     0     983.1    NA       0.0000   BR       6000  4330  0    
2019/09/25  00:28:00  BASE  6.92076  142  9.3492   133  -3.1  88    -4.8  0     0     983.2    NA       0.0000   BR       5000  3380  4430 
2019/09/25  00:29:00  BASE  6.8796   128  9.3492   133  -3.0  87    -4.9  0     0     983.2    NA       0.0000   BR       5000  3450  0    
2019/09/25  00:30:00  BASE  7.00308  125  9.3492   133  -3.1  86    -5.1  0     0     983.2    NA       0.0000   BR       5000  3640  4360 
2019/09/25  00:31:00  BASE  6.65028  120  9.3492   133  -3.1  85    -5.2  0     0     983.1    NA       0.0000   BR       5000  4430  0    
2019/09/25  00:32:00  BASE  5.80944  117  9.3492   133  -3.0  84    -5.3  0     0     983.1    NA       0.0000   HZ       5000  4490  0    
2019/09/25  00:33:00  BASE  6.97368  121  10.9192  123  -3.0  84    -5.4  0     0     983.0    NA       0.0000   HZ       5000  4360  0    
2019/09/25  00:34:00  BASE  7.57932  128  10.9192  123  -3.0  83    -5.5  0     0     983.0    NA       0.0000   HZ       5000  4400  0    
2019/09/25  00:35:00  BASE  6.41508  139  10.9192  123  -3.0  83    -5.5  0     0     982.9    NA       0.0000   HZ       5000  4430  0    
2019/09/25  00:36:00  BASE  7.15008  143  10.9192  123  -3.0  82    -5.6  0     0     982.8    NA       0.0000   HZ       4900  4400  0    
2019/09/25  00:37:00  BASE  8.28492  146  10.9192  123  -3.0  82    -5.7  0     0     982.9    NA       0.0000   HZ       4800  4400  0    
2019/09/25  00:38:00  BASE  7.86744  151  10.9192  123  -3.1  82    -5.7  0     0     983.1    NA       0.0000   HZ       4700  4430  0    
2019/09/25  00:39:00  BASE  7.16184  145  10.9192  123  -3.1  82    -5.7  0     0     983.1    NA       0.0000   HZ       4700  4400  0    
2019/09/25  00:40:00  BASE  6.52092  137  10.9192  123  -3.1  83    -5.7  0     0     983.1    NA       0.0000   HZ       4600  4330  0    
2019/09/25  00:41:00  BASE  7.18536  136  10.9192  123  -3.1  83    -5.6  0     0     982.9    NA       0.0000   HZ       4400  3640  4360 
2019/09/25  00:42:00  BASE  8.8788   133  10.9192  123  -3.1  83    -5.6  0     0     983.0    NA       0.0000   UP       4300  4230  0    
2019/09/25  00:43:00  BASE  9.1434   131  10.7075  137  -3.0  83    -5.6  0     0     982.9    NA       0.0000   UP       4200  3380  4430 
2019/09/25  00:44:00  BASE  8.95524  136  10.7075  137  -3.0  82    -5.6  0     0     982.9    NA       0.0000   UP       4100  4430  0    
2019/09/25  00:45:00  BASE  9.07284  131  11.5836  130  -3.0  82    -5.7  0     0     983.0    NA       0.0000   UP       4100  4430  0    
2019/09/25  00:46:00  BASE  8.80236  128  11.5836  130  -3.0  81    -5.8  0     0     983.0    NA       0.0000   UP       4100  4460  0    
2019/09/25  00:47:00  BASE  8.96112  130  11.5836  130  -3.0  81    -5.8  0     0     983.0    NA       0.0000   UP       4100  4460  0    
2019/09/25  00:48:00  BASE  9.04932  126  11.5836  130  -3.0  81    -5.8  0     0     983.2    NA       0.0000   UP       4000  4430  0    
2019/09/25  00:49:00  BASE  8.37312  123  11.5836  130  -3.0  81    -5.8  0     0     983.2    NA       0.0000   UP       4000  4460  0    
2019/09/25  00:50:00  BASE  8.23788  131  11.5836  130  -3.0  81    -5.8  0     0     983.0    NA       0.0000   UP       3900  3280  4430 
2019/09/25  00:51:00  BASE  9.5256   137  12.5244  136  -3.0  81    -5.8  0     0     982.8    NA       0.0000   UP       3900  3610  4400 
2019/09/25  00:52:00  BASE  10.6016  137  13.8239  142  -3.0  80    -5.9  0     0     983.0    NA       0.0000   UP       3900  4430  0    
2019/09/25  00:53:00  BASE  9.59028  131  13.8239  142  -3.0  80    -6.0  0     0     983.2    NA       0.0000   UP       3900  3120  4460 
2019/09/25  00:54:00  BASE  8.54364  124  13.8239  142  -3.0  80    -6.0  0     0     983.3    NA       0.0000   UP       4000  4460  0    
2019/09/25  00:55:00  BASE  9.54912  128  13.8239  142  -3.0  80    -6.0  0     0     983.1    NA       0.0000   UP       4000  4360  0    
2019/09/25  00:56:00  BASE  10.6663  132  13.8239  142  -3.0  80    -6.0  0     0     983.0    NA       0.0000   UP       4000  4430  0    
2019/09/25  00:57:00  BASE  11.0544  135  13.8239  142  -3.1  80    -6.0  0     0     982.8    NA       0.0000   UP       3900  4430  0    
2019/09/25  00:58:00  BASE  10.6781  140  13.8239  142  -3.1  80    -6.1  0     0     982.9    NA       0.0000   UP       3900  4400  0    
2019/09/25  00:59:00  BASE  9.0552   142  13.8239  142  -3.2  80    -6.1  0     0     983.0    NA       0.0000   UP       3800  4330  0    
2019/09/25  01:00:00  BASE  8.07324  135  13.8239  142  -3.2  80    -6.2  0     0     983.1    NA       0.0000   UP       3900  4400  0    
2019/09/25  01:01:00  BASE  8.1144   126  13.8239  142  -3.2  80    -6.1  0     0     983.1    NA       0.0000   UP       4000  4330  0    
2019/09/25  01:02:00  BASE  8.27904  123  12.2186  140  -3.2  81    -6.0  0     0     983.2    NA       0.0000   UP       3900  4300  0    
2019/09/25  01:03:00  BASE  8.10852  126  12.2186  140  -3.1  81    -5.9  0     0     983.2    NA       0.0000   UP       3900  4430  0    
2019/09/25  01:04:00  BASE  8.66124  131  12.2186  140  -3.1  81    -5.8  0     0     983.1    NA       0.0000   UP       3800  4430  0    
2019/09/25  01:05:00  BASE  10.0901  132  12.2186  140  -3.0  81    -5.8  0     0     983.0    NA       0.0000   UP       3800  4430  0    
2019/09/25  01:06:00  BASE  11.0132  136  12.495   143  -3.0  81    -5.8  0     0     982.9    NA       0.0000   UP       3800  4360  0    
2019/09/25  01:07:00  BASE  9.06696  144  12.495   143  -3.0  81    -5.8  0     0     983.2    NA       0.0000   UP       3800  4460  0    
2019/09/25  01:08:00  BASE  6.70908  144  12.495   143  -3.0  81    -5.9  0     0     983.3    NA       0.0000   UP       3900  4400  0    
2019/09/25  01:09:00  BASE  7.59108  131  12.495   143  -3.0  81    -5.9  0     0     983.2    NA       0.0000   UP       3900  3220  4460 
2019/09/25  01:10:00  BASE  9.00816  125  12.495   143  -3.0  80    -5.9  0     0     983.1    NA       0.0000   UP       3900  4460  0    
2019/09/25  01:11:00  BASE  9.74316  131  12.495   143  -3.0  80    -5.9  0     0     983.0    NA       0.0000   UP       3900  4400  0    
2019/09/25  01:12:00  BASE  10.5252  133  12.495   143  -3.0  80    -6.0  0     0     982.9    NA       0.0000   UP       3900  4400  0    
2019/09/25  01:13:00  BASE  10.6369  135  12.495   143  -3.0  80    -6.0  0     0     982.8    NA       0.0000   UP       4200  4400  0    
2019/09/25  01:14:01  BASE  9.89604  136  12.495   143  -3.0  80    -6.0  0     0     983.0    NA       0.0000   UP       4600  4270  0    
2019/09/25  01:15:00  BASE  9.27864  132  12.495   143  -3.0  80    -6.0  0     0     983.0    NA       0.0000   UP       4600  4400  0    
2019/09/25  01:16:00  BASE  8.99052  131  12.0716  140  -3.0  80    -6.0  0     0     983.0    NA       0.0000   UP       4600  4430  0    
2019/09/25  01:17:00  BASE  9.0552   128  12.0716  140  -3.0  80    -6.0  0     0     983.0    NA       0.0000   HZ       4600  4460  0    
2019/09/25  01:18:00  BASE  7.97916  121  12.0716  140  -2.9  80    -5.9  0     0     983.2    NA       0.0000   HZ       4600  4460  0    
2019/09/25  01:19:00  BASE  6.92664  124  12.0716  140  -2.8  80    -5.8  0     0     983.1    NA       0.0000   HZ       4700  4430  0    
2019/09/25  01:20:00  BASE  7.4382   130  12.0716  140  -2.7  79    -5.8  0     0     983.0    NA       0.0000   HZ       4800  4430  0    
2019/09/25  01:21:00  BASE  8.40252  134  12.0716  140  -2.7  79    -5.9  0     0     982.8    NA       0.0000   HZ       4800  4430  0    
2019/09/25  01:22:01  BASE  10.0783  132  12.7655  134  -2.7  78    -5.9  0     0     982.9    NA       0.0000   HZ       4900  4400  0    
2019/09/25  01:23:00  BASE  10.1018  125  12.7655  134  -2.7  78    -6.0  0     0     983.0    NA       0.0000   UP       5000  3580  4400 
2019/09/25  01:24:01  BASE  9.50796  135  12.7655  134  -2.7  77    -6.2  0     0     982.9    NA       0.0000   UP       5000  4400  0    
2019/09/25  01:25:00  BASE  10.3488  140  12.7655  134  -2.8  77    -6.3  0     0     982.8    NA       0.0000   HZ       5000  4400  0    
2019/09/25  01:26:01  BASE  10.0724  133  12.7655  134  -2.8  77    -6.2  0     0     982.9    NA       0.0000   UP       5000  4330  0    
2019/09/25  01:27:01  BASE  8.9082   130  12.7655  134  -2.8  77    -6.2  0     0     983.0    NA       0.0000   UP       5000  4430  0    
2019/09/25  01:28:01  BASE  9.74904  130  12.7655  134  -2.8  77    -6.3  0     0     982.9    NA       0.0000   UP       5000  4430  0    
2019/09/25  01:29:00  BASE  9.82548  133  12.7655  134  -2.8  77    -6.3  0     0     983.0    NA       0.0000   UP       5000  4400  0    
2019/09/25  01:30:00  BASE  9.555    134  12.7655  134  -2.9  77    -6.3  0     0     982.8    NA       0.0000   UP       5000  4400  0    
2019/09/25  01:31:00  BASE  9.59028  137  12.7655  134  -2.9  77    -6.3  0     0     982.9    NA       0.0000   UP       5000  4360  0    
2019/09/25  01:32:01  BASE  8.48484  133  12.6773  125  -3.0  78    -6.3  0     0     983.0    NA       0.0000   UP       5000  4430  0    
2019/09/25  01:33:01  BASE  8.27904  125  12.6773  125  -3.0  78    -6.3  0     0     983.0    NA       0.0000   HZ       5000  3740  4300 
2019/09/25  01:34:01  BASE  8.57892  126  12.6773  125  -2.9  78    -6.2  0     0     983.0    NA       0.0000   HZ       5000  3510  4360 
2019/09/25  01:35:00  BASE  9.04932  126  12.6773  125  -2.9  78    -6.1  0     0     982.9    NA       0.0000   HZ       5000  4300  0    
2019/09/25  01:36:01  BASE  8.37312  122  12.6773  125  -2.9  78    -6.1  0     0     983.2    NA       0.0000   HZ       5000  4200  0    
2019/09/25  01:37:00  BASE  7.09716  122  12.6773  125  -2.9  78    -6.1  0     0     983.2    NA       0.0000   HZ       6000  4360  0    
2019/09/25  01:38:00  BASE  6.65616  131  11.3719  134  -2.8  78    -6.1  0     0     983.1    NA       0.0000   HZ       6000  4270  0    
2019/09/25  01:39:01  BASE  6.47388  137  11.3719  134  -2.9  78    -6.2  0     0     983.1    NA       0.0000   HZ       6000  4360  0    
2019/09/25  01:40:00  BASE  7.01484  141  11.2249  120  -2.9  78    -6.2  0     0     982.9    NA       0.0000   HZ       6000  4130  0    
2019/09/25  01:41:00  BASE  7.8792   145  11.2249  120  -2.9  78    -6.2  0     0     982.8    NA       0.0000   HZ       6000  4230  0    
2019/09/25  01:42:00  BASE  9.0552   137  12.101   131  -3.0  78    -6.3  0     0     982.8    NA       0.0000   HZ       6000  4230  0    
2019/09/25  01:43:00  BASE  10.8074  129  12.3421  126  -3.0  78    -6.2  0     0     982.7    NA       0.0000   HZ       6000  4330  0    
2019/09/25  01:44:01  BASE  10.7957  132  12.3421  126  -3.0  78    -6.2  0     0     982.7    NA       0.0000   HZ       6000  4360  0    
2019/09/25  01:45:00  BASE  9.72552  138  12.3421  126  -3.0  79    -6.2  0     0     982.6    NA       0.0000   HZ       6000  4300  0    
2019/09/25  01:46:01  BASE  9.94308  135  12.3421  126  -3.1  79    -6.2  0     0     982.6    NA       0.0000   HZ       6000  4300  0    
2019/09/25  01:47:00  BASE  8.96112  135  12.3421  126  -3.1  79    -6.2  0     0     982.8    NA       0.0000   HZ       6000  4330  0    
2019/09/25  01:48:00  BASE  8.49072  132  12.3421  126  -3.1  79    -6.2  0     0     982.8    NA       0.0000   HZ       6000  4360  0    
2019/09/25  01:49:00  BASE  8.91408  129  12.3421  126  -3.1  79    -6.2  0     0     982.7    NA       0.0000   HZ       6000  4330  0    
2019/09/25  01:50:00  BASE  7.15596  148  12.3421  126  -3.1  79    -6.2  0     0     982.6    NA       0.0000   HZ       6000  4330  0    
2019/09/25  01:51:00  BASE  6.40332  148  12.3421  126  -3.1  79    -6.2  0     0     982.7    NA       0.0000   HZ       6000  4300  0    
2019/09/25  01:52:01  BASE  8.50836  133  12.3421  126  -3.1  79    -6.2  0     0     982.4    NA       0.0000   HZ       7000  4300  0    
2019/09/25  01:53:01  BASE  9.849    137  12.0364  132  -3.1  79    -6.2  0     0     982.3    NA       0.0000   HZ       7000  4300  0    
2019/09/25  01:54:00  BASE  9.36096  140  12.0364  132  -3.1  79    -6.2  0     0     982.4    NA       0.0000   HZ       7000  4330  0    
2019/09/25  01:55:00  BASE  8.81412  142  12.0364  132  -3.1  79    -6.2  0     0     982.5    NA       0.0000   HZ       7000  4330  0    
2019/09/25  01:56:00  BASE  7.80864  139  12.0364  132  -3.1  80    -6.1  0     0     982.7    NA       0.0000   HZ       8000  4330  0    
2019/09/25  01:57:00  BASE  7.7616   131  12.0364  132  -3.1  80    -6.1  0     0     982.5    NA       0.0000   HZ       8000  4400  0    
2019/09/25  01:58:00  BASE  9.19044  131  12.0364  132  -3.1  80    -6.0  0     0     982.4    NA       0.0000   HZ       8000  4330  0    
2019/09/25  01:59:00  BASE  10.1783  129  12.0364  132  -3.0  80    -6.0  0     0     982.5    NA       0.0000   HZ       8000  4300  0    
2019/09/25  02:00:00  BASE  9.19044  128  12.0364  132  -3.0  80    -6.0  0     0     982.5    NA       0.0000   HZ       9000  4300  0    
2019/09/25  02:01:00  BASE  7.50876  136  12.0364  132  -3.0  80    -6.0  0     0     982.5    NA       0.0000   HZ       9999  4270  0    
2019/09/25  02:02:00  BASE  6.85608  130  11.8247  132  -3.0  80    -6.0  0     0     982.8    NA       0.0000   HZ       9999  4270  0    
2019/09/25  02:03:00  BASE  7.04424  125  11.8247  132  -3.0  80    -6.0  0     0     982.8    NA       0.0000   HZ       9999  4330  0    
2019/09/25  02:04:00  BASE  7.72632  140  11.8247  132  -3.0  80    -6.0  0     0     982.4    NA       0.0000   HZ       9999  4330  0    
2019/09/25  02:05:00  BASE  9.1728   151  11.8247  132  -3.1  80    -6.0  0     0     982.2    NA       0.0000   HZ       9999  4300  0    
2019/09/25  02:06:00  BASE  10.3782  145  12.9478  149  -3.1  80    -6.0  0     0     982.1    NA       0.0000   HZ       9999  4170  0    
2019/09/25  02:07:00  BASE  10.2665  141  12.9478  149  -3.1  80    -6.0  0     0     982.2    NA       0.0000   HZ       9999  4270  0    
2019/09/25  02:08:00  BASE  9.44328  147  12.9478  149  -3.0  80    -6.0  0     0     982.3    NA       0.0000   9999     4200  0     0    
2019/09/25  02:09:00  BASE  10.1018  147  12.9478  140  -3.0  80    -6.0  0     0     982.1    NA       0.0000   9999     4230  0     0    
2019/09/25  02:10:00  BASE  9.63144  144  12.9478  140  -3.0  80    -6.0  0     0     982.5    NA       0.0000   9999     4330  0     0    
2019/09/25  02:11:00  BASE  6.52092  143  12.9478  140  -3.1  80    -6.0  0     0     982.6    NA       0.0000   9999     4330  0     0    
2019/09/25  02:12:01  BASE  6.31512  135  12.9478  140  -3.1  80    -6.1  0     0     982.6    NA       0.0000   9999     4300  0     0    
2019/09/25  02:13:00  BASE  5.47428  109  12.9478  140  -3.1  80    -6.0  0     0     982.9    NA       0.0000   9999     4330  0     0    
2019/09/25  02:14:00  BASE  3.43392  128  12.9478  140  -3.0  80    -5.9  0     0     982.7    NA       0.0000   9999     4300  0     0    
2019/09/25  02:15:00  BASE  3.71616  152  12.9478  140  -3.0  80    -5.9  0     0     982.7    NA       0.0000   9999     4270  0     0    
2019/09/25  02:16:00  BASE  3.56916  131  12.9478  140  -3.0  80    -5.9  0     0     982.8    NA       0.0000   9999     3970  0     0    
2019/09/25  02:17:00  BASE  4.704    103  12.9478  140  -2.9  81    -5.8  0     0     982.8    NA       0.0000   9999     4070  0     0    
2019/09/25  02:18:00  BASE  5.54484  96   12.9478  140  -2.8  81    -5.7  0     0     982.7    NA       0.0000   9999     4270  0     0    
2019/09/25  02:19:00  BASE  4.56288  116  8.95524  135  -2.8  80    -5.7  0     0     982.6    NA       0.0000   9999     4300  0     0    
2019/09/25  02:20:00  BASE  4.24536  129  8.95524  135  -2.8  80    -5.7  0     0     982.7    NA       0.0000   9999     4300  0     0    
2019/09/25  02:21:00  BASE  4.32768  116  8.95524  135  -2.7  80    -5.7  0     0     982.8    NA       0.0000   9999     4230  0     0    
2019/09/25  02:22:00  BASE  4.998    116  7.02072  94   -2.7  80    -5.7  0     0     982.7    NA       0.0000   9999     4100  0     0    
2019/09/25  02:23:00  BASE  5.52132  127  7.02072  94   -2.9  79    -5.9  0     0     982.6    NA       0.0000   9999     4130  0     0    
2019/09/25  02:24:00  BASE  6.15636  135  7.2324   137  -3.0  79    -6.0  0     0     982.4    NA       0.0000   9999     4130  0     0    
2019/09/25  02:25:00  BASE  6.76788  137  7.3794   140  -3.0  80    -6.0  0     0     982.5    NA       0.0000   9999     3840  0     0    
2019/09/25  02:26:00  BASE  5.80356  126  7.3794   140  -3.1  80    -6.1  0     0     982.7    NA       0.0000   9999     4040  0     0    
2019/09/25  02:27:00  BASE  5.48016  122  7.3794   140  -3.1  80    -6.1  0     0     982.6    NA       0.0000   9999     4040  0     0    
2019/09/25  02:28:00  BASE  6.5856   128  8.19672  130  -3.2  80    -6.1  0     0     982.4    NA       0.0000   9999     3670  4230  0    
2019/09/25  02:29:00  BASE  7.791    131  8.83176  134  -3.2  80    -6.2  0     0     982.4    NA       0.0000   9999     3740  0     0    
2019/09/25  02:30:00  BASE  8.56128  132  9.10224  132  -3.2  80    -6.2  0     0     982.3    NA       0.0000   9999     3940  0     0    
2019/09/25  02:31:00  BASE  8.379    131  9.10224  132  -3.2  80    -6.2  0     0     982.3    NA       0.0000   9999     3970  0     0    
2019/09/25  02:32:00  BASE  8.48484  133  9.25512  134  -3.2  80    -6.2  0     0     982.2    NA       0.0000   9999     3870  0     0    
2019/09/25  02:33:00  BASE  8.8788   136  9.64908  130  -3.2  80    -6.1  0     0     982.2    NA       0.0000   9999     3670  0     0    
2019/09/25  02:34:00  BASE  8.7906   134  9.64908  130  -3.1  80    -6.1  0     0     982.2    NA       0.0000   9999     3640  0     0    
2019/09/25  02:35:00  BASE  8.10852  132  9.64908  130  -3.0  79    -6.1  0     0     982.3    NA       0.0000   9999     3840  0     0    
2019/09/25  02:36:00  BASE  7.31472  134  9.64908  130  -3.0  79    -6.2  0     0     982.3    NA       0.0000   9999     4040  0     0    
2019/09/25  02:37:00  BASE  6.69732  138  9.64908  130  -3.0  79    -6.2  0     0     982.3    NA       0.0000   9999     3740  0     0    
2019/09/25  02:38:00  BASE  6.65028  144  9.64908  130  -3.1  78    -6.3  0     0     982.2    NA       0.0000   9999     3810  0     0    
2019/09/25  02:39:00  BASE  7.04424  145  9.64908  130  -3.1  78    -6.4  0     0     982.2    NA       0.0000   9999     3970  0     0    
2019/09/25  02:40:00  BASE  6.65616  141  9.64908  130  -3.2  78    -6.4  0     0     982.3    NA       0.0000   9999     4130  0     0    
2019/09/25  02:41:00  BASE  6.51504  138  9.64908  130  -3.2  78    -6.5  0     0     982.3    NA       0.0000   9999     3740  0     0    
2019/09/25  02:42:00  BASE  6.8208   141  9.64908  130  -3.2  78    -6.5  0     0     982.2    NA       0.0000   9999     3870  0     0    
2019/09/25  02:43:00  BASE  7.06776  142  9.19632  134  -3.2  78    -6.5  0     0     982.2    NA       0.0000   9999     3710  0     0    
2019/09/25  02:44:00  BASE  7.77336  138  8.56128  137  -3.2  78    -6.5  0     0     982.2    NA       0.0000   9999     3610  0     0    
2019/09/25  02:45:00  BASE  7.68516  133  8.56128  137  -3.2  78    -6.5  0     0     982.2    NA       0.0000   9999     3670  0     0    
2019/09/25  02:46:00  BASE  6.97956  127  8.56128  137  -3.2  78    -6.5  0     0     982.2    NA       0.0000   9999     3940  0     0    
2019/09/25  02:47:00  BASE  6.80316  120  8.56128  137  -3.2  78    -6.5  0     0     982.3    NA       0.0000   9999     3450  0     0    
2019/09/25  02:48:00  BASE  6.90312  122  8.56128  137  -3.2  79    -6.4  0     0     982.2    NA       0.0000   9999     3410  0     0    
2019/09/25  02:49:00  BASE  7.42644  127  8.56128  118  -3.2  79    -6.3  0     0     982.1    NA       0.0000   9999     3740  0     0    
2019/09/25  02:50:00  BASE  7.60872  121  8.56128  118  -3.1  79    -6.3  0     0     982.2    NA       0.0000   9999     3940  0     0    
2019/09/25  02:51:00  BASE  7.30296  115  8.56128  118  -3.1  78    -6.3  0     0     982.2    NA       0.0000   9999     3900  0     0    
2019/09/25  02:52:00  BASE  6.9384   118  8.56128  118  -3.0  78    -6.3  0     0     982.2    NA       0.0000   9999     3810  0     0    
2019/09/25  02:53:00  BASE  6.95604  124  8.56128  118  -3.0  78    -6.4  0     0     982.2    NA       0.0000   9999     3940  0     0    
2019/09/25  02:54:00  BASE  7.19124  125  8.56128  118  -3.1  78    -6.4  0     0     982.2    NA       0.0000   9999     4070  0     0    
2019/09/25  02:55:00  BASE  7.05012  127  8.56128  118  -3.2  78    -6.5  0     0     982.2    NA       0.0000   9999     4130  0     0    
2019/09/25  02:56:00  BASE  6.6738   128  8.56128  118  -3.2  78    -6.5  0     0     982.2    NA       0.0000   9999     3710  0     0    
2019/09/25  02:57:00  BASE  6.12696  123  8.56128  118  -3.3  78    -6.5  0     0     982.2    NA       0.0000   9999     4000  0     0    
2019/09/25  02:58:00  BASE  6.50328  118  8.56128  118  -3.3  79    -6.5  0     0     982.2    NA       0.0000   9999     3940  0     0    
2019/09/25  02:59:00  BASE  7.5264   116  8.25552  114  -3.3  79    -6.5  0     0     982.1    NA       0.0000   9999     3870  0     0    
2019/09/25  03:00:00  BASE  7.80276  119  8.25552  114  -3.3  79    -6.4  0     0     982.0    NA       0.0000   9999     3870  0     0    
2019/09/25  03:01:00  BASE  7.54992  124  8.25552  114  -3.2  79    -6.4  0     0     982.0    NA       0.0000   9999     3900  0     0    
2019/09/25  03:02:00  BASE  7.35588  116  8.25552  114  -3.2  79    -6.3  0     0     982.1    NA       0.0000   9999     3480  4000  0    
2019/09/25  03:03:00  BASE  7.29708  109  8.25552  114  -3.2  79    -6.3  0     0     982.1    NA       0.0000   9999     3480  3900  0    
2019/09/25  03:04:00  BASE  7.69104  111  8.71416  116  -3.1  79    -6.3  0     0     982.0    NA       0.0000   9999     3540  0     0    
2019/09/25  03:05:00  BASE  8.13204  111  8.77296  110  -3.1  79    -6.3  0     0     982.0    NA       0.0000   9999     3480  0     0    
2019/09/25  03:06:00  BASE  8.3202   116  8.86116  122  -3.1  78    -6.3  0     0     981.9    NA       0.0000   9999     3810  0     0    
2019/09/25  03:07:00  BASE  7.8498   121  8.86116  122  -3.1  78    -6.4  0     0     981.9    NA       0.0000   9999     3510  0     0    
2019/09/25  03:08:00  BASE  6.71496  119  8.86116  122  -3.1  78    -6.5  0     0     982.0    NA       0.0000   9999     3410  3940  0    
2019/09/25  03:09:00  BASE  6.2916   114  8.86116  122  -3.1  77    -6.5  0     0     982.0    NA       0.0000   9999     3480  0     0    
2019/09/25  03:10:00  BASE  6.8208   113  8.86116  122  -3.1  77    -6.6  0     0     982.0    NA       0.0000   9999     3310  0     0    
2019/09/25  03:11:00  BASE  7.26768  111  8.86116  122  -3.1  77    -6.6  0     0     982.0    NA       0.0000   9999     3610  0     0    
2019/09/25  03:12:00  BASE  7.15596  112  8.86116  122  -3.1  77    -6.6  0     0     982.0    NA       0.0000   9999     3410  0     0    
2019/09/25  03:13:00  BASE  6.89136  115  8.86116  122  -3.1  77    -6.6  0     0     982.0    NA       0.0000   9999     3580  0     0    
2019/09/25  03:14:00  BASE  6.47976  118  8.86116  122  -3.1  77    -6.6  0     0     982.0    NA       0.0000   9999     3610  0     0    
2019/09/25  03:15:00  BASE  6.4092   124  8.86116  122  -3.2  77    -6.6  0     0     981.8    NA       0.0000   9999     3510  0     0    
2019/09/25  03:16:00  BASE  6.72084  120  8.10852  124  -3.2  77    -6.6  0     0     981.9    NA       0.0000   9999     3710  4170  0    
2019/09/25  03:17:00  BASE  6.36804  110  7.83216  107  -3.2  77    -6.6  0     0     982.0    NA       0.0000   9999     3670  0     0    
2019/09/25  03:18:00  BASE  5.18616  111  7.83216  107  -3.2  77    -6.6  0     0     982.0    NA       0.0000   9999     3710  0     0    
2019/09/25  03:19:00  BASE  4.33356  125  7.83216  107  -3.1  77    -6.5  0     0     981.8    NA       0.0000   9999     3740  0     0    
2019/09/25  03:20:00  BASE  4.48644  126  7.83216  107  -3.1  77    -6.5  0     0     981.8    NA       0.0000   9999     3770  0     0    
2019/09/25  03:21:00  BASE  4.80984  107  7.65576  123  -3.0  77    -6.4  0     0     982.0    NA       0.0000   9999     3900  0     0    
2019/09/25  03:22:00  BASE  4.57464  94   7.65576  123  -2.9  77    -6.4  0     0     982.0    NA       0.0000   9999     3970  0     0    
2019/09/25  03:23:00  BASE  4.41     104  7.65576  123  -2.9  76    -6.5  0     0     981.9    NA       0.0000   9999     3940  0     0    
2019/09/25  03:24:00  BASE  5.16264  122  7.65576  123  -2.8  76    -6.5  0     0     981.7    NA       0.0000   9999     4000  0     0    
2019/09/25  03:25:00  BASE  5.91528  125  7.2324   115  -2.8  76    -6.5  0     0     981.6    NA       0.0000   9999     3970  0     0    
2019/09/25  03:26:00  BASE  5.39196  130  6.71496  120  -2.8  75    -6.6  0     0     981.6    NA       0.0000   9999     4070  0     0    
2019/09/25  03:27:00  BASE  5.09208  128  6.71496  120  -2.9  75    -6.7  0     0     981.7    NA       0.0000   9999     3900  0     0    
2019/09/25  03:28:00  BASE  5.80944  118  6.71496  120  -2.9  75    -6.7  0     0     981.7    NA       0.0000   9999     3870  0     0    
2019/09/25  03:29:00  BASE  5.78004  124  6.71496  120  -2.9  75    -6.7  0     0     981.6    NA       0.0000   9999     3940  0     0    
2019/09/25  03:30:00  BASE  5.10384  136  6.71496  120  -2.9  75    -6.7  0     0     981.5    NA       0.0000   9999     3940  0     0    
2019/09/25  03:31:00  BASE  5.0568   134  6.71496  120  -2.9  74    -6.8  0     0     981.6    NA       0.0000   9999     4070  0     0    
2019/09/25  03:32:00  BASE  4.6746   133  6.71496  120  -2.9  74    -6.8  0     0     981.5    NA       0.0000   9999     3970  0     0    
2019/09/25  03:33:00  BASE  4.31004  139  6.71496  120  -2.9  74    -6.8  0     0     981.5    NA       0.0000   9999     4000  0     0    
2019/09/25  03:34:00  BASE  4.62756  139  6.71496  120  -2.9  74    -6.8  0     0     981.5    NA       0.0000   9999     4040  0     0    
2019/09/25  03:35:00  BASE  4.66872  139  6.62676  111  -3.0  75    -6.9  0     0     981.6    NA       0.0000   9999     4040  0     0    
2019/09/25  03:36:00  BASE  4.41     143  6.62676  111  -3.0  75    -6.8  0     0     981.5    NA       0.0000   9999     4040  0     0    
2019/09/25  03:37:00  BASE  4.13364  143  6.62676  111  -3.1  75    -6.8  0     0     981.6    NA       0.0000   9999     4040  0     0    
2019/09/25  03:38:00  BASE  4.116    140  6.47388  126  -3.1  76    -6.8  0     0     981.6    NA       0.0000   9999     4070  0     0    
2019/09/25  03:39:00  BASE  4.29828  136  5.71536  125  -3.1  76    -6.8  0     0     981.6    NA       0.0000   9999     4130  4560  0    
2019/09/25  03:40:00  BASE  4.39236  131  5.71536  125  -3.1  76    -6.8  0     0     981.5    NA       0.0000   9999     4100  0     0    
2019/09/25  03:41:00  BASE  4.63344  126  5.44488  121  -3.2  76    -6.8  0     0     981.5    NA       0.0000   9999     4170  4720  0    
2019/09/25  03:42:00  BASE  4.9098   121  5.44488  121  -3.2  76    -6.8  0     0     981.5    NA       0.0000   9999     4130  0     0    
2019/09/25  03:43:00  BASE  5.06856  114  5.92704  110  -3.2  77    -6.7  0     0     981.6    NA       0.0000   9999     4100  4530  0    
2019/09/25  03:44:00  BASE  5.04504  109  5.92704  110  -3.2  77    -6.7  0     0     981.5    NA       0.0000   9999     4100  4690  0    
2019/09/25  03:45:00  BASE  4.60404  116  5.92704  110  -3.1  77    -6.6  0     0     981.5    NA       0.0000   9999     4070  0     0    
2019/09/25  03:46:00  BASE  4.116    127  5.92704  110  -3.0  77    -6.5  0     0     981.4    NA       0.0000   9999     4040  0     0    
2019/09/25  03:47:00  BASE  3.62796  128  5.92704  110  -2.9  77    -6.5  0     0     981.4    NA       0.0000   9999     4070  0     0    
2019/09/25  03:48:00  BASE  3.32808  133  5.92704  110  -2.9  76    -6.5  0     0     981.4    NA       0.0000   9999     4100  0     0    
2019/09/25  03:49:01  BASE  3.72204  137  5.92704  110  -2.8  76    -6.5  0     0     981.3    NA       0.0000   9999     4100  0     0    
2019/09/25  03:50:00  BASE  4.01604  135  5.92704  110  -2.8  75    -6.6  0     0     981.3    NA       0.0000   9999     4130  0     0    
2019/09/25  03:51:00  BASE  3.92784  136  5.92704  110  -2.8  75    -6.7  0     0     981.3    NA       0.0000   9999     4040  0     0    
2019/09/25  03:52:00  BASE  3.97488  145  5.92704  110  -2.8  74    -6.8  0     0     981.2    NA       0.0000   9999     4040  0     0    
2019/09/25  03:53:00  BASE  4.42764  151  5.50368  107  -2.9  74    -6.8  0     0     981.2    NA       0.0000   9999     4040  0     0    
2019/09/25  03:54:00  BASE  5.07444  144  5.78004  134  -2.9  74    -6.8  0     0     981.2    NA       0.0000   9999     4070  0     0    
2019/09/25  03:55:00  BASE  5.5566   133  6.2916   129  -3.0  75    -6.8  0     0     981.2    NA       0.0000   9999     4130  0     0    
2019/09/25  03:56:00  BASE  5.80944  124  6.2916   129  -3.0  75    -6.8  0     0     981.2    NA       0.0000   9999     4170  0     0    
2019/09/25  03:57:00  BASE  5.292    120  6.2916   129  -3.0  76    -6.7  0     0     981.3    NA       0.0000   9999     4270  0     0    
2019/09/25  03:58:00  BASE  5.40372  124  6.47388  128  -3.0  76    -6.7  0     0     981.2    NA       0.0000   9999     4200  0     0    
2019/09/25  03:59:00  BASE  5.89764  126  6.47388  128  -3.0  76    -6.7  0     0     981.2    NA       0.0000   9999     4300  0     0    
2019/09/25  04:00:00  BASE  5.62716  122  6.47388  128  -3.0  76    -6.6  0     0     981.2    NA       0.0000   9999     4330  0     0    
2019/09/25  04:03:01  BASE  4.0866   120  6.47388  128  -2.9  76    -6.6  0     0     981.3    NA       0.0000   9999     3900  0     0    
2019/09/25  04:04:01  BASE  4.16304  124  6.47388  128  -2.9  76    -6.5  0     0     981.2    NA       0.0000   9999     3970  0     0    
2019/09/25  04:05:01  BASE  5.15676  129  6.47388  128  -2.9  75    -6.6  0     0     981.1    NA       0.0000   9999     3970  0     0    
2019/09/25  04:06:01  BASE  5.68596  131  6.47388  128  -2.9  75    -6.6  0     0     981.1    NA       0.0000   9999     4000  0     0    
2019/09/25  04:07:01  BASE  5.22732  127  6.47388  128  -2.9  75    -6.7  0     0     981.2    NA       0.0000   9999     3970  0     0    
2019/09/25  04:08:01  BASE  4.84512  123  6.47388  128  -2.9  75    -6.7  0     0     981.2    NA       0.0000   9999     4000  0     0    
2019/09/25  04:09:01  BASE  5.18028  121  6.3504   133  -2.9  74    -6.8  0     0     981.1    NA       0.0000   9999     4100  0     0    
2019/09/25  04:10:01  BASE  5.49192  120  6.3504   122  -2.9  74    -6.8  0     0     981.0    NA       0.0000   9999     3940  0     0    
2019/09/25  04:11:01  BASE  5.66244  121  6.3504   122  -2.8  74    -6.8  0     0     981.0    NA       0.0000   9999     3870  0     0    
2019/09/25  04:12:01  BASE  5.68596  118  6.3504   122  -2.8  74    -6.9  0     0     981.0    NA       0.0000   9999     3940  0     0    
2019/09/25  04:13:01  BASE  5.60364  115  6.3504   122  -2.8  73    -7.0  0     0     981.0    NA       0.0000   9999     3840  0     0    
2019/09/25  04:14:01  BASE  5.50368  122  6.3504   122  -2.8  73    -7.0  0     0     981.0    NA       0.0000   9999     3840  0     0    
2019/09/25  04:15:01  BASE  5.7624   126  7.2618   119  -2.8  73    -7.0  0     0     980.9    NA       0.0000   9999     3870  0     0    
2019/09/25  04:16:01  BASE  6.42096  122  7.59108  115  -2.8  73    -7.0  0     0     980.9    NA       0.0000   9999     3840  4460  0    
2019/09/25  04:17:01  BASE  5.68008  130  7.59108  115  -2.8  73    -7.0  0     0     980.9    NA       0.0000   9999     3710  4430  0    
2019/09/25  04:18:01  BASE  4.41     141  7.59108  115  -2.8  73    -7.0  0     0     980.9    NA       0.0000   9999     4590  0     0    
2019/09/25  04:19:01  BASE  4.42764  142  7.59108  115  -2.9  73    -7.0  0     0     980.9    NA       0.0000   9999     4560  0     0    
2019/09/25  04:20:01  BASE  4.93332  137  7.59108  115  -2.9  73    -7.0  0     0     980.9    NA       0.0000   9999     3740  4560  0    
2019/09/25  04:21:01  BASE  5.02152  133  7.59108  115  -2.9  73    -7.0  0     0     980.9    NA       0.0000   9999     3740  4590  0    
2019/09/25  04:22:01  BASE  4.63344  129  7.59108  115  -3.0  74    -7.0  0     0     980.9    NA       0.0000   9999     3710  0     0    
2019/09/25  04:23:01  BASE  5.00388  124  7.59108  115  -3.0  74    -7.0  0     0     980.9    NA       0.0000   9999     3900  4630  0    
2019/09/25  04:24:01  BASE  5.63892  119  7.59108  115  -3.0  74    -6.9  0     0     980.9    NA       0.0000   9999     3870  4660  0    
2019/09/25  04:25:01  BASE  5.439    114  7.59108  115  -2.9  74    -6.9  0     0     980.9    NA       0.0000   9999     3870  0     0    
2019/09/25  04:26:01  BASE  4.92744  109  6.62676  116  -2.9  74    -6.8  0     0     981.0    NA       0.0000   9999     3870  4660  0    
2019/09/25  04:27:01  BASE  4.72752  108  6.62676  116  -2.9  74    -6.8  0     0     981.0    NA       0.0000   9999     3740  4720  0    
2019/09/25  04:28:01  BASE  4.72164  108  6.62676  116  -2.9  74    -6.9  0     0     981.0    NA       0.0000   9999     3900  0     0    
2019/09/25  04:29:01  BASE  4.46292  105  6.62676  116  -2.9  74    -6.9  0     0     981.0    NA       0.0000   9999     3940  0     0    
2019/09/25  04:30:01  BASE  4.34532  109  6.62676  116  -2.9  74    -7.0  0     0     980.9    NA       0.0000   9999     3770  0     0    
2019/09/25  04:31:01  BASE  4.49232  116  6.62676  116  -3.0  74    -7.0  0     0     980.9    NA       0.0000   9999     3810  0     0    
2019/09/25  04:32:01  BASE  4.24536  108  6.62676  116  -2.9  74    -6.9  0     0     980.9    NA       0.0000   9999     3770  0     0    
2019/09/25  04:33:01  BASE  3.822    95   6.47388  118  -2.9  74    -6.9  0     0     981.0    NA       0.0000   9999     3900  0     0    
2019/09/25  04:34:01  BASE  3.95136  100  5.59776  112  -2.8  74    -6.8  0     0     981.0    NA       0.0000   9999     3940  0     0    
2019/09/25  04:35:01  BASE  4.15128  111  5.10972  121  -2.7  73    -6.8  0     0     981.0    NA       0.0000   9999     3870  0     0    
2019/09/25  04:36:01  BASE  4.22772  116  5.10972  121  -2.6  72    -6.9  0     0     980.9    NA       0.0000   9999     3870  0     0    
2019/09/25  04:37:01  BASE  4.04544  118  5.10972  121  -2.6  72    -7.0  0     0     980.9    NA       0.0000   9999     3900  0     0    
2019/09/25  04:38:01  BASE  3.9396   116  5.10972  121  -2.6  71    -7.1  0     0     980.9    NA       0.0000   9999     3870  4660  0    
2019/09/25  04:39:00  BASE  4.21596  116  5.10972  121  -2.6  71    -7.2  0     0     980.9    NA       0.0000   9999     3770  0     0    
2019/09/25  04:40:01  BASE  3.92196  116  5.10972  121  -2.6  71    -7.2  0     0     980.9    NA       0.0000   9999     3810  0     0    
2019/09/25  04:41:01  BASE  3.3222   119  5.02152  86   -2.7  71    -7.2  0     0     980.8    NA       0.0000   9999     3740  4590  0    
2019/09/25  04:42:01  BASE  3.19284  124  5.02152  86   -2.7  71    -7.3  0     0     980.8    NA       0.0000   9999     4360  0     0    
2019/09/25  04:43:01  BASE  3.44568  124  4.75104  117  -2.7  70    -7.4  0     0     980.7    NA       0.0000   9999     3940  0     0    
2019/09/25  04:44:01  BASE  3.99252  117  4.78044  117  -2.8  70    -7.5  0     0     980.8    NA       0.0000   9999     4660  0     0    
2019/09/25  04:45:01  BASE  4.3512   105  4.78044  88   -2.8  70    -7.5  0     0     980.8    NA       0.0000   9999     3870  0     0    
2019/09/25  04:46:01  BASE  4.18656  99   4.78044  88   -2.8  70    -7.6  0     0     980.7    NA       0.0000   9999     4040  0     0    
2019/09/25  04:47:00  BASE  4.13364  105  5.02152  107  -2.9  70    -7.7  0     0     980.7    NA       0.0000   9999     3900  0     0    
2019/09/25  04:48:01  BASE  4.36296  106  5.02152  107  -2.9  69    -7.7  0     0     980.7    NA       0.0000   9999     3940  4360  0    
2019/09/25  04:49:01  BASE  4.45116  103  5.02152  107  -2.9  69    -7.8  0     0     980.7    NA       0.0000   9999     3870  0     0    
2019/09/25  04:50:00  BASE  3.69852  98   5.02152  107  -3.0  69    -7.8  0     0     980.6    NA       0.0000   9999     3840  4720  0    
2019/09/25  04:51:00  BASE  2.78712  93   5.02152  107  -3.1  70    -7.8  0     0     980.6    NA       0.0000   9999     3870  0     0    
2019/09/25  04:52:01  BASE  2.75184  103  5.02152  107  -3.1  70    -7.8  0     0     980.6    NA       0.0000   9999     4070  0     0    
2019/09/25  04:53:00  BASE  3.12228  113  5.02152  107  -3.1  70    -7.8  0     0     980.6    NA       0.0000   9999     3870  0     0    
2019/09/25  04:54:01  BASE  3.51036  114  5.02152  107  -3.2  71    -7.7  0     0     980.6    NA       0.0000   9999     3870  0     0    
2019/09/25  04:55:00  BASE  3.59856  116  5.02152  107  -3.2  71    -7.7  0     0     980.6    NA       0.0000   9999     4000  0     0    
2019/09/25  04:56:01  BASE  3.35748  113  5.02152  107  -3.2  71    -7.7  0     0     980.6    NA       0.0000   9999     3940  0     0    
2019/09/25  04:57:00  BASE  2.94588  109  4.93332  101  -3.2  71    -7.7  0     0     980.6    NA       0.0000   9999     4000  0     0    
2019/09/25  04:58:01  BASE  2.74596  104  4.93332  101  -3.2  71    -7.7  0     0     980.6    NA       0.0000   9999     4000  0     0    
2019/09/25  04:59:00  BASE  2.95764  100  4.2042   113  -3.2  71    -7.6  0     0     980.6    NA       0.0000   9999     3970  0     0    
2019/09/25  05:00:00  BASE  3.3222   99   4.2042   113  -3.2  72    -7.6  0     0     980.6    NA       0.0000   9999     4100  0     0    
2019/09/25  05:01:00  BASE  3.85728  101  5.08032  99   -3.2  72    -7.6  0     0     980.6    NA       0.0000   9999     3970  0     0    
2019/09/25  05:02:00  BASE  4.31592  104  5.41548  104  -3.3  72    -7.6  0     0     980.4    NA       0.0000   9999     4040  4920  0    
2019/09/25  05:03:00  BASE  4.16892  112  5.41548  104  -3.3  73    -7.5  0     0     980.4    NA       0.0000   9999     4000  5120  0    
2019/09/25  05:04:00  BASE  4.30416  114  5.68596  92   -3.2  73    -7.4  0     0     980.4    NA       0.0000   9999     4170  5150  0    
2019/09/25  05:05:00  BASE  4.93332  116  5.92704  113  -3.2  73    -7.4  0     0     980.4    NA       0.0000   9999     4230  5220  0    
2019/09/25  05:06:01  BASE  4.97448  120  5.92704  113  -3.2  73    -7.3  0     0     980.4    NA       0.0000   9999     4270  5280  0    
2019/09/25  05:07:00  BASE  5.13912  109  5.92704  113  -3.1  73    -7.3  0     0     980.4    NA       0.0000   9999     4130  0     0    
2019/09/25  05:08:00  BASE  5.0862   100  5.92704  113  -3.1  73    -7.3  0     0     980.4    NA       0.0000   9999     4200  5050  0    
2019/09/25  05:09:00  BASE  4.851    105  5.92704  113  -3.2  73    -7.4  0     0     980.4    NA       0.0000   9999     4040  5220  0    
2019/09/25  05:10:00  BASE  4.90392  109  5.92704  113  -3.2  73    -7.4  0     0     980.4    NA       0.0000   9999     3970  0     0    
2019/09/25  05:11:00  BASE  4.48056  115  5.92704  113  -3.3  73    -7.4  0     0     980.3    NA       0.0000   9999     4000  0     0    
2019/09/25  05:12:01  BASE  4.15716  125  5.92704  113  -3.3  74    -7.3  0     0     980.3    NA       0.0000   9999     4100  0     0    
2019/09/25  05:13:00  BASE  4.21008  129  5.92704  113  -3.3  74    -7.3  0     0     980.3    NA       0.0000   9999     4070  5610  0    
2019/09/25  05:14:00  BASE  3.92196  132  5.92704  113  -3.3  74    -7.2  0     0     980.3    NA       0.0000   9999     4040  5680  0    
2019/09/25  05:15:00  BASE  3.90432  131  5.89764  103  -3.3  74    -7.2  0     0     980.2    NA       0.0000   9999     4230  5710  0    
2019/09/25  05:16:00  BASE  3.9396   112  5.80944  99   -3.3  74    -7.3  0     0     980.3    NA       0.0000   9999     4300  5610  0    
2019/09/25  05:17:00  BASE  4.46292  97   6.2622   101  -3.3  74    -7.3  0     0     980.2    NA       0.0000   9999     4170  0     0    
2019/09/25  05:18:00  BASE  5.87412  98   7.74396  95   -3.3  74    -7.3  0     0     980.2    NA       0.0000   9999     4270  5910  0    
2019/09/25  05:19:00  BASE  6.69732  98   7.95564  98   -3.4  74    -7.3  0     0     980.1    NA       0.0000   9999     4230  0     0    
2019/09/25  05:20:00  BASE  7.09128  95   7.95564  98   -3.4  74    -7.4  0     0     980.0    NA       0.0000   9999     4130  0     0    
2019/09/25  05:21:00  BASE  6.81492  95   7.95564  98   -3.4  74    -7.4  0     0     980.0    NA       0.0000   9999     4070  9420  0    
2019/09/25  05:22:01  BASE  6.70908  97   7.95564  98   -3.4  74    -7.3  0     0     980.0    NA       0.0000   9999     4360  0     0    
2019/09/25  05:23:00  BASE  6.91488  97   7.95564  98   -3.4  75    -7.3  0     0     979.9    NA       0.0000   9999     4530  0     0    
2019/09/25  05:24:00  BASE  6.4974   98   7.95564  98   -3.4  75    -7.2  0     0     979.9    NA       0.0000   9999     4660  9220  0    
2019/09/25  05:25:00  BASE  5.8506   99   7.95564  98   -3.4  75    -7.2  0     0     979.9    NA       0.0000   9999     4720  9150  0    
2019/09/25  05:26:00  BASE  5.34492  104  7.95564  98   -3.3  75    -7.1  0     0     979.9    NA       0.0000   9999     4590  9150  0    
2019/09/25  05:27:00  BASE  5.07444  105  7.95564  98   -3.3  75    -7.1  0     0     979.8    NA       0.0000   9999     4530  0     0    
2019/09/25  05:28:00  BASE  5.22144  103  7.95564  98   -3.3  75    -7.1  0     0     979.8    NA       0.0000   9999     4460  8960  0    
2019/09/25  05:29:00  BASE  5.86236  103  7.86744  95   -3.3  75    -7.2  0     0     979.8    NA       0.0000   9999     4360  8960  0    
2019/09/25  05:30:00  BASE  5.93292  102  7.59108  94   -3.3  74    -7.2  0     0     979.8    NA       0.0000   9999     4460  8860  0    
2019/09/25  05:31:00  BASE  5.95056  102  7.59108  94   -3.2  74    -7.2  0     0     979.8    NA       0.0000   9999     4460  8960  0    
2019/09/25  05:32:00  BASE  5.89764  104  7.3206   104  -3.3  74    -7.3  0     0     979.8    NA       0.0000   9999     4360  0     0    
2019/09/25  05:33:00  BASE  5.56248  104  7.3206   104  -3.3  74    -7.4  0     0     979.7    NA       0.0000   9999     4360  0     0    
2019/09/25  05:34:00  BASE  5.63304  105  7.3206   104  -3.4  74    -7.4  0     0     979.6    NA       0.0000   9999     4270  0     0    
2019/09/25  05:35:00  BASE  5.34492  106  7.3206   104  -3.4  74    -7.4  0     0     979.5    NA       0.0000   9999     4230  0     0    
2019/09/25  05:36:00  BASE  4.97448  104  7.3206   104  -3.4  74    -7.3  0     0     979.4    NA       0.0000   9999     4270  9060  0    
2019/09/25  05:37:00  BASE  4.704    103  7.3206   104  -3.3  74    -7.2  0     0     979.3    NA       0.0000   9999     4200  9090  0    
2019/09/25  05:38:00  BASE  4.36884  102  7.3206   104  -3.2  74    -7.1  0     0     979.2    NA       0.0000   9999     4200  8990  0    
2019/09/25  05:39:01  BASE  4.1454   99   6.74436  99   -3.1  74    -7.1  0     0     979.2    NA       0.0000   9999     4200  0     0    
2019/09/25  05:40:00  BASE  3.9102   97   6.71496  111  -3.0  73    -7.1  0     0     979.2    NA       0.0000   9999     4300  9120  0    
2019/09/25  05:41:00  BASE  3.63384  105  6.41508  104  -3.1  73    -7.2  0     0     979.2    NA       0.0000   9999     9150  0     0    
2019/09/25  05:42:00  BASE  3.27516  114  6.41508  104  -3.1  73    -7.3  0     0     979.2    NA       0.0000   9999     9060  0     0    
2019/09/25  05:43:00  BASE  3.01056  108  6.2622   104  -3.1  73    -7.3  0     0     979.2    NA       0.0000   9999     9060  0     0    
2019/09/25  05:44:00  BASE  2.89296  101  5.47428  105  -3.1  73    -7.3  0     0     979.2    NA       0.0000   9999     9220  0     0    
2019/09/25  05:45:00  BASE  2.8812   96   5.47428  105  -3.1  72    -7.3  0     0     979.2    NA       0.0000   9999     9090  0     0    
2019/09/25  05:46:00  BASE  3.01644  91   4.99212  103  -3.0  72    -7.3  0     0     979.2    NA       0.0000   9999     8600  0     0    
2019/09/25  05:47:00  BASE  3.15756  89   4.65696  99   -2.9  72    -7.3  0     0     979.2    NA       0.0000   9999     8790  0     0    
2019/09/25  05:48:00  BASE  3.04584  83   4.59816  96   -2.9  71    -7.3  0     0     979.2    NA       0.0000   9999     8730  0     0    
2019/09/25  05:49:00  BASE  2.7636   73   4.2336   95   -2.8  71    -7.4  0     0     979.2    NA       0.0000   9999     8330  0     0    
2019/09/25  05:50:00  BASE  2.6166   70   3.75144  110  -2.8  70    -7.4  0     0     979.2    NA       0.0000   9999     8070  0     0    
2019/09/25  05:51:00  BASE  2.49312  74   3.48096  90   -2.8  70    -7.5  0     0     979.2    NA       0.0000   9999     7940  8600  0    
2019/09/25  05:52:00  BASE  2.37552  79   3.48096  90   -2.7  69    -7.6  0     0     979.2    NA       0.0000   9999     8560  0     0    
2019/09/25  05:53:00  BASE  1.92276  93   3.48096  90   -2.7  69    -7.6  0     0     979.2    NA       0.0000   9999     8530  0     0    
2019/09/25  05:54:00  BASE  1.2642   120  3.48096  90   -2.7  69    -7.7  0     0     979.2    NA       0.0000   9999     8400  0     0    
2019/09/25  05:55:00  BASE  0.6174   197  3.48096  90   -2.8  69    -7.8  0     0     979.2    NA       0.0000   9999     8560  0     0    
2019/09/25  05:56:00  BASE  0.54096  238  3.48096  90   -3.0  69    -7.9  0     0     979.2    NA       0.0000   9999     8040  8790  0    
2019/09/25  05:57:00  BASE  0.98784  232  3.0576   85   -3.3  70    -8.0  0     0     979.2    NA       0.0000   9999     8730  0     0    
2019/09/25  05:58:00  BASE  1.1466   221  2.99292  68   -3.5  71    -8.0  0     0     979.2    NA       0.0000   9999     8010  8860  0    
2019/09/25  05:59:00  BASE  1.21716  233  2.87532  75   -3.6  73    -7.8  0     0     979.2    NA       0.0000   9999     8040  0     0    
2019/09/25  06:00:00  BASE  1.323    236  2.87532  75   -3.6  74    -7.6  0     0     979.2    NA       0.0000   9999     8560  0     0    
2019/09/25  06:01:00  BASE  1.37004  224  2.87532  75   -3.6  75    -7.4  0     0     979.2    NA       0.0000   9999     8100  0     0    
2019/09/25  06:02:00  BASE  1.31124  219  1.81692  223  -3.5  75    -7.3  0     0     979.2    NA       0.0000   9999     8690  0     0    
2019/09/25  06:03:00  BASE  1.28772  224  1.81692  223  -3.5  75    -7.3  0     0     979.2    NA       0.0000   9999     8690  0     0    
2019/09/25  06:04:00  BASE  1.21128  238  1.81692  223  -3.6  75    -7.3  0     0     979.2    NA       0.0000   9999     8070  0     0    
2019/09/25  06:05:00  BASE  1.13484  251  1.81692  223  -3.7  75    -7.4  0     0     979.2    NA       0.0000   9999     8100  0     0    
2019/09/25  06:06:00  BASE  1.05252  254  1.81692  223  -3.9  76    -7.5  0     0     979.2    NA       0.0000   9999     8600  0     0    
2019/09/25  06:07:00  BASE  1.01724  253  1.81692  223  -4.0  76    -7.5  0     0     979.1    NA       0.0000   9999     7910  0     0    
2019/09/25  06:08:00  BASE  1.05252  249  1.81692  223  -4.1  77    -7.6  0     0     979.1    NA       0.0000   9999     7480  8270  8630 
2019/09/25  06:09:00  BASE  1.15248  245  1.81692  223  -4.1  77    -7.5  0     0     979.1    NA       0.0000   9999     7320  0     0    
2019/09/25  06:10:00  BASE  1.4112   242  1.63464  238  -4.2  78    -7.5  0     0     979.1    NA       0.0000   9999     7280  0     0    
2019/09/25  06:11:00  BASE  1.617    238  1.78752  238  -4.2  78    -7.4  0     0     979.1    NA       0.0000   9999     8040  0     0    
2019/09/25  06:12:00  BASE  1.52292  239  1.78752  238  -4.1  79    -7.2  0     0     979.1    NA       0.0000   9999     7940  0     0    
2019/09/25  06:13:00  BASE  1.25244  239  1.78752  238  -4.1  79    -7.1  0     0     979.0    NA       0.0000   9999     7870  0     0    
2019/09/25  06:14:00  BASE  1.12308  235  1.78752  238  -4.0  79    -7.1  0     0     979.0    NA       0.0000   9999     7420  8460  0    
2019/09/25  06:15:00  BASE  0.84672  236  1.78752  238  -4.0  79    -7.0  0     0     979.0    NA       0.0000   9999     7280  8500  0    
2019/09/25  06:16:00  BASE  0.68208  249  1.78752  238  -3.9  79    -7.0  0     0     979.0    NA       0.0000   9999     7250  7910  0    
2019/09/25  06:17:00  BASE  0.6174   256  1.78752  238  -3.9  79    -7.0  0     0     978.9    NA       0.0000   9999     7250  0     0    
2019/09/25  06:18:00  BASE  0.7056   252  1.78752  238  -4.0  79    -7.1  0     0     978.9    NA       0.0000   9999     7190  7810  0    
2019/09/25  06:19:00  BASE  0.98784  250  1.78752  238  -4.0  79    -7.1  0     0     978.9    NA       0.0000   9999     7220  0     0    
2019/09/25  06:20:00  BASE  1.1172   252  1.78752  238  -4.1  79    -7.2  0     0     978.8    NA       0.0000   9999     7120  0     0    
2019/09/25  06:21:00  BASE  1.39356  252  1.81692  254  -4.1  79    -7.2  0     0     978.7    NA       0.0000   9999     6920  0     0    
2019/09/25  06:22:00  BASE  1.34652  252  1.81692  254  -4.1  79    -7.2  0     0     978.7    NA       0.0000   9999     6920  0     0    
2019/09/25  06:23:00  BASE  0.5586   266  1.81692  254  -4.2  79    -7.3  0     0     978.7    NA       0.0000   9999     6790  0     0    
2019/09/25  06:24:00  BASE  0.31752  322  1.81692  254  -4.2  79    -7.3  0     0     978.7    NA       0.0000   9999     6460  0     0    
2019/09/25  06:25:00  BASE  0.92316  32   1.81692  254  -4.2  79    -7.3  0     0     978.6    NA       0.0000   9999     6230  0     0    
2019/09/25  06:26:01  BASE  1.15836  35   1.81692  254  -4.2  79    -7.3  0     0     978.6    NA       0.0000   9999     6170  0     0    
2019/09/25  06:27:01  BASE  1.18188  18   1.81692  254  -4.2  80    -7.2  0     0     978.6    NA       0.0000   9999     5970  0     0    
2019/09/25  06:28:00  BASE  1.37004  15   1.81692  254  -4.3  80    -7.2  0     0     978.6    NA       0.0000   9999     5870  0     0    
2019/09/25  06:29:01  BASE  1.19364  21   1.81692  254  -4.3  80    -7.2  0     0     978.5    NA       0.0000   9999     5770  0     0    
2019/09/25  06:30:00  BASE  0.45864  3    1.81692  254  -4.4  80    -7.3  0     0     978.4    NA       0.0000   9999     5710  0     0    
2019/09/25  06:31:00  BASE  0        328  1.69344  10   -4.4  80    -7.3  0     0     978.3    NA       0.0000   9999     5640  0     0    
2019/09/25  06:32:00  BASE  0        315  1.69344  10   -4.4  81    -7.2  0     0     978.3    NA       0.0000   9999     5640  0     0    
2019/09/25  06:33:00  BASE  0.09408  288  1.69344  10   -4.4  81    -7.1  0     0     978.2    NA       0.0000   9999     5320  0     0    
2019/09/25  06:34:00  BASE  0.62328  210  1.69344  10   -4.3  82    -7.0  0     0     978.1    NA       0.0000   9999     5280  0     0    
2019/09/25  06:35:00  BASE  1.12308  186  1.69344  10   -4.2  82    -6.9  0     0     978.1    NA       0.0000   9999     5280  0     0    
2019/09/25  06:36:01  BASE  1.31712  178  1.69344  10   -4.1  82    -6.8  0     0     978.0    NA       0.0000   9999     5250  0     0    
2019/09/25  06:37:00  BASE  1.5582   168  1.87572  148  -4.1  81    -6.8  0     0     977.9    NA       0.0000   9999     5120  0     0    
2019/09/25  06:38:00  BASE  1.68168  152  1.87572  155  -4.1  81    -6.9  0     0     977.9    NA       0.0000   9999     4040  5150  0    
2019/09/25  06:39:00  BASE  1.60524  143  1.87572  155  -4.2  81    -6.9  0     0     977.8    NA       0.0000   9999     5150  0     0    
2019/09/25  06:40:00  BASE  1.56408  137  1.87572  155  -4.2  81    -7.0  0     0     977.8    NA       0.0000   9999     5050  0     0    
2019/09/25  06:41:01  BASE  1.68168  135  1.87572  137  -4.2  81    -6.9  0     0     977.7    NA       0.0000   9999     5090  0     0    
2019/09/25  06:42:01  BASE  1.76988  139  1.87572  151  -4.1  81    -6.9  0     0     977.7    NA       0.0000   9999     4790  0     0    
2019/09/25  06:43:00  BASE  1.83456  150  2.1756   164  -4.1  81    -6.9  0     0     977.7    NA       0.0000   9999     4990  0     0    
2019/09/25  06:44:00  BASE  1.68756  159  2.1756   164  -4.0  81    -6.8  0     0     977.6    NA       0.0000   9999     4820  0     0    
2019/09/25  06:45:00  BASE  1.48176  160  2.1756   164  -4.0  81    -6.8  0     0     977.6    NA       0.0000   9999     4790  0     0    
2019/09/25  06:46:00  BASE  1.39944  160  2.1756   164  -4.0  81    -6.7  0     0     977.6    NA       0.0000   9999     4760  0     0    
2019/09/25  06:47:00  BASE  1.0584   185  2.1756   164  -3.9  81    -6.7  0     0     977.5    NA       0.0000   9999     4490  0     0    
2019/09/25  06:48:00  BASE  0.39984  204  2.1756   164  -3.9  81    -6.7  0     0     977.4    NA       0.0000   9999     4530  0     0    
2019/09/25  06:49:00  BASE  0.18816  185  2.1756   164  -3.9  81    -6.7  0     0     977.4    NA       0.0000   9999     4590  0     0    
2019/09/25  06:50:00  BASE  0.27636  161  2.1756   164  -3.9  81    -6.7  0     0     977.4    NA       0.0000   9999     4590  0     0    
2019/09/25  06:51:00  BASE  0.68208  155  2.1756   164  -3.9  81    -6.7  0     0     977.4    NA       0.0000   9999     4530  0     0    
2019/09/25  06:52:00  BASE  1.41708  157  2.48136  143  -4.0  81    -6.8  0     0     977.3    NA       0.0000   9999     4360  0     0    
2019/09/25  06:53:00  BASE  2.62836  146  4.56876  138  -4.0  81    -6.8  0     0     977.3    NA       0.0000   9999     4300  0     0    
2019/09/25  06:54:00  BASE  3.88668  137  4.86864  131  -3.9  81    -6.7  0     0     977.3    NA       0.0000   9999     4330  0     0    
2019/09/25  06:55:00  BASE  4.50996  129  5.2332   130  -3.8  81    -6.6  0     0     977.2    NA       0.0000   9999     4300  0     0    
2019/09/25  06:56:00  BASE  4.77456  126  5.3214   121  -3.7  81    -6.5  0     0     977.2    NA       0.0000   9999     4300  0     0    
2019/09/25  06:57:00  BASE  5.19204  126  6.2328   125  -3.5  80    -6.4  0     0     977.1    NA       0.0000   9999     4460  0     0    
2019/09/25  06:58:00  BASE  5.5566   125  6.2622   127  -3.4  80    -6.3  0     0     977.0    NA       0.0000   9999     4170  0     0    
2019/09/25  06:59:01  BASE  5.60952  125  6.2622   127  -3.3  80    -6.3  0     0     977.0    NA       0.0000   9999     4200  0     0    
2019/09/25  07:00:01  BASE  5.62716  123  6.2622   127  -3.2  79    -6.3  0     0     976.9    NA       0.0000   9999     4200  0     0    
2019/09/25  07:01:01  BASE  5.37432  123  6.2622   127  -3.2  78    -6.4  0     0     976.8    NA       0.0000   9999     4070  0     0    
2019/09/25  07:02:00  BASE  5.22144  124  6.2622   127  -3.1  78    -6.4  0     0     976.8    NA       0.0000   9999     4000  0     0    
2019/09/25  07:03:00  BASE  5.40372  127  6.2622   130  -3.0  77    -6.4  0     0     976.7    NA       0.0000   9999     4130  0     0    
2019/09/25  07:04:00  BASE  5.51544  130  6.2622   130  -3.0  77    -6.5  0     0     976.7    NA       0.0000   9999     4170  0     0    
2019/09/25  07:05:00  BASE  5.37432  132  6.2622   130  -3.0  76    -6.6  0     0     976.6    NA       0.0000   9999     3870  0     0    
2019/09/25  07:06:00  BASE  5.13912  132  6.2622   130  -3.0  76    -6.6  0     0     976.6    NA       0.0000   9999     4000  0     0    
2019/09/25  07:07:00  BASE  4.81572  129  6.2622   130  -3.0  76    -6.7  0     0     976.6    NA       0.0000   9999     4040  0     0    
2019/09/25  07:08:01  BASE  4.66872  125  6.2622   130  -3.0  76    -6.7  0     0     976.6    NA       0.0000   9999     4000  0     0    
2019/09/25  07:09:00  BASE  4.45116  122  6.2622   130  -3.0  76    -6.7  0     0     976.5    NA       0.0000   9999     4100  0     0    
2019/09/25  07:10:00  BASE  4.54524  120  6.2622   130  -3.0  76    -6.7  0     0     976.5    NA       0.0000   9999     4070  0     0    
2019/09/25  07:11:00  BASE  5.03916  119  6.2622   130  -3.0  76    -6.6  0     0     976.4    NA       0.0000   9999     4070  0     0    
2019/09/25  07:12:00  BASE  5.24496  117  6.2622   130  -3.0  76    -6.6  0     0     976.3    NA       0.0000   9999     4100  0     0    
2019/09/25  07:13:00  BASE  5.49192  117  6.2916   126  -3.0  76    -6.5  0     0     976.2    NA       0.0000   9999     4040  0     0    
2019/09/25  07:14:00  BASE  5.76828  115  6.2916   126  -3.0  77    -6.5  0     0     976.2    NA       0.0000   9999     4130  0     0    
2019/09/25  07:15:00  BASE  5.60364  109  6.2916   126  -3.0  77    -6.5  0     0     976.2    NA       0.0000   9999     4100  0     0    
2019/09/25  07:16:01  BASE  5.47428  102  6.2916   126  -3.0  76    -6.6  0     0     976.2    NA       0.0000   9999     4130  0     0    
2019/09/25  07:17:00  BASE  5.2332   101  6.2916   126  -3.0  76    -6.6  0     0     976.1    NA       0.0000   9999     3970  0     0    
2019/09/25  07:18:00  BASE  4.96272  103  6.2916   126  -3.1  76    -6.7  0     0     976.0    NA       0.0000   9999     3970  0     0    
2019/09/25  07:19:00  BASE  5.02152  108  6.2916   126  -3.2  76    -6.8  0     0     975.9    NA       0.0000   9999     3840  0     0    
2019/09/25  07:20:00  BASE  5.18616  116  6.2916   126  -3.2  76    -6.7  0     0     975.8    NA       0.0000   9999     3810  0     0    
2019/09/25  07:21:00  BASE  5.586    125  6.68556  135  -3.2  77    -6.7  0     0     975.7    NA       0.0000   9999     3810  0     0    
2019/09/25  07:22:00  BASE  6.06228  128  7.19712  130  -3.1  77    -6.6  0     0     975.6    NA       0.0000   9999     3900  0     0    
2019/09/25  07:23:00  BASE  6.4974   124  7.2912   121  -3.0  76    -6.6  0     0     975.6    NA       0.0000   9999     3940  0     0    
2019/09/25  07:24:00  BASE  6.66204  126  7.2912   121  -3.0  76    -6.6  0     0     975.4    NA       0.0000   9999     3970  0     0    
2019/09/25  07:25:00  BASE  6.62088  131  8.01444  123  -2.9  76    -6.6  0     0     975.3    NA       0.0000   9999     3970  0     0    
2019/09/25  07:26:00  BASE  6.86196  128  8.01444  123  -2.9  75    -6.7  0     0     975.3    NA       0.0000   9999     3940  0     0    
2019/09/25  07:27:00  BASE  7.5558   121  8.64948  116  -2.9  75    -6.7  0     0     975.3    NA       0.0000   9999     3970  0     0    
2019/09/25  07:28:00  BASE  7.72044  122  8.64948  116  -2.9  75    -6.7  0     0     975.3    NA       0.0000   9999     3900  0     0    
2019/09/25  07:29:00  BASE  7.44996  125  8.95524  122  -2.9  75    -6.7  0     0     975.2    NA       0.0000   9999     3310  0     0    
2019/09/25  07:30:00  BASE  7.47936  124  8.95524  122  -2.9  75    -6.7  0     0     975.1    NA       0.0000   9999     3480  0     0    
2019/09/25  07:31:00  BASE  7.46172  125  8.95524  122  -2.9  75    -6.7  0     0     975.0    NA       0.0000   9999     2950  3580  0    
2019/09/25  07:32:00  BASE  7.64988  122  8.95524  122  -2.9  75    -6.6  0     0     974.9    NA       0.0000   9999     1940  0     0    
2019/09/25  07:33:00  BASE  7.91448  120  8.95524  122  -2.8  76    -6.6  0     0     974.8    NA       0.0000   9999     3220  0     0    
2019/09/25  07:34:00  BASE  8.232    122  8.95524  120  -2.8  76    -6.5  0     0     974.8    NA       0.0000   9999     2950  0     0    
2019/09/25  07:35:00  BASE  8.46132  123  9.13752  126  -2.8  76    -6.4  0     0     974.8    NA       0.0000   9999     3220  0     0    
2019/09/25  07:36:00  BASE  8.41428  128  9.13752  126  -2.7  76    -6.4  0     0     974.6    NA       0.0000   9999     2760  0     0    
2019/09/25  07:37:00  BASE  8.53776  134  9.59028  134  -2.7  75    -6.5  0     0     974.6    NA       0.0000   9999     2850  0     0    
2019/09/25  07:38:00  BASE  9.04932  135  10.3135  131  -2.7  75    -6.5  0     0     974.7    NA       0.0000   9999     3080  0     0    
2019/09/25  07:39:00  BASE  9.0846   132  10.3135  131  -2.7  75    -6.5  0     0     974.7    NA       0.0000   9999     2790  0     0    
2019/09/25  07:40:00  BASE  8.57304  131  10.3135  131  -2.7  75    -6.5  0     0     974.7    NA       0.0000   UP       9999  3050  0    
2019/09/25  07:41:00  BASE  8.75532  133  10.3135  131  -2.6  75    -6.5  0     0     974.7    NA       0.0000   UP       9999  3050  0    
2019/09/25  07:42:00  BASE  8.86116  131  10.3135  131  -2.6  75    -6.4  0     0     974.8    NA       0.0000   UP       9999  3150  0    
2019/09/25  07:43:00  BASE  8.00856  130  10.3135  131  -2.6  75    -6.4  0     0     974.8    NA       0.0000   UP       9999  3050  0    
2019/09/25  07:44:00  BASE  7.79688  134  10.3135  131  -2.6  75    -6.5  0     0     974.7    NA       0.0000   UP       9999  3020  0    
2019/09/25  07:45:00  BASE  7.45584  132  10.3135  131  -2.6  75    -6.4  0     0     974.8    NA       0.0000   UP       9999  3740  0    
2019/09/25  07:46:00  BASE  6.45036  121  10.3135  131  -2.7  75    -6.4  0     0     974.9    NA       0.0000   UP       9999  3740  0    
2019/09/25  07:47:00  BASE  6.12696  110  10.3135  131  -2.7  76    -6.4  0     0     974.9    NA       0.0000   UP       9999  3670  0    
2019/09/25  07:48:00  BASE  6.4386   115  9.89016  133  -2.7  76    -6.3  0     0     974.8    NA       0.0000   UP       9999  3510  0    
2019/09/25  07:49:00  BASE  6.97956  128  9.89016  133  -2.7  77    -6.2  0     0     974.7    NA       0.0000   UP       9999  3610  0    
2019/09/25  07:50:00  BASE  7.1148   127  9.89016  133  -2.7  77    -6.2  0     0     974.8    NA       0.0000   9999     3610  0     0    
2019/09/25  07:51:00  BASE  7.33236  119  9.4374   132  -2.6  77    -6.1  0     0     974.7    NA       0.0000   9999     3510  0     0    
2019/09/25  07:52:00  BASE  7.53816  116  8.92584  144  -2.6  77    -6.1  0     0     974.6    NA       0.0000   9999     3250  0     0    
2019/09/25  07:53:00  BASE  7.73808  114  8.92584  144  -2.6  77    -6.1  0     0     974.6    NA       0.0000   9999     3480  0     0    
2019/09/25  07:54:00  BASE  8.07912  112  8.74356  115  -2.6  77    -6.0  0     0     974.6    NA       0.0000   9999     3710  0     0    
2019/09/25  07:55:00  BASE  8.35548  115  8.98464  120  -2.5  77    -6.0  0     0     974.5    NA       0.0000   9999     3120  0     0    
2019/09/25  07:56:00  BASE  8.17908  116  8.98464  120  -2.4  77    -5.9  0     0     974.5    NA       0.0000   9999     2590  0     0    
2019/09/25  07:57:00  BASE  8.4084   119  9.4962   124  -2.3  76    -5.9  0     0     974.2    NA       0.0000   9999     2170  0     0    
2019/09/25  07:58:00  BASE  9.70788  126  11.7659  123  -2.3  76    -6.0  0     0     974.0    NA       0.0000   9999     4070  0     0    
2019/09/25  07:59:00  BASE  11.0309  127  12.495   124  -2.2  75    -6.0  0     0     973.9    NA       0.0000   9999     1310  3250  0    
2019/09/25  08:00:00  BASE  11.4778  125  12.495   124  -2.2  75    -6.0  0     0     973.8    NA       0.0000   9999     2560  0     0    
2019/09/25  08:01:00  BASE  10.6898  127  12.495   124  -2.2  75    -6.0  0     0     973.9    NA       0.0000   9999     3020  0     0    
2019/09/25  08:02:00  BASE  9.37272  133  12.495   124  -2.2  75    -6.0  0     0     973.9    NA       0.0000   9999     2890  0     0    
2019/09/25  08:03:00  BASE  8.76708  126  12.495   124  -2.1  75    -5.9  0     0     974.0    NA       0.0000   9999     1870  0     0    
2019/09/25  08:04:00  BASE  9.9078   115  12.495   124  -2.1  75    -5.9  0     0     974.0    NA       0.0000   9999     2260  0     0    
2019/09/25  08:05:00  BASE  10.9486  115  12.495   124  -2.1  75    -6.0  0     0     973.9    NA       0.0000   9999     2890  0     0    
2019/09/25  08:06:00  BASE  10.9133  118  12.495   124  -2.1  75    -6.0  0     0     973.9    NA       0.0000   UP       9999  3250  0    
2019/09/25  08:07:00  BASE  10.3135  121  12.495   124  -2.2  75    -6.1  0     0     973.9    NA       0.0000   UP       9999  4270  0    
2019/09/25  08:08:00  BASE  9.77844  126  12.495   124  -2.2  75    -6.1  0     0     973.7    NA       0.0000   UP       9999  2560  3410 
2019/09/25  08:09:00  BASE  10.5017  127  12.2186  124  -2.3  75    -6.1  0     0     973.8    NA       0.0000   UP       9999  3350  0    
2019/09/25  08:10:00  BASE  11.1838  125  12.6126  120  -2.3  75    -6.0  0     0     973.8    NA       0.0000   UP       9999  3410  4400 
2019/09/25  08:11:00  BASE  11.3249  128  12.6126  120  -2.3  76    -6.0  0     0     973.5    NA       0.0000   UP       9999  3610  0    
2019/09/25  08:12:00  BASE  11.4248  133  12.6126  120  -2.3  76    -6.0  0     0     973.5    NA       0.0000   UP       9999  3280  0    
2019/09/25  08:13:00  BASE  10.6957  134  12.6126  120  -2.4  76    -6.0  0     0     973.7    NA       0.0000   UP       9999  3540  0    
2019/09/25  08:14:00  BASE  9.49032  134  12.6126  120  -2.4  76    -6.0  0     0     973.8    NA       0.0000   UP       9999  3540  0    
2019/09/25  08:15:00  BASE  7.53228  135  12.6126  120  -2.5  77    -6.0  0     0     973.9    NA       0.0000   UP       9999  4070  0    
2019/09/25  08:16:00  BASE  5.72712  135  12.6126  120  -2.5  77    -6.0  0     0     973.8    NA       0.0000   UP       9999  4200  0    
2019/09/25  08:17:00  BASE  5.39196  128  12.6126  120  -2.4  77    -5.8  0     0     973.6    NA       0.0000   UP       9999  4100  0    
2019/09/25  08:18:00  BASE  7.76748  108  12.6126  120  -2.3  78    -5.7  0     0     973.6    NA       0.0000   UP       9999  4040  0    
2019/09/25  08:19:00  BASE  9.702    91   12.6126  120  -2.1  78    -5.5  0     0     973.7    NA       0.0000   UP       9999  3310  0    
2019/09/25  08:20:00  BASE  9.47268  84   12.248   133  -2.0  78    -5.3  0     0     973.7    NA       0.0000   UP       9999  3970  0    
2019/09/25  08:21:00  BASE  9.0846   84   12.248   133  -1.9  78    -5.2  0     0     973.6    NA       0.0000   UP       9999  3970  0    
2019/09/25  08:22:00  BASE  9.80784  95   13.2182  111  -1.9  78    -5.2  0     0     973.5    NA       0.0000   UP       9999  4000  0    
2019/09/25  08:23:00  BASE  8.82588  109  13.2182  111  -2.0  78    -5.3  0     0     973.7    NA       0.0000   UP       9999  3900  0    
2019/09/25  08:24:00  BASE  8.04384  108  13.6416  106  -2.1  78    -5.4  0     0     973.4    NA       0.0000   UP       9999  4230  0    
2019/09/25  08:25:00  BASE  10.3076  105  13.6416  106  -2.2  78    -5.5  0     0     973.3    NA       0.0000   UP       9999  3020  0    
2019/09/25  08:26:01  BASE  11.5542  108  13.9768  110  -2.3  78    -5.5  0     0     973.2    NA       0.0000   UP       9999  3870  0    
2019/09/25  08:27:00  BASE  11.3837  108  13.9768  110  -2.3  78    -5.6  0     0     973.4    NA       0.0000   UP       9999  4000  0    
2019/09/25  08:28:00  BASE  10.2724  109  13.9768  110  -2.3  79    -5.5  0     0     973.2    NA       0.0000   UP       9999  4100  0    
2019/09/25  08:29:00  BASE  9.22572  115  13.9768  125  -2.3  79    -5.5  0     0     973.2    NA       0.0000   UP       9999  3940  0    
2019/09/25  08:30:00  BASE  9.9666   112  13.9768  125  -2.3  79    -5.5  0     0     973.3    NA       0.0000   UP       9999  3870  0    
2019/09/25  08:31:00  BASE  11.5836  109  13.9768  125  -2.3  79    -5.5  0     0     973.1    NA       0.0000   UP       9999  2890  3380 
2019/09/25  08:32:01  BASE  11.8129  120  13.9768  125  -2.3  79    -5.5  0     0     972.8    NA       0.0000   UP       9999  4490  0    
2019/09/25  08:33:00  BASE  10.9897  125  13.9768  125  -2.4  79    -5.5  0     0     972.9    NA       0.0000   UP       9999  4490  0    
2019/09/25  08:34:00  BASE  12.689   115  19.2688  88   -2.4  79    -5.5  0     0     972.6    NA       0.0000   UP       9000  2890  0    
2019/09/25  08:35:00  BASE  13.3946  104  19.2688  88   -2.3  80    -5.3  0     0     973.2    NA       0.0000   UP       6000  5910  0    
2019/09/25  08:36:00  BASE  8.68476  97   19.2688  88   -2.2  80    -5.2  0     0     973.4    NA       0.0000   UP       7000  3050  3840 
2019/09/25  08:37:00  BASE  4.66284  85   19.2688  88   -2.0  80    -5.1  0     0     973.2    NA       0.0000   UP       9999  3810  0    
2019/09/25  08:38:00  BASE  7.73808  97   19.2688  88   -2.0  80    -5.0  0     0     972.7    NA       0.0000   UP       9999  3810  0    
2019/09/25  08:39:00  BASE  11.9658  118  19.2688  88   -1.9  80    -5.0  0     0     972.5    NA       0.0000   UP       SQ    8000  2890 
2019/09/25  08:40:00  BASE  13.5534  109  19.2688  88   -2.0  79    -5.1  0     0     972.5    NA       0.0000   UP       SQ    8000  0    
2019/09/25  08:41:00  BASE  11.3954  67   19.2688  88   -1.8  80    -4.9  0     0     973.2    NA       0.0000   UP       SQ    5000  0    
2019/09/25  08:42:00  BASE  5.5272   57   19.2688  88   -1.4  80    -4.4  0     0     973.1    NA       0.0000   UP       7000  0     0    
2019/09/25  08:43:00  BASE  4.27476  119  19.2688  88   -1.1  80    -4.1  0     0     972.9    NA       0.0000   UP       7000  3810  0    
2019/09/25  08:44:00  BASE  6.4386   133  18.816   94   -0.8  79    -4.0  0     0     972.8    NA       0.0000   UP       7000  3870  0    
2019/09/25  08:45:00  BASE  9.79608  131  17.5165  75   -0.6  78    -4.0  0     0     972.3    NA       0.0000   UP       SQ    7000  2850 
2019/09/25  08:46:00  BASE  11.8482  134  17.5165  75   -0.7  77    -4.3  0     0     972.4    NA       0.0000   UP       SQ    7000  2720 
2019/09/25  08:47:00  BASE  10.1136  136  17.5165  75   -1.2  76    -4.8  0     0     972.5    NA       0.0000   UP       SQ    7000  3540 
2019/09/25  08:48:00  BASE  8.4672   137  17.5165  75   -1.5  76    -5.1  0     0     972.4    NA       0.0000   UP       7000  1180  0    
2019/09/25  08:49:00  BASE  7.26768  141  17.5165  75   -1.6  77    -5.2  0     0     972.7    NA       0.0000   UP       7000  2820  0    
2019/09/25  08:50:00  BASE  3.95724  137  15.2468  66   -1.6  78    -5.0  0     0     972.7    NA       0.0000   UP       8000  1350  0    
2019/09/25  08:51:00  BASE  3.38688  134  14.0944  141  -1.4  78    -4.7  0     0     972.6    NA       0.0000   UP       9999  2720  0    
2019/09/25  08:52:00  BASE  7.51464  133  14.0944  141  -1.3  78    -4.5  0     0     972.3    NA       0.0000   UP       9000  3380  0    
2019/09/25  08:53:00  BASE  11.2896  125  14.0944  141  -1.2  78    -4.5  0     0     972.0    NA       0.0000   UP       SQ    7000  2850 
2019/09/25  08:54:00  BASE  11.6542  130  14.0944  141  -1.2  78    -4.5  0     0     972.1    NA       0.0000   UP       SQ    7000  3280 
2019/09/25  08:55:00  BASE  8.19084  132  13.7357  124  -1.4  78    -4.7  0     0     972.4    NA       0.0000   UP       8000  3080  0    
2019/09/25  08:56:00  BASE  5.71536  114  13.7357  124  -1.5  78    -4.8  0     0     972.5    NA       0.0000   UP       9999  2760  0    
2019/09/25  08:57:00  BASE  6.49152  97   13.7357  124  -1.5  78    -4.8  0     0     972.6    NA       0.0000   UP       9999  2820  0    
2019/09/25  08:58:00  BASE  9.09636  106  14.2178  112  -1.4  79    -4.6  0     0     972.3    NA       0.0000   UP       7000  2920  0    
2019/09/25  08:59:00  BASE  10.484   119  14.2178  112  -1.2  79    -4.4  0     0     972.3    NA       0.0000   UP       5000  2820  0    
2019/09/25  09:00:00  BASE  9.24336  123  14.2178  112  -1.0  79    -4.2  0     0     972.4    NA       0.0000   UP       9000  2850  3840 
2019/09/25  09:01:00  BASE  10.4899  120  14.2178  112  -1.0  79    -4.2  0     0     972.1    NA       0.0000   UP       9999  2820  0    
2019/09/25  09:02:00  BASE  12.6655  115  15.0352  115  -1.1  79    -4.4  0     0     972.1    NA       0.0000   UP       9999  2990  0    
2019/09/25  09:03:00  BASE  11.8129  110  15.0352  115  -1.3  78    -4.6  0     0     972.4    NA       0.0000   UP       9999  2790  0    
2019/09/25  09:04:00  BASE  9.27276  106  15.0352  115  -1.5  78    -4.8  0     0     972.5    NA       0.0000   UP       9999  2920  0    
2019/09/25  09:05:00  BASE  7.40292  113  15.0352  115  -1.8  78    -5.1  0     0     972.3    NA       0.0000   UP       9999  2660  0    
2019/09/25  09:06:00  BASE  9.76668  122  15.0352  115  -1.9  78    -5.2  0     0     972.0    NA       0.0000   UP       9999  3080  0    
2019/09/25  09:07:00  BASE  11.4248  115  15.0352  115  -2.0  79    -5.3  0     0     972.2    NA       0.0000   UP       9999  0     0    
2019/09/25  09:08:00  BASE  10.4958  109  15.0352  115  -2.1  79    -5.2  0     0     972.2    NA       0.0000   UP       9999  0     0    
2019/09/25  09:09:00  BASE  11.513   114  15.0352  115  -2.1  80    -5.2  0     0     972.0    NA       0.0000   UP       8000  2560  0    
2019/09/25  09:10:00  BASE  10.8133  118  15.0352  115  -2.1  80    -5.0  0     0     972.1    NA       0.0000   UP       9999  0     0    
2019/09/25  09:11:00  BASE  7.94976  113  15.0352  115  -2.0  80    -4.9  0     0     972.3    NA       0.0000   UP       9999  750   0    
2019/09/25  09:12:00  BASE  7.45584  104  14.4295  121  -1.9  81    -4.8  0     0     972.2    NA       0.0000   UP       9999  720   0    
2019/09/25  09:13:00  BASE  9.65496  113  14.4295  121  -1.9  81    -4.7  0     0     971.9    NA       0.0000   UP       9999  590   0    
2019/09/25  09:14:00  BASE  10.5134  130  14.4295  121  -1.8  81    -4.7  0     0     971.9    NA       0.0000   UP       9999  2170  0    
2019/09/25  09:15:00  BASE  10.39    128  14.4295  121  -1.8  81    -4.7  0     0     972.0    NA       0.0000   UP       9000  390   0    
2019/09/25  09:16:00  BASE  9.92544  118  14.0356  125  -1.9  81    -4.7  0     0     972.1    NA       0.0000   UP       7000  390   0    
2019/09/25  09:17:00  BASE  9.91368  118  14.0356  125  -1.9  81    -4.8  0     0     971.9    NA       0.0000   UP       5000  0     0    
2019/09/25  09:18:00  BASE  10.9015  124  14.0356  125  -2.0  81    -4.8  0     0     971.8    NA       0.0000   -SN      5000  0     0    
2019/09/25  09:19:00  BASE  11.7894  130  15.1234  134  -2.0  81    -4.9  0     0     971.6    NA       0.0000   -SN      5000  0     0    
2019/09/25  09:20:00  BASE  11.5954  134  15.1234  134  -2.1  81    -4.9  0     0     971.8    NA       0.0000   -SN      8000  0     0    
2019/09/25  09:21:00  BASE  10.4429  136  15.1234  134  -2.1  81    -4.9  0     0     971.8    NA       0.0000   -SN      9000  3940  0    
2019/09/25  09:22:00  BASE  9.94308  135  15.1234  134  -2.1  81    -4.9  0     0     971.8    NA       0.0000   -SN      9999  4000  0    
2019/09/25  09:23:00  BASE  9.3492   134  15.1234  134  -2.1  81    -5.0  0     0     971.8    NA       0.0000   -SN      8000  3940  0    
2019/09/25  09:24:00  BASE  9.15516  129  15.1234  134  -2.1  81    -5.0  0     0     971.9    NA       0.0000   -SN      7000  3940  0    
2019/09/25  09:25:00  BASE  9.0846   121  15.1234  134  -2.1  81    -5.0  0     0     971.9    NA       0.0000   -SN      7000  3970  0    
2019/09/25  09:26:00  BASE  8.4966   130  15.1234  134  -2.1  81    -4.9  0     0     971.8    NA       0.0000   -SN      5000  3870  0    
2019/09/25  09:27:00  BASE  8.90232  140  15.1234  134  -2.1  81    -4.9  0     0     971.7    NA       0.0000   -SN      6000  3940  0    
2019/09/25  09:28:00  BASE  10.243   138  15.1234  134  -2.0  81    -4.8  0     0     971.6    NA       0.0000   -SN      8000  0     0    
2019/09/25  09:29:00  BASE  9.41976  139  13.036   133  -2.0  81    -4.8  0     0     971.8    NA       0.0000   -SN      9000  0     0    
2019/09/25  09:30:00  BASE  8.80824  145  13.036   133  -2.0  81    -4.8  0     0     971.7    NA       0.0000   -SN      9999  0     0    
2019/09/25  09:31:00  BASE  9.59028  146  13.036   133  -2.0  81    -4.7  0     0     971.6    NA       0.0000   -SN      9999  4660  0    
2019/09/25  09:32:00  BASE  9.93132  144  13.036   133  -2.0  81    -4.7  0     0     971.5    NA       0.0000   -SN      9999  0     0    
2019/09/25  09:33:00  BASE  10.5193  144  13.036   133  -2.0  82    -4.7  0     0     971.5    NA       0.0000   -SN      9999  0     0    
2019/09/25  09:34:00  BASE  10.9074  147  13.036   133  -2.0  82    -4.7  0     0     971.6    NA       0.0000   -SN      9999  620   0    
2019/09/25  09:35:00  BASE  10.2077  150  13.036   133  -2.1  82    -4.7  0     0     971.7    NA       0.0000   -SN      9999  0     0    
2019/09/25  09:36:00  BASE  9.60204  149  13.036   133  -2.1  82    -4.8  0     0     971.7    NA       0.0000   -SN      8000  360   0    
2019/09/25  09:37:00  BASE  8.64948  142  13.036   133  -2.1  82    -4.8  0     0     971.9    NA       0.0000   -SN      9999  4270  0    
2019/09/25  09:38:00  BASE  7.4382   143  12.248   152  -2.2  82    -4.8  0     0     971.8    NA       0.0000   -SN      9999  4200  0    
2019/09/25  09:39:00  BASE  8.07912  146  12.248   152  -2.2  82    -4.9  0     0     971.7    NA       0.0000   -SN      9999  4040  0    
2019/09/25  09:40:00  BASE  9.29628  146  12.248   152  -2.2  82    -4.9  0     0     971.6    NA       0.0000   -SN      9999  4130  0    
2019/09/25  09:41:00  BASE  9.68436  147  12.248   152  -2.3  82    -4.9  0     0     971.6    NA       0.0000   -SN      9999  4070  0    
2019/09/25  09:42:00  BASE  10.1136  148  12.642   145  -2.3  82    -4.9  1     0     971.6    NA       0.0000   -SN      9999  4230  0    
2019/09/25  09:43:00  BASE  10.6722  151  12.642   145  -2.3  82    -4.9  1     0     971.7    NA       0.0000   -SN      9999  4040  0    
2019/09/25  09:44:00  BASE  9.85488  149  12.642   145  -2.4  82    -4.9  1     0     971.7    NA       0.0000   -SN      9999  3810  0    
2019/09/25  09:45:00  BASE  8.45544  146  12.642   145  -2.4  83    -4.9  1     0     971.7    NA       0.0000   -SN      9999  3840  0    
2019/09/25  09:46:00  BASE  8.60244  151  12.642   145  -2.4  83    -5.0  1     0     971.6    NA       0.0000   -SN      9999  3840  0    
2019/09/25  09:47:00  BASE  9.0258   154  12.642   145  -2.5  83    -5.0  1     0     971.6    NA       0.0000   -SN      9999  4230  0    
2019/09/25  09:48:00  BASE  8.7612   150  12.642   145  -2.4  83    -4.9  1     0     971.5    NA       0.0000   -SN      9999  4230  0    
2019/09/25  09:49:00  BASE  9.07872  151  12.642   145  -2.4  83    -4.9  1     0     971.4    NA       0.0000   -SN      9999  4130  0    
2019/09/25  09:50:00  BASE  10.484   155  13.1006  143  -2.4  83    -4.9  1     0     971.2    NA       0.0000   -SN      9999  2620  4130 
2019/09/25  09:51:00  BASE  11.3484  154  13.1006  143  -2.4  83    -4.8  1     0     971.2    NA       0.0000   -SN      9999  4130  0    
2019/09/25  09:52:00  BASE  10.8192  153  13.1006  143  -2.3  83    -4.8  1     0     971.2    NA       0.0000   9999     4100  0     0    
2019/09/25  09:53:00  BASE  10.0136  152  13.1006  143  -2.3  83    -4.8  1     0     971.2    NA       0.0000   9999     2950  0     0    
2019/09/25  09:54:00  BASE  9.50796  157  13.1006  143  -2.3  84    -4.7  1     0     971.2    NA       0.0000   9999     4040  0     0    
2019/09/25  09:55:00  BASE  10.2253  155  13.1006  143  -2.2  84    -4.6  1     0     971.1    NA       0.0000   9999     4000  0     0    
2019/09/25  09:56:00  BASE  10.5193  152  13.1006  143  -2.1  84    -4.5  1     0     971.2    NA       0.0000   9999     4130  0     0    
2019/09/25  09:57:00  BASE  10.4488  155  13.1006  143  -2.1  84    -4.5  1     0     971.1    NA       0.0000   9999     4130  0     0    
2019/09/25  09:58:00  BASE  10.19    158  13.1006  143  -2.0  84    -4.4  1     0     971.2    NA       0.0000   9999     4100  0     0    
2019/09/25  09:59:00  BASE  8.30844  156  13.1006  143  -2.0  83    -4.5  1     0     971.2    NA       0.0000   9999     2430  4200  0    
2019/09/25  10:00:00  BASE  8.71416  152  13.0654  152  -2.0  83    -4.5  1     0     971.0    NA       0.0000   9999     4230  0     0    
2019/09/25  10:01:00  BASE  10.5193  156  12.495   149  -2.0  83    -4.5  2     0     971.0    NA       0.0000   9999     2490  4200  0    
2019/09/25  10:02:00  BASE  10.1959  156  12.495   149  -2.0  83    -4.5  2     0     971.1    NA       0.0000   9999     2360  0     0    
2019/09/25  10:03:00  BASE  9.77844  156  12.495   149  -2.0  83    -4.4  2     0     971.1    NA       0.0000   9999     4130  0     0    
2019/09/25  10:04:00  BASE  8.96112  162  12.495   149  -2.0  83    -4.4  2     0     971.2    NA       0.0000   9999     4100  0     0    
2019/09/25  10:05:00  BASE  7.64988  156  12.4009  164  -2.0  83    -4.4  2     0     971.2    NA       0.0000   9999     3940  0     0    
2019/09/25  10:06:00  BASE  6.89724  143  12.4009  164  -2.0  83    -4.4  2     0     971.2    NA       0.0000   9999     4040  0     0    
2019/09/25  10:07:00  BASE  7.07364  141  12.4009  164  -2.0  83    -4.4  2     0     971.2    NA       0.0000   9999     4040  0     0    
2019/09/25  10:08:00  BASE  7.81452  149  12.4009  164  -2.0  83    -4.5  2     0     971.2    NA       0.0000   9999     4070  0     0    
2019/09/25  10:09:00  BASE  7.57932  152  12.4009  164  -2.0  83    -4.4  2     0     971.2    NA       0.0000   9999     4130  0     0    
2019/09/25  10:10:00  BASE  6.468    158  12.4009  164  -1.9  84    -4.3  2     0     971.2    NA       0.0000   9999     4300  0     0    
2019/09/25  10:11:00  BASE  5.09208  153  11.6483  152  -1.8  84    -4.1  3     0     971.4    NA       0.0000   9999     4170  4860  0    
2019/09/25  10:12:00  BASE  5.15088  148  10.6193  163  -1.6  84    -3.9  3     0     971.3    NA       0.0000   9999     4950  0     0    
2019/09/25  10:13:00  BASE  5.83296  158  10.6193  163  -1.4  84    -3.8  3     0     971.3    NA       0.0000   9999     4300  0     0    
2019/09/25  10:14:00  BASE  5.47428  150  10.5252  153  -1.3  84    -3.7  3     0     971.4    NA       0.0000   9999     5810  0     0    
2019/09/25  10:15:00  BASE  4.80984  138  10.5252  153  -1.2  83    -3.7  3     0     971.5    NA       0.0000   9999     4950  0     0    
2019/09/25  10:16:00  BASE  5.63304  146  10.5252  153  -1.3  83    -3.9  3     0     971.3    NA       0.0000   9999     5020  0     0    
2019/09/25  10:17:00  BASE  6.65028  156  9.59028  157  -1.5  82    -4.1  3     0     971.2    NA       0.0000   9999     4990  0     0    
2019/09/25  10:18:00  BASE  6.37392  157  9.25512  175  -1.6  83    -4.2  4     0     971.3    NA       0.0000   9999     5940  0     0    
2019/09/25  10:19:00  BASE  5.63304  153  9.25512  175  -1.7  83    -4.2  4     0     971.4    NA       0.0000   9999     6070  0     0    
2019/09/25  10:20:00  BASE  4.91568  152  9.25512  175  -1.8  83    -4.2  4     0     971.3    NA       0.0000   9999     6230  0     0    
2019/09/25  10:21:00  BASE  5.54484  159  9.25512  175  -1.7  84    -4.2  4     0     971.2    NA       0.0000   9999     6460  0     0    
2019/09/25  10:22:00  BASE  6.62088  164  9.25512  175  -1.6  84    -4.0  4     0     971.1    NA       0.0000   9999     4270  0     0    
2019/09/25  10:23:00  BASE  7.60872  160  9.25512  175  -1.5  84    -3.9  5     0     971.0    NA       0.0000   9999     5480  0     0    
2019/09/25  10:24:00  BASE  8.14968  153  9.5256   149  -1.5  84    -3.8  5     0     971.0    NA       0.0000   9999     5610  0     0    
2019/09/25  10:25:00  BASE  7.67928  151  9.5256   149  -1.4  84    -3.8  6     0     971.0    NA       0.0000   9999     5450  0     0    
2019/09/25  10:26:00  BASE  7.15596  140  9.5256   149  -1.4  84    -3.7  6     0     971.0    NA       0.0000   9999     2460  0     0    
2019/09/25  10:27:00  BASE  5.35668  120  9.5256   149  -1.2  84    -3.5  6     0     971.1    NA       0.0000   9999     5350  0     0    
2019/09/25  10:28:00  BASE  2.22852  124  9.5256   149  -1.0  84    -3.3  7     0     971.2    NA       0.0000   9999     5380  0     0    
2019/09/25  10:29:00  BASE  2.98704  153  9.5256   149  -0.8  84    -3.2  7     0     971.1    NA       0.0000   9999     4890  0     0    
2019/09/25  10:30:00  BASE  5.66244  157  9.5256   149  -0.7  83    -3.1  7     0     971.0    NA       0.0000   9999     5450  0     0    
2019/09/25  10:31:00  BASE  5.41548  164  9.5256   149  -0.6  83    -3.2  8     0     971.0    NA       0.0000   9999     3840  4490  0    
2019/09/25  10:32:00  BASE  5.22144  173  9.5256   149  -0.7  82    -3.4  8     0     970.8    NA       0.0000   9999     5020  0     0    
2019/09/25  10:33:00  BASE  6.7032   175  9.5256   149  -0.9  82    -3.6  9     0     970.7    NA       0.0000   9999     5090  0     0    
2019/09/25  10:34:00  BASE  7.69104  167  9.19632  113  -1.0  82    -3.6  9     0     970.7    NA       0.0000   9999     5090  0     0    
2019/09/25  10:35:00  BASE  8.19084  157  9.31392  158  -1.0  83    -3.6  10    0     970.8    NA       0.0000   9999     5180  0     0    
2019/09/25  10:36:00  BASE  8.46132  149  9.31392  158  -1.1  83    -3.6  10    0     970.8    NA       0.0000   9999     5020  0     0    
2019/09/25  10:37:00  BASE  8.64948  142  9.4668   138  -1.1  83    -3.6  11    0     970.9    NA       0.0000   9999     4000  5120  0    
2019/09/25  10:38:00  BASE  8.6142   138  9.4668   138  -1.2  83    -3.7  12    0     970.9    NA       0.0000   9999     3870  5120  0    
2019/09/25  10:39:00  BASE  8.04384  138  9.4668   138  -1.3  83    -3.8  13    0     970.9    NA       0.0000   9999     5020  0     0    
2019/09/25  10:40:00  BASE  8.4378   139  10.3135  138  -1.3  83    -3.9  14    0     970.8    NA       0.0000   9999     4990  0     0    
2019/09/25  10:41:00  BASE  9.4962   141  10.978   143  -1.4  83    -3.9  15    0     970.8    NA       0.0000   UP       9999  4950  0    
2019/09/25  10:42:00  BASE  9.57264  142  10.978   143  -1.5  83    -4.1  16    0     970.9    NA       0.0000   UP       9999  4920  0    
2019/09/25  10:43:00  BASE  9.35508  142  10.978   143  -1.7  83    -4.2  17    0     970.9    NA       0.0000   UP       8000  5050  0    
2019/09/25  10:44:00  BASE  9.16692  145  10.978   143  -1.8  83    -4.3  18    0     970.9    NA       0.0000   UP       7000  0     0    
2019/09/25  10:45:00  BASE  9.74316  144  11.7659  145  -1.9  83    -4.4  19    0     970.7    NA       0.0000   UP       7000  4990  0    
2019/09/25  10:46:00  BASE  10.9603  140  12.9184  140  -2.0  83    -4.5  19    0     970.6    NA       0.0000   UP       6000  5020  0    
2019/09/25  10:47:00  BASE  10.7663  138  12.9184  140  -2.1  83    -4.6  19    0     970.8    NA       0.0000   UP       7000  5090  0    
2019/09/25  10:48:00  BASE  10.0901  138  12.9184  140  -2.1  83    -4.6  19    0     970.8    NA       0.0000   UP       7000  5220  0    
2019/09/25  10:49:00  BASE  10.2724  144  12.9184  140  -2.2  84    -4.6  19    0     970.7    NA       0.0000   UP       7000  5180  0    
2019/09/25  10:50:00  BASE  10.0666  142  12.9184  140  -2.3  84    -4.6  19    0     970.9    NA       0.0000   UP       5000  5150  0    
2019/09/25  10:51:00  BASE  9.81372  143  12.9184  140  -2.3  84    -4.6  19    0     970.6    NA       0.0000   UP       6000  5220  0    
2019/09/25  10:52:00  BASE  10.5722  154  13.2476  153  -2.3  84    -4.7  19    0     970.3    NA       0.0000   UP       7000  5680  0    
2019/09/25  10:53:00  BASE  11.4954  153  14.2472  143  -2.3  84    -4.7  19    0     970.2    NA       0.0000   UP       6000  5610  0    
2019/09/25  10:54:00  BASE  13.3652  145  16.364   146  -2.4  84    -4.7  20    0     970.0    NA       0.0000   UP       4400  5380  0    
2019/09/25  10:55:00  BASE  13.4711  145  16.364   146  -2.4  84    -4.8  21    0     970.3    NA       0.0000   UP       3900  5480  0    
2019/09/25  10:56:00  BASE  11.6659  148  16.364   146  -2.5  84    -4.8  21    0     970.5    NA       0.0000   UP       5000  5450  0    
2019/09/25  10:57:00  BASE  10.5958  143  16.364   146  -2.5  84    -4.8  21    0     970.6    NA       0.0000   UP       7000  5450  0    
2019/09/25  10:58:00  BASE  10.9015  140  16.364   146  -2.5  84    -4.8  22    0     970.5    NA       0.0000   UP       8000  5320  0    
2019/09/25  10:59:00  BASE  11.2602  136  16.364   146  -2.5  84    -4.8  22    0     970.7    NA       0.0000   UP       6000  5180  0    
2019/09/25  11:00:00  BASE  10.4723  129  16.364   146  -2.4  84    -4.8  22    0     970.9    NA       0.0000   UP       8000  5120  0    
2019/09/25  11:01:00  BASE  9.50796  131  16.364   146  -2.4  84    -4.7  23    0     970.9    NA       0.0000   UP       8000  5150  0    
2019/09/25  11:02:00  BASE  8.67888  141  16.364   146  -2.4  84    -4.7  23    0     970.9    NA       0.0000   UP       8000  5150  0    
2019/09/25  11:03:00  BASE  7.66752  123  16.364   146  -2.4  84    -4.7  23    0     971.0    NA       0.0000   UP       9000  5120  0    
2019/09/25  11:04:00  BASE  6.77964  112  13.9474  144  -2.4  84    -4.8  24    0     970.8    NA       0.0000   UP       9000  5090  0    
2019/09/25  11:05:00  BASE  8.12028  134  13.1006  150  -2.5  84    -4.8  24    0     970.5    NA       0.0000   UP       8000  5120  0    
2019/09/25  11:06:00  BASE  10.4664  140  13.1006  150  -2.5  84    -4.9  24    0     970.4    NA       0.0000   UP       7000  5120  0    
2019/09/25  11:07:00  BASE  10.4076  135  13.1006  150  -2.6  84    -4.9  24    0     970.6    NA       0.0000   UP       8000  5150  0    
2019/09/25  11:08:00  BASE  9.5844   132  12.642   136  -2.6  84    -4.9  24    0     970.5    NA       0.0000   UP       9000  5120  0    
2019/09/25  11:09:00  BASE  10.1018  133  12.642   136  -2.6  84    -4.9  24    0     970.4    NA       0.0000   UP       9000  5120  0    
2019/09/25  11:10:00  BASE  9.20808  135  12.642   136  -2.6  84    -4.9  24    0     970.5    NA       0.0000   UP       9000  5090  0    
2019/09/25  11:11:00  BASE  8.32608  135  12.642   136  -2.5  84    -4.9  24    0     970.5    NA       0.0000   UP       9000  4920  0    
2019/09/25  11:12:00  BASE  8.90232  131  12.642   136  -2.5  84    -4.8  24    0     970.5    NA       0.0000   UP       9000  4890  0    
2019/09/25  11:13:00  BASE  8.7024   126  12.642   136  -2.5  84    -4.8  24    0     970.5    NA       0.0000   UP       9000  4890  0    
2019/09/25  11:14:00  BASE  9.04932  132  12.642   136  -2.5  84    -4.8  24    0     970.2    NA       0.0000   UP       9000  4860  0    
2019/09/25  11:15:00  BASE  11.3602  138  18.8748  120  -2.5  84    -4.8  24    0     969.9    NA       0.0000   UP       9000  4820  0    
2019/09/25  11:16:00  BASE  11.7776  142  18.8748  120  -2.4  84    -4.7  24    0     970.0    NA       0.0000   UP       9000  4590  0    
2019/09/25  11:17:00  BASE  11.0368  147  18.8748  120  -2.4  84    -4.7  24    0     969.9    NA       0.0000   UP       9000  4590  0    
2019/09/25  11:18:00  BASE  11.3249  144  18.8748  120  -2.3  84    -4.6  25    0     969.9    NA       0.0000   UP       9000  4560  0    
2019/09/25  11:19:00  BASE  11.8423  143  18.8748  120  -2.2  84    -4.6  26    0     969.8    NA       0.0000   UP       9000  4490  0    
2019/09/25  11:20:00  BASE  11.9482  143  18.8748  120  -2.2  84    -4.6  26    0     969.8    NA       0.0000   UP       9000  4690  0    
2019/09/25  11:21:00  BASE  11.6012  138  18.8748  120  -2.2  83    -4.7  27    0     969.8    NA       0.0000   UP       9000  4720  0    
2019/09/25  11:22:00  BASE  10.3194  131  18.8748  120  -2.2  83    -4.7  28    0     970.0    NA       0.0000   UP       9000  4860  0    
2019/09/25  11:23:00  BASE  9.45504  133  18.8748  120  -2.3  83    -4.8  28    0     969.8    NA       0.0000   HZ       9999  4890  0    
2019/09/25  11:24:00  BASE  10.8604  143  18.8748  120  -2.3  83    -4.8  29    0     969.6    NA       0.0000   HZ       9999  4070  4820 
2019/09/25  11:25:00  BASE  11.5013  149  13.3123  135  -2.3  83    -4.7  30    0     969.6    NA       0.0000   HZ       9000  4790  0    
2019/09/25  11:26:00  BASE  10.9897  154  13.3123  135  -2.3  83    -4.7  31    0     969.5    NA       0.0000   HZ       9999  4790  0    
2019/09/25  11:27:00  BASE  10.631   150  13.3123  135  -2.2  84    -4.6  31    0     969.5    NA       0.0000   HZ       9000  3740  0    
2019/09/25  11:28:00  BASE  10.6546  145  13.3123  135  -2.2  84    -4.6  32    0     969.5    NA       0.0000   HZ       9000  4000  4790 
2019/09/25  11:29:00  BASE  10.39    147  13.3123  135  -2.2  84    -4.5  33    0     969.5    NA       0.0000   HZ       9000  3310  4000 
2019/09/25  11:30:00  BASE  9.91956  149  13.3123  135  -2.2  84    -4.5  33    0     969.5    NA       0.0000   HZ       9000  3450  0    
2019/09/25  11:31:00  BASE  10.5193  150  12.642   141  -2.2  84    -4.5  34    0     969.4    NA       0.0000   HZ       9000  3610  0    
2019/09/25  11:32:00  BASE  10.9133  147  12.9184  145  -2.1  84    -4.5  35    0     969.4    NA       0.0000   HZ       9000  3480  0    
2019/09/25  11:33:00  BASE  10.1959  144  12.9184  145  -2.1  83    -4.5  36    0     969.5    NA       0.0000   HZ       9000  2530  3510 
2019/09/25  11:34:00  BASE  9.4962   142  12.9184  145  -2.1  83    -4.5  36    0     969.4    NA       0.0000   UP       9000  3350  0    
2019/09/25  11:35:00  BASE  10.4194  141  12.9184  145  -2.0  83    -4.5  37    0     969.3    NA       0.0000   UP       9000  3350  0    
2019/09/25  11:36:00  BASE  9.702    137  12.9184  145  -2.0  83    -4.6  38    0     969.7    NA       0.0000   UP       9000  2330  3310 
2019/09/25  11:37:00  BASE  7.42056  120  12.9184  145  -2.0  83    -4.6  39    0     969.8    NA       0.0000   UP       9000  2230  3510 
2019/09/25  11:38:00  BASE  7.6734   112  12.9184  145  -2.0  82    -4.6  40    0     969.7    NA       0.0000   UP       9000  3410  3940 
2019/09/25  11:39:00  BASE  8.24376  125  12.9184  145  -2.0  82    -4.6  41    0     969.7    NA       0.0000   UP       9000  3410  4460 
2019/09/25  11:40:00  BASE  8.6436   133  12.9184  145  -2.0  82    -4.7  42    0     969.8    NA       0.0000   UP       9000  4230  0    
2019/09/25  11:41:00  BASE  9.31392  132  12.9184  145  -2.0  82    -4.7  43    0     969.6    NA       0.0000   UP       9000  2620  3900 
2019/09/25  11:42:00  BASE  9.75492  138  12.7655  149  -2.0  82    -4.7  44    0     969.5    NA       0.0000   UP       9000  2330  0    
2019/09/25  11:43:00  BASE  9.1434   142  12.7655  149  -2.0  82    -4.7  45    0     969.6    NA       0.0000   UP       9000  4720  0    
2019/09/25  11:44:00  BASE  7.6734   135  12.7655  149  -2.0  82    -4.7  45    0     969.7    NA       0.0000   UP       9000  2590  3580 
2019/09/25  11:45:00  BASE  6.9678   129  11.1602  135  -2.0  82    -4.7  46    0     969.7    NA       0.0000   UP       9000  2590  0    
2019/09/25  11:46:00  BASE  7.66752  126  11.1602  135  -2.0  82    -4.7  47    0     969.6    NA       0.0000   UP       9000  2460  3350 
2019/09/25  11:47:00  BASE  7.76748  132  11.1602  135  -2.0  82    -4.6  48    0     969.6    NA       0.0000   UP       9000  2460  0    
2019/09/25  11:48:00  BASE  6.91488  140  11.1602  135  -2.0  82    -4.6  48    0     969.6    NA       0.0000   UP       9000  2430  4330 
2019/09/25  11:49:00  BASE  7.62636  143  11.1602  135  -2.0  82    -4.6  48    0     969.5    NA       0.0000   UP       9000  2360  0    
2019/09/25  11:50:00  BASE  9.4962   146  11.3131  152  -2.0  83    -4.5  48    0     969.3    NA       0.0000   UP       9000  3510  0    
2019/09/25  11:51:00  BASE  10.5134  149  11.6483  151  -1.9  83    -4.5  48    0     969.2    NA       0.0000   UP       9000  2460  3480 
2019/09/25  11:52:00  BASE  10.0195  147  11.6483  151  -1.9  83    -4.5  49    0     969.3    NA       0.0000   UP       9000  2400  3610 
2019/09/25  11:53:00  BASE  9.8784   143  11.6483  151  -2.0  83    -4.5  49    0     969.3    NA       0.0000   UP       9000  2230  0    
2019/09/25  11:54:00  BASE  10.6546  139  12.7067  141  -2.0  83    -4.5  48    0     969.2    NA       0.0000   UP       9000  2330  3740 
2019/09/25  11:55:00  BASE  10.5252  132  12.7067  141  -2.0  83    -4.5  48    0     969.4    NA       0.0000   UP       9000  2360  3740 
2019/09/25  11:56:00  BASE  9.4962   125  12.7067  141  -2.0  83    -4.5  48    0     969.5    NA       0.0000   UP       9000  2460  3870 
2019/09/25  11:57:00  BASE  8.56716  123  12.7067  141  -2.0  83    -4.5  47    0     969.6    NA       0.0000   UP       9999  2760  4000 
2019/09/25  11:58:00  BASE  7.53228  123  12.7067  141  -2.0  83    -4.5  46    0     969.7    NA       0.0000   UP       9999  2950  4100 
2019/09/25  11:59:00  BASE  6.55032  120  12.7067  141  -2.0  82    -4.6  46    0     969.8    NA       0.0000   UP       9999  3120  4070 
2019/09/25  12:00:00  BASE  6.13284  119  12.7067  141  -2.0  82    -4.6  46    0     969.7    NA       0.0000   UP       9999  3220  4070 
2019/09/25  12:01:00  BASE  6.12696  123  12.7067  141  -2.0  82    -4.7  46    0     969.7    NA       0.0000   HZ       9999  4000  0    
2019/09/25  12:02:00  BASE  6.75024  121  12.7067  141  -2.0  82    -4.7  45    0     969.6    NA       0.0000   9999     3970  0     0    
2019/09/25  12:03:00  BASE  7.34412  114  12.7067  141  -2.0  82    -4.7  45    0     969.6    NA       0.0000   9999     2920  4000  0    
2019/09/25  12:04:00  BASE  7.62636  114  10.7663  127  -2.1  82    -4.7  46    0     969.5    NA       0.0000   9999     3970  0     0    
2019/09/25  12:05:00  BASE  8.52012  118  9.86076  121  -2.0  82    -4.7  46    0     969.5    NA       0.0000   9999     3970  0     0    
2019/09/25  12:06:00  BASE  8.5848   113  9.61968  124  -2.0  82    -4.7  47    0     969.6    NA       0.0000   9999     4000  0     0    
2019/09/25  12:07:00  BASE  8.02032  108  9.61968  124  -2.0  82    -4.7  47    0     969.6    NA       0.0000   9999     3970  0     0    
2019/09/25  12:08:00  BASE  8.60832  108  10.9486  112  -2.0  82    -4.7  48    0     969.4    NA       0.0000   9999     3940  0     0    
2019/09/25  12:09:00  BASE  9.996    113  11.86    116  -2.0  82    -4.7  48    0     969.2    NA       0.0000   9999     3940  0     0    
2019/09/25  12:10:00  BASE  10.7369  115  11.86    116  -2.0  82    -4.7  48    0     969.2    NA       0.0000   9999     3900  0     0    
2019/09/25  12:11:00  BASE  9.8196   112  11.86    116  -2.0  82    -4.7  49    0     969.2    NA       0.0000   9999     3870  0     0    
2019/09/25  12:12:00  BASE  9.18456  109  11.86    116  -2.1  82    -4.8  50    0     969.2    NA       0.0000   9999     3870  0     0    
2019/09/25  12:13:00  BASE  9.94308  111  11.86    116  -2.1  82    -4.8  51    0     969.1    NA       0.0000   9999     3810  0     0    
2019/09/25  12:14:00  BASE  10.7663  115  11.86    116  -2.1  81    -4.9  52    0     969.0    NA       0.0000   9999     3840  0     0    
2019/09/25  12:15:00  BASE  10.5664  119  11.86    116  -2.1  81    -4.9  51    0     968.9    NA       0.0000   9000     3870  0     0    
2019/09/25  12:16:00  BASE  9.849    122  11.86    116  -2.2  81    -4.9  52    0     969.0    NA       0.0000   9999     3740  0     0    
2019/09/25  12:17:00  BASE  9.84312  118  11.86    116  -2.2  82    -4.9  52    0     969.2    NA       0.0000   9999     3740  0     0    
2019/09/25  12:18:00  BASE  9.702    119  11.86    116  -2.1  82    -4.8  52    0     969.1    NA       0.0000   9999     3770  0     0    
2019/09/25  12:19:00  BASE  9.06108  132  11.6777  115  -2.1  82    -4.7  52    0     968.8    NA       0.0000   9999     3670  0     0    
2019/09/25  12:20:00  BASE  7.86744  137  11.6777  115  -2.1  82    -4.7  52    0     969.0    NA       0.0000   9999     2950  3870  0    
2019/09/25  12:21:00  BASE  7.46172  127  11.6777  115  -2.0  82    -4.7  53    0     969.1    NA       0.0000   9999     3870  0     0    
2019/09/25  12:22:00  BASE  8.673    118  11.6777  115  -2.0  82    -4.6  54    0     969.0    NA       0.0000   9999     3840  0     0    
2019/09/25  12:23:00  BASE  8.94348  123  11.6777  115  -2.0  82    -4.7  55    0     969.0    NA       0.0000   9999     3810  0     0    
2019/09/25  12:24:00  BASE  8.12616  124  10.7075  124  -2.0  82    -4.7  56    0     969.1    NA       0.0000   9999     3970  0     0    
2019/09/25  12:25:00  BASE  7.77924  119  10.7075  124  -2.1  82    -4.7  57    0     969.0    NA       0.0000   9999     3900  0     0    
2019/09/25  12:26:00  BASE  8.56716  126  10.6487  108  -2.1  82    -4.8  58    0     968.8    NA       0.0000   9999     3870  0     0    
2019/09/25  12:27:00  BASE  9.5256   137  10.9486  139  -2.1  82    -4.8  58    0     968.6    NA       0.0000   9999     3220  4000  0    
2019/09/25  12:28:00  BASE  9.702    140  10.9486  139  -2.1  82    -4.8  59    0     968.5    NA       0.0000   9999     3450  4040  0    
2019/09/25  12:29:00  BASE  9.71376  132  10.9486  139  -2.1  82    -4.7  59    0     968.7    NA       0.0000   8000     3580  0     0    
2019/09/25  12:30:00  BASE  9.24924  117  10.9486  139  -2.0  83    -4.6  59    0     969.0    NA       0.0000   UP       8000  3610  4170 
2019/09/25  12:31:00  BASE  8.77296  111  10.9486  139  -2.0  83    -4.5  59    0     968.9    NA       0.0000   UP       9999  3580  4100 
2019/09/25  12:32:00  BASE  8.22024  112  10.9486  139  -2.0  83    -4.5  59    0     968.9    NA       0.0000   UP       9999  3250  0    
2019/09/25  12:33:00  BASE  8.33196  110  10.9486  139  -2.0  83    -4.5  59    0     968.9    NA       0.0000   UP       9999  3540  0    
2019/09/25  12:34:00  BASE  8.63772  107  10.9486  139  -2.0  83    -4.5  59    0     968.9    NA       0.0000   UP       9999  3840  0    
2019/09/25  12:35:00  BASE  7.92624  108  10.9486  139  -2.1  83    -4.6  59    0     969.0    NA       0.0000   UP       9999  3510  4040 
2019/09/25  12:36:00  BASE  7.99092  110  10.9486  139  -2.1  83    -4.6  59    0     968.8    NA       0.0000   UP       9999  4000  0    
2019/09/25  12:37:00  BASE  9.39036  122  11.1014  127  -2.1  83    -4.6  59    0     968.5    NA       0.0000   UP       9999  4000  0    
2019/09/25  12:38:00  BASE  9.92544  133  11.1014  127  -2.1  83    -4.6  59    0     968.5    NA       0.0000   UP       9999  4070  0    
2019/09/25  12:39:00  BASE  9.10812  129  11.1014  127  -2.1  83    -4.6  59    0     968.6    NA       0.0000   9999     3970  0     0    
2019/09/25  12:40:00  BASE  8.59656  119  11.1014  127  -2.0  83    -4.5  59    0     968.6    NA       0.0000   9999     3870  0     0    
2019/09/25  12:41:00  BASE  8.74944  113  11.1014  127  -2.0  83    -4.5  59    0     968.6    NA       0.0000   9999     3410  3900  0    
2019/09/25  12:42:00  BASE  8.65536  113  11.1014  127  -1.9  83    -4.4  59    0     968.7    NA       0.0000   9999     3310  4000  0    
2019/09/25  12:43:00  BASE  7.71456  116  11.1014  127  -1.8  83    -4.4  60    0     968.7    NA       0.0000   9999     3740  0     0    
2019/09/25  12:44:00  BASE  7.63224  120  11.1014  127  -1.8  83    -4.3  60    0     968.6    NA       0.0000   9999     3710  0     0    
2019/09/25  12:45:00  BASE  8.25552  121  11.1014  127  -1.7  82    -4.3  61    0     968.5    NA       0.0000   9999     3350  0     0    
2019/09/25  12:46:00  BASE  8.82     116  11.1014  127  -1.7  82    -4.4  62    0     968.6    NA       0.0000   9999     3640  0     0    
2019/09/25  12:47:00  BASE  9.74904  109  10.978   109  -1.7  81    -4.5  63    0     968.6    NA       0.0000   9999     3310  0     0    
2019/09/25  12:48:00  BASE  9.6432   109  10.978   109  -1.7  81    -4.6  64    0     968.6    NA       0.0000   9999     3740  0     0    
2019/09/25  12:49:00  BASE  8.40252  108  10.978   109  -1.8  81    -4.7  65    0     968.7    NA       0.0000   9000     3640  0     0    
2019/09/25  12:50:00  BASE  8.27316  110  10.978   109  -1.8  81    -4.7  65    0     968.6    NA       0.0000   9000     3610  0     0    
2019/09/25  12:51:00  BASE  8.91996  115  10.978   109  -1.9  81    -4.7  65    0     968.6    NA       0.0000   9999     3580  0     0    
2019/09/25  12:52:00  BASE  8.9376   113  10.978   109  -1.8  81    -4.7  66    0     968.6    NA       0.0000   9999     3410  0     0    
2019/09/25  12:53:00  BASE  8.60832  116  10.978   109  -1.8  81    -4.7  66    0     968.6    NA       0.0000   9000     3480  0     0    
2019/09/25  12:54:00  BASE  8.65536  118  10.978   109  -1.8  81    -4.7  66    0     968.6    NA       0.0000   9000     3480  0     0    
2019/09/25  12:55:00  BASE  8.65536  120  10.978   109  -1.8  81    -4.7  66    0     968.6    NA       0.0000   9000     3380  0     0    
2019/09/25  12:56:00  BASE  7.92624  121  10.978   109  -1.8  80    -4.8  66    0     968.6    NA       0.0000   HZ       9000  2850  0    
2019/09/25  12:57:00  BASE  7.15596  119  9.98424  106  -1.9  80    -4.8  67    0     968.7    NA       0.0000   HZ       9999  2820  0    
2019/09/25  12:58:00  BASE  7.12656  115  9.89016  116  -1.9  80    -4.9  67    0     968.7    NA       0.0000   HZ       9999  2560  0    
2019/09/25  12:59:00  BASE  7.09716  115  9.89016  116  -1.9  80    -4.8  68    0     968.7    NA       0.0000   HZ       9000  2790  0    
2019/09/25  13:00:00  BASE  6.98544  122  9.89016  116  -1.9  81    -4.8  67    0     968.6    NA       0.0000   HZ       9000  3120  0    
2019/09/25  13:01:00  BASE  6.92076  130  9.5256   115  -1.9  81    -4.8  66    0     968.6    NA       0.0000   UP       8000  2850  3510 
2019/09/25  13:02:00  BASE  6.31512  128  9.5256   115  -1.9  81    -4.7  66    0     968.7    NA       0.0000   UP       8000  3020  0    
2019/09/25  13:03:00  BASE  6.05052  123  9.5256   115  -1.9  81    -4.8  65    0     968.7    NA       0.0000   UP       9000  3080  0    
2019/09/25  13:04:00  BASE  6.42684  125  9.13752  118  -1.9  81    -4.8  64    0     968.6    NA       0.0000   UP       9000  3250  0    
2019/09/25  13:05:00  BASE  6.80316  130  7.92624  112  -1.9  81    -4.8  65    0     968.5    NA       0.0000   UP       9000  2790  0    
2019/09/25  13:06:00  BASE  7.16772  133  7.92624  112  -1.9  81    -4.8  65    0     968.4    NA       0.0000   UP       9000  2790  0    
2019/09/25  13:07:00  BASE  7.4676   132  7.98504  129  -1.9  81    -4.8  65    0     968.4    NA       0.0000   UP       9000  2790  0    
2019/09/25  13:08:00  BASE  7.63812  129  8.4672   125  -1.9  81    -4.8  66    0     968.4    NA       0.0000   UP       9000  2490  0    
2019/09/25  13:09:00  BASE  7.77336  126  8.4672   128  -1.9  81    -4.8  70    0     968.5    NA       0.0000   UP       9000  2430  0    
2019/09/25  13:10:00  BASE  7.42644  128  8.4672   128  -1.9  81    -4.8  72    0     968.5    NA       0.0000   UP       9000  2620  0    
2019/09/25  13:11:00  BASE  7.16772  134  8.4672   128  -1.9  81    -4.8  73    0     968.3    NA       0.0000   UP       8000  3540  0    
2019/09/25  13:12:00  BASE  7.07364  136  8.4672   128  -1.9  81    -4.7  74    0     968.4    NA       0.0000   UP       8000  2460  0    
2019/09/25  13:13:00  BASE  6.52092  133  8.4672   128  -1.9  81    -4.7  76    0     968.5    NA       0.0000   UP       8000  2620  0    
2019/09/25  13:14:00  BASE  6.2622   133  8.4672   128  -1.9  82    -4.6  76    0     968.4    NA       0.0000   UP       9000  3150  0    
2019/09/25  13:15:00  BASE  5.89764  135  8.4672   128  -1.9  82    -4.6  77    0     968.4    NA       0.0000   UP       9000  2360  0    
2019/09/25  13:16:00  BASE  5.39196  134  8.4672   128  -1.9  82    -4.5  77    0     968.5    NA       0.0000   UP       9000  2690  0    
2019/09/25  13:17:00  BASE  6.15048  132  8.4672   128  -1.9  82    -4.5  78    0     968.5    NA       0.0000   UP       9000  2430  0    
2019/09/25  13:18:00  BASE  6.84432  127  8.4672   128  -1.9  82    -4.5  79    0     968.5    NA       0.0000   UP       9000  2490  0    
2019/09/25  13:19:00  BASE  7.16772  123  8.53188  114  -1.9  82    -4.5  81    0     968.5    NA       0.0000   UP       9000  2530  0    
2019/09/25  13:20:00  BASE  7.49112  129  8.53188  114  -1.9  82    -4.6  82    0     968.5    NA       0.0000   UP       9000  2330  0    
2019/09/25  13:21:00  BASE  6.67968  133  8.53188  114  -1.9  82    -4.6  82    0     968.5    NA       0.0000   UP       8000  2260  3410 
2019/09/25  13:22:00  BASE  5.4684   122  8.53188  114  -1.9  82    -4.6  84    0     968.7    NA       0.0000   UP       8000  2230  0    
2019/09/25  13:23:00  BASE  4.48644  120  8.53188  114  -1.9  82    -4.6  84    0     968.7    NA       0.0000   UP       8000  2560  3480 
2019/09/25  13:24:00  BASE  4.09248  129  8.53188  114  -2.0  82    -4.6  83    0     968.6    NA       0.0000   UP       8000  2200  3710 
2019/09/25  13:25:00  BASE  4.38648  126  8.53188  114  -2.0  82    -4.5  84    0     968.7    NA       0.0000   UP       8000  2490  0    
2019/09/25  13:26:00  BASE  4.76868  124  8.53188  114  -1.9  83    -4.5  84    0     968.7    NA       0.0000   UP       8000  2490  0    
2019/09/25  13:27:00  BASE  5.25084  129  8.53188  114  -1.9  83    -4.4  84    0     968.7    NA       0.0000   UP       8000  2330  0    
2019/09/25  13:28:00  BASE  5.22732  121  8.53188  114  -1.9  83    -4.3  83    0     968.9    NA       0.0000   UP       8000  2170  0    
2019/09/25  13:29:00  BASE  4.80984  115  7.71456  132  -1.8  83    -4.3  84    0     968.9    NA       0.0000   UP       8000  2260  0    
2019/09/25  13:30:00  BASE  4.42176  116  7.62048  150  -1.7  83    -4.2  85    0     968.9    NA       0.0000   UP       8000  2330  0    
2019/09/25  13:31:00  BASE  3.7338   135  6.2622   126  -1.7  83    -4.1  86    0     968.9    NA       0.0000   UP       8000  2230  0    
2019/09/25  13:32:00  BASE  4.19244  171  6.2622   126  -1.6  83    -4.1  86    0     968.7    NA       0.0000   UP       9000  3310  0    
2019/09/25  13:33:00  BASE  5.3802   192  6.59148  191  -1.6  83    -4.1  87    0     968.7    NA       0.0000   UP       9000  1800  0    
2019/09/25  13:34:00  BASE  5.58012  197  6.59148  191  -1.6  83    -4.1  89    0     968.7    NA       0.0000   UP       9000  2000  0    
2019/09/25  13:35:00  BASE  5.3214   173  6.59148  191  -1.6  83    -4.1  91    0     968.8    NA       0.0000   UP       9000  2170  0    
2019/09/25  13:36:00  BASE  5.1744   144  6.59148  191  -1.6  83    -4.0  93    0     969.0    NA       0.0000   UP       9000  2300  0    
2019/09/25  13:37:00  BASE  4.68636  137  6.59148  191  -1.6  84    -4.0  96    0     969.1    NA       0.0000   UP       9000  2330  0    
2019/09/25  13:38:00  BASE  4.42176  137  6.59148  191  -1.5  84    -3.9  100   0     969.0    NA       0.0000   UP       9000  2230  0    
2019/09/25  13:39:00  BASE  5.33316  143  6.92664  141  -1.5  84    -3.9  104   0     968.9    NA       0.0000   UP       9000  2490  3510 
2019/09/25  13:40:00  BASE  6.78552  151  8.95524  168  -1.5  84    -3.8  105   0     968.7    NA       0.0000   UP       9000  3580  0    
2019/09/25  13:41:00  BASE  7.79688  159  11.9776  138  -1.3  84    -3.7  104   0     968.7    NA       0.0000   UP       4300  1970  0    
2019/09/25  13:42:00  BASE  6.68556  249  11.9776  138  -1.0  84    -3.3  103   0     968.6    NA       0.0000   UP       2000  1870  0    
2019/09/25  13:43:00  BASE  6.77964  288  11.9776  138  -0.7  84    -3.0  105   0     968.4    NA       0.0000   UP       4800  2070  0    
2019/09/25  13:44:00  BASE  7.36764  292  11.9776  138  -0.3  84    -2.6  107   0     968.5    NA       0.0000   UP       4800  2260  3220 
2019/09/25  13:45:00  BASE  5.20968  276  11.9776  138  0.1   84    -2.3  108   0     968.4    NA       0.0000   UP       4800  2170  3280 
2019/09/25  13:46:00  BASE  5.0862   267  11.9776  138  0.4   83    -2.2  109   0     968.4    NA       0.0000   UP       4800  2130  0    
2019/09/25  13:47:00  BASE  7.83804  279  11.9776  138  0.5   82    -2.3  112   0     968.2    NA       0.0000   UP       4800  2360  3250 
2019/09/25  13:48:00  BASE  8.09676  289  11.9776  138  0.5   81    -2.4  113   0     968.4    NA       0.0000   UP       5000  2260  3220 
2019/09/25  13:49:00  BASE  5.3214   309  11.9776  138  0.5   81    -2.4  116   0     968.5    NA       0.0000   UP       9000  2260  23230
2019/09/25  13:50:00  BASE  3.3222   335  11.9776  138  0.5   80    -2.5  117   0     968.6    NA       0.0000   UP       9999  2170  2890 
2019/09/25  13:51:00  BASE  2.92236  335  11.86    289  0.5   79    -2.7  116   0     968.6    NA       0.0000   UP       9999  2260  3180 
2019/09/25  13:52:00  BASE  2.9106   326  11.86    289  0.3   79    -2.9  117   0     968.5    NA       0.0000   HZ       9999  2260  0    
2019/09/25  13:53:00  BASE  3.06936  326  11.86    289  0.1   79    -3.1  118   0     968.5    NA       0.0000   HZ       9999  2260  0    
2019/09/25  13:54:00  BASE  3.41628  335  11.86    289  -0.1  79    -3.2  121   0     968.5    NA       0.0000   HZ       9999  2230  3350 
2019/09/25  13:55:00  BASE  2.95176  343  11.86    289  -0.3  80    -3.4  124   0     968.5    NA       0.0000   HZ       9999  2460  3220 
2019/09/25  13:56:00  BASE  2.31672  341  11.86    289  -0.4  81    -3.3  124   0     968.5    NA       0.0000   HZ       9999  3220  0    
2019/09/25  13:57:00  BASE  1.9992   331  10.2253  285  -0.4  81    -3.2  124   0     968.4    NA       0.0000   HZ       9999  3250  0    
2019/09/25  13:58:00  BASE  2.18736  306  4.80984  330  -0.3  82    -3.1  122   0     968.4    NA       0.0000   9999     3180  0     0    
2019/09/25  13:59:00  BASE  2.65776  305  4.02192  352  -0.3  82    -3.0  123   0     968.5    NA       0.0000   9999     2400  0     0    
2019/09/25  14:00:00  BASE  3.47508  359  4.78044  29   -0.3  82    -3.0  124   0     968.5    NA       0.0000   9999     2360  3280  0    
2019/09/25  14:01:00  BASE  3.21048  58   4.78044  29   -0.3  82    -3.0  125   0     968.4    NA       0.0000   9999     3250  21790 0    
2019/09/25  14:02:00  BASE  1.74048  104  4.78044  29   -0.4  82    -3.1  128   0     968.3    NA       0.0000   9000     3220  0     0    
2019/09/25  14:03:00  BASE  0.78204  115  4.78044  29   -0.4  82    -3.1  131   0     968.4    NA       0.0000   9999     3250  0     0    
2019/09/25  14:04:00  BASE  0.43512  15   4.78044  29   -0.4  82    -3.1  132   0     968.4    NA       0.0000   9999     3310  0     0    
2019/09/25  14:05:00  BASE  1.16424  320  4.78044  29   -0.5  82    -3.2  133   0     968.5    NA       0.0000   9999     3280  0     0    
2019/09/25  14:06:00  BASE  2.00508  331  4.78044  29   -0.5  82    -3.2  135   0     968.4    NA       0.0000   9999     3250  0     0    
2019/09/25  14:07:00  BASE  1.78164  313  4.78044  29   -0.4  82    -3.1  136   0     968.3    NA       0.0000   9000     3310  0     0    
2019/09/25  14:08:00  BASE  3.21048  264  8.59068  186  -0.4  82    -3.1  137   0     968.0    NA       0.0000   HZ       9000  3350  0    
2019/09/25  14:09:00  BASE  4.19832  212  8.83176  213  -0.4  82    -3.0  138   0     968.1    NA       0.0000   HZ       6000  3310  0    
2019/09/25  14:10:00  BASE  2.60484  178  8.83176  213  -0.2  82    -2.9  138   0     968.3    NA       0.0000   HZ       4300  3280  19130
2019/09/25  14:11:00  BASE  1.53468  173  8.83176  213  -0.0  82    -2.7  139   0     968.3    NA       0.0000   HZ       8000  3280  0    
2019/09/25  14:12:00  BASE  1.71696  190  8.83176  213  0.2   82    -2.6  137   0     968.2    NA       0.0000   HZ       9999  3350  0    
2019/09/25  14:13:00  BASE  1.8522   188  8.83176  213  0.3   81    -2.5  135   0     968.3    NA       0.0000   HZ       9999  3250  0    
2019/09/25  14:14:00  BASE  1.54644  112  8.83176  213  0.4   80    -2.7  135   0     968.4    NA       0.0000   HZ       9999  3250  21260
2019/09/25  14:15:00  BASE  2.1462   70   8.83176  213  0.3   79    -2.9  136   0     968.5    NA       0.0000   HZ       9999  3250  4230 
2019/09/25  14:16:00  BASE  3.19284  84   8.83176  213  0.2   79    -3.0  138   0     968.5    NA       0.0000   HZ       9999  4360  0    
2019/09/25  14:17:00  BASE  4.0866   110  8.83176  213  0.1   79    -3.1  141   0     968.4    NA       0.0000   HZ       9999  3280  0    
2019/09/25  14:18:00  BASE  6.30336  151  8.86116  175  0.0   79    -3.1  144   0     967.9    NA       0.0000   HZ       9999  3610  0    
2019/09/25  14:19:00  BASE  7.90272  174  8.86116  175  0.0   80    -3.0  144   0     968.0    NA       0.0000   HZ       9000  3770  0    
2019/09/25  14:20:00  BASE  6.4974   178  8.86116  175  0.1   80    -2.9  144   0     968.3    NA       0.0000   HZ       9999  2690  0    
2019/09/25  14:21:00  BASE  4.41588  164  8.86116  175  0.1   80    -2.9  144   0     968.5    NA       0.0000   HZ       9000  2560  0    
2019/09/25  14:22:00  BASE  3.95724  128  8.86116  175  0.1   80    -2.9  146   0     968.5    NA       0.0000   HZ       9999  2590  0    
2019/09/25  14:23:00  BASE  5.19204  116  8.86116  175  0.0   80    -3.0  148   0     968.3    NA       0.0000   HZ       9000  3080  0    
2019/09/25  14:24:00  BASE  6.1152   123  8.86116  175  -0.0  80    -3.0  149   0     968.2    NA       0.0000   HZ       9999  3120  0    
2019/09/25  14:25:00  BASE  6.0564   129  8.86116  175  -0.1  80    -3.1  150   0     968.3    NA       0.0000   HZ       9000  3120  0    
2019/09/25  14:26:00  BASE  5.42136  123  8.86116  175  -0.2  81    -3.1  151   0     968.4    NA       0.0000   HZ       9000  2560  0    
2019/09/25  14:27:00  BASE  5.26848  120  8.86116  175  -0.2  81    -3.1  153   0     968.4    NA       0.0000   HZ       9000  2690  0    
2019/09/25  14:28:00  BASE  5.10972  129  8.50248  171  -0.3  81    -3.1  157   0     968.4    NA       0.0000   HZ       9000  2760  0    
2019/09/25  14:29:00  BASE  4.95684  134  7.07952  127  -0.3  81    -3.2  162   0     968.4    NA       0.0000   HZ       9000  3220  0    
2019/09/25  14:30:00  BASE  5.2038   132  7.07952  127  -0.3  81    -3.3  166   0     968.4    NA       0.0000   HZ       9999  2660  0    
2019/09/25  14:31:00  BASE  5.06268  131  7.07952  127  -0.3  80    -3.3  168   0     968.3    NA       0.0000   HZ       9999  3150  0    
2019/09/25  14:32:00  BASE  4.32768  136  7.07952  127  -0.4  80    -3.3  169   0     968.2    NA       0.0000   HZ       9000  3180  3970 
2019/09/25  14:33:00  BASE  4.31004  133  7.07952  127  -0.4  80    -3.4  167   0     968.2    NA       0.0000   HZ       9999  2620  3280 
2019/09/25  14:34:00  BASE  5.42724  118  6.77376  94   -0.4  80    -3.4  167   0     968.4    NA       0.0000   HZ       9999  2620  0    
2019/09/25  14:35:00  BASE  6.174    102  6.86784  98   -0.4  80    -3.5  168   0     968.5    NA       0.0000   HZ       9999  2560  0    
2019/09/25  14:36:00  BASE  6.96192  99   8.80236  101  -0.5  79    -3.6  168   0     968.5    NA       0.0000   HZ       9999  2560  0    
2019/09/25  14:37:00  BASE  7.3206   109  8.80236  101  -0.5  79    -3.7  167   0     968.4    NA       0.0000   HZ       9999  2720  3380 
2019/09/25  14:38:00  BASE  7.07364  127  8.80236  101  -0.6  79    -3.8  169   0     968.1    NA       0.0000   9999     3220  3840  0    
2019/09/25  14:39:00  BASE  7.72044  145  9.4668   161  -0.7  79    -3.8  174   0     967.7    NA       0.0000   9999     3410  4230  0    
2019/09/25  14:40:00  BASE  8.44956  161  9.67848  161  -0.7  79    -3.8  180   0     967.8    NA       0.0000   9999     3580  4590  0    
2019/09/25  14:41:00  BASE  7.00308  166  9.67848  161  -0.6  80    -3.7  184   0     968.2    NA       0.0000   HZ       9000  4200  0    
2019/09/25  14:42:00  BASE  4.87452  155  9.67848  161  -0.5  80    -3.6  186   0     968.4    NA       0.0000   HZ       9999  4230  0    
2019/09/25  14:43:00  BASE  3.8514   124  9.67848  161  -0.4  80    -3.5  186   0     968.4    NA       0.0000   HZ       9000  4300  0    
2019/09/25  14:44:00  BASE  5.29788  116  9.67848  161  -0.4  80    -3.5  184   0     968.2    NA       0.0000   HZ       9000  4000  0    
2019/09/25  14:45:00  BASE  6.32688  132  9.67848  161  -0.4  79    -3.5  183   0     968.3    NA       0.0000   HZ       9000  3540  4130 
2019/09/25  14:46:00  BASE  5.62128  140  9.67848  161  -0.4  79    -3.6  181   0     968.2    NA       0.0000   HZ       9999  2820  4070 
2019/09/25  14:47:00  BASE  5.69184  145  9.67848  161  -0.5  79    -3.6  179   0     968.2    NA       0.0000   HZ       9000  4130  0    
2019/09/25  14:48:00  BASE  4.95684  148  9.67848  161  -0.6  80    -3.7  177   0     968.3    NA       0.0000   HZ       9000  3940  21060
2019/09/25  14:49:00  BASE  4.21596  143  9.67848  161  -0.6  80    -3.7  176   0     968.3    NA       0.0000   HZ       9999  2790  4130 
2019/09/25  14:50:00  BASE  3.75144  138  8.04384  118  -0.6  80    -3.6  175   0     968.4    NA       0.0000   HZ       9000  2660  4130 
2019/09/25  14:51:01  BASE  3.78084  131  8.04384  118  -0.6  80    -3.6  177   0     968.4    NA       0.0000   HZ       9000  2690  4590 
2019/09/25  14:52:00  BASE  4.70988  127  8.04384  118  -0.6  80    -3.6  181   0     968.3    NA       0.0000   HZ       9000  4400  0    
2019/09/25  14:53:00  BASE  5.20968  134  8.04384  118  -0.6  80    -3.6  186   0     968.3    NA       0.0000   HZ       9000  4530  0    
2019/09/25  14:54:00  BASE  4.99212  126  6.92664  153  -0.6  80    -3.7  191   0     968.4    NA       0.0000   HZ       9000  4590  0    
2019/09/25  14:55:00  BASE  4.69224  118  6.92664  153  -0.7  79    -3.8  196   0     968.3    NA       0.0000   HZ       9999  4530  0    
2019/09/25  14:56:00  BASE  4.59228  123  6.86784  137  -0.7  79    -3.8  200   0     968.2    NA       0.0000   HZ       9999  4460  0    
2019/09/25  14:57:00  BASE  5.45076  125  7.2912   128  -0.8  79    -3.9  203   0     968.1    NA       0.0000   HZ       9999  4360  0    
2019/09/25  14:58:00  BASE  6.28572  133  7.47348  138  -0.9  80    -3.9  203   0     968.1    NA       0.0000   9999     4400  0     0    
2019/09/25  14:59:00  BASE  5.90352  133  7.47348  138  -0.9  80    -3.9  202   0     968.2    NA       0.0000   9999     4400  0     0    
2019/09/25  15:00:00  BASE  5.60952  127  7.47348  138  -0.9  80    -3.9  200   0     968.2    NA       0.0000   9999     4270  0     0    
2019/09/25  15:01:00  BASE  5.62128  127  7.47348  138  -0.8  80    -3.9  199   0     968.1    NA       0.0000   9999     4330  0     0    
2019/09/25  15:02:00  BASE  6.42684  118  10.3782  86   -0.8  80    -3.8  199   0     968.1    NA       0.0000   9999     4070  0     0    
2019/09/25  15:03:00  BASE  6.98544  104  10.3782  86   -0.7  80    -3.7  199   0     968.2    NA       0.0000   9999     3870  22740 0    
2019/09/25  15:04:00  BASE  5.79768  103  10.3782  86   -0.6  80    -3.6  198   0     968.3    NA       0.0000   9999     3940  0     0    
2019/09/25  15:05:00  BASE  3.59268  110  10.3782  86   -0.5  80    -3.6  197   0     968.2    NA       0.0000   9999     4000  0     0    
2019/09/25  15:06:00  BASE  2.205    72   10.3782  86   -0.5  80    -3.5  195   0     968.2    NA       0.0000   9999     4100  0     0    
2019/09/25  15:07:00  BASE  2.98704  96   10.3782  86   -0.4  79    -3.5  194   0     968.1    NA       0.0000   9999     4230  0     0    
2019/09/25  15:08:00  BASE  5.20968  142  10.3782  86   -0.4  79    -3.6  193   0     968.1    NA       0.0000   9999     3870  21290 22840
2019/09/25  15:09:00  BASE  6.19752  138  10.3782  86   -0.5  79    -3.8  194   0     968.1    NA       0.0000   9999     4000  0     0    
2019/09/25  15:10:00  BASE  6.2034   135  10.3782  86   -0.6  79    -3.8  197   0     968.1    NA       0.0000   9999     4330  0     0    
2019/09/25  15:11:00  BASE  6.99132  125  10.3782  86   -0.7  79    -3.9  200   0     968.1    NA       0.0000   9999     4490  0     0    
2019/09/25  15:12:00  BASE  6.60912  117  8.04384  110  -0.8  79    -4.0  204   0     968.2    NA       0.0000   9999     4430  0     0    
2019/09/25  15:13:00  BASE  6.88548  124  10.0136  144  -0.8  79    -4.0  208   0     967.8    NA       0.0000   9999     3940  0     0    
2019/09/25  15:14:00  BASE  8.45544  142  10.1959  139  -0.9  80    -3.9  211   0     967.5    NA       0.0000   9999     3970  0     0    
2019/09/25  15:15:00  BASE  8.43192  148  10.1959  139  -0.8  80    -3.9  212   0     967.6    NA       0.0000   9999     4070  0     0    
2019/09/25  15:16:00  BASE  7.43232  143  10.1959  139  -0.8  80    -3.9  213   0     967.7    NA       0.0000   9999     3810  0     0    
2019/09/25  15:17:00  BASE  7.03836  133  10.1959  139  -0.8  79    -3.9  215   0     967.8    NA       0.0000   9999     3670  0     0    
2019/09/25  15:18:00  BASE  6.90312  118  10.1959  139  -0.8  79    -4.0  216   0     967.8    NA       0.0000   9999     3940  0     0    
2019/09/25  15:19:00  BASE  6.92664  108  10.1959  139  -0.7  79    -3.9  215   0     967.7    NA       0.0000   9999     3900  0     0    
2019/09/25  15:20:00  BASE  7.16184  104  10.1959  139  -0.6  79    -3.7  214   0     967.7    NA       0.0000   9999     3940  0     0    
2019/09/25  15:21:00  BASE  6.26808  97   10.1959  139  -0.4  79    -3.6  213   0     967.8    NA       0.0000   9999     3710  0     0    
2019/09/25  15:22:00  BASE  5.53896  85   10.1959  139  -0.2  79    -3.3  215   0     967.9    NA       0.0000   9999     3580  0     0    
2019/09/25  15:23:00  BASE  5.16852  92   10.1959  139  0.1   79    -3.1  219   0     967.9    NA       0.0000   9999     3710  0     0    
2019/09/25  15:24:00  BASE  5.2626   84   9.86076  154  0.2   78    -3.1  223   0     967.8    NA       0.0000   9999     3640  0     0    
2019/09/25  15:25:00  BASE  6.34452  69   9.13752  47   0.4   78    -3.0  228   0     967.8    NA       0.0000   9999     3640  0     0    
2019/09/25  15:26:00  BASE  6.50916  79   9.13752  47   0.6   77    -2.9  231   0     967.8    NA       0.0000   9000     3670  0     0    
2019/09/25  15:27:00  BASE  5.65068  79   9.13752  47   0.6   77    -3.0  233   0     967.8    NA       0.0000   9999     3870  0     0    
2019/09/25  15:28:00  BASE  5.96232  70   9.13752  47   0.7   77    -3.0  234   0     967.8    NA       0.0000   9999     3840  0     0    
2019/09/25  15:29:00  BASE  6.19752  70   9.13752  47   0.8   76    -2.9  235   0     967.9    NA       0.0000   9999     3740  23070 0    
2019/09/25  15:30:00  BASE  4.68048  73   9.13752  47   0.8   76    -3.0  235   0     967.9    NA       0.0000   9999     3670  18930 0    
2019/09/25  15:31:00  BASE  3.69852  65   9.13752  47   0.8   75    -3.1  233   0     967.9    NA       0.0000   9999     3710  0     0    
2019/09/25  15:32:00  BASE  3.69852  60   9.13752  47   0.9   75    -3.1  231   0     967.8    NA       0.0000   9999     3740  0     0    
2019/09/25  15:33:00  BASE  3.19872  82   9.13752  47   0.9   74    -3.2  229   0     967.8    NA       0.0000   9999     3770  0     0    
2019/09/25  15:34:00  BASE  1.95216  106  9.04344  78   0.8   74    -3.3  225   0     967.8    NA       0.0000   9999     3870  0     0    
2019/09/25  15:35:00  BASE  1.32888  138  8.56128  60   0.8   74    -3.4  222   0     967.8    NA       0.0000   9999     4300  0     0    
2019/09/25  15:36:00  BASE  1.7934   145  8.56128  60   0.6   73    -3.7  223   0     967.8    NA       0.0000   9999     4170  0     0    
2019/09/25  15:37:00  BASE  2.86356  127  8.56128  60   0.4   73    -3.9  218   0     967.7    NA       0.0000   9999     4300  0     0    
2019/09/25  15:38:00  BASE  4.06308  131  8.13792  54   0.2   73    -4.1  211   0     967.7    NA       0.0000   9999     3710  0     0    
2019/09/25  15:39:00  BASE  2.79888  126  6.53268  147  -0.1  73    -4.4  207   0     967.8    NA       0.0000   9999     3740  0     0    
2019/09/25  15:40:00  BASE  1.54056  200  6.53268  147  -0.3  73    -4.5  205   0     967.7    NA       0.0000   9999     3710  0     0    
2019/09/25  15:41:00  BASE  2.98116  301  6.53268  8    -0.3  74    -4.3  206   0     967.6    NA       0.0000   9999     3580  0     0    
2019/09/25  15:42:00  BASE  4.42764  3    6.53268  8    -0.2  75    -4.2  209   0     967.5    NA       0.0000   9999     3610  0     0    
2019/09/25  15:43:00  BASE  6.63264  19   9.3786   9    -0.0  75    -3.9  214   0     967.5    NA       0.0000   9999     3610  22080 0    
2019/09/25  15:44:00  BASE  8.09088  18   9.3786   9    0.3   76    -3.6  220   0     967.5    NA       0.0000   9999     3480  0     0    
2019/09/25  15:45:00  BASE  8.0556   23   9.3786   9    0.5   76    -3.3  226   0     967.5    NA       0.0000   9999     3450  0     0    
2019/09/25  15:46:00  BASE  8.30844  24   10.7663  31   0.7   76    -3.1  235   0     967.4    NA       0.0000   9999     3380  0     0    
2019/09/25  15:47:00  BASE  8.35548  26   10.7663  31   0.8   76    -3.0  244   0     967.4    NA       0.0000   9999     3310  0     0    
2019/09/25  15:48:00  BASE  8.10852  27   10.7663  31   0.8   75    -3.0  250   0     967.4    NA       0.0000   9999     3310  0     0    
2019/09/25  15:49:00  BASE  8.50836  28   10.7663  29   0.9   75    -3.0  255   0     967.3    NA       0.0000   9999     3310  0     0    
2019/09/25  15:50:00  BASE  8.83764  32   10.7663  29   0.9   75    -3.0  256   0     967.3    NA       0.0000   9999     3350  0     0    
2019/09/25  15:51:00  BASE  9.13164  32   10.8604  35   1.0   75    -3.0  252   0     967.3    NA       0.0000   9999     3380  0     0    
2019/09/25  15:52:00  BASE  9.29628  32   10.8604  35   1.0   74    -3.1  243   0     967.3    NA       0.0000   9999     1440  0     0    
2019/09/25  15:53:00  BASE  9.50208  29   13.4887  27   1.0   74    -3.1  240   0     967.2    NA       0.0000   9999     1150  3250  0    
2019/09/25  15:54:00  BASE  10.3782  28   13.4887  27   1.0   74    -3.1  236   0     967.3    NA       0.0000   9999     490   2330  0    
2019/09/25  15:55:00  BASE  10.2488  30   13.4887  27   1.0   74    -3.1  232   0     967.3    NA       0.0000   9999     1840  3280  0    
2019/09/25  15:56:00  BASE  9.01404  29   13.4887  27   1.0   74    -3.1  234   0     967.3    NA       0.0000   9999     1440  0     0    
2019/09/25  15:57:00  BASE  8.74356  28   13.4887  27   1.0   74    -3.1  233   0     967.3    NA       0.0000   9999     2720  0     0    
2019/09/25  15:58:00  BASE  9.92544  29   13.4887  27   1.0   75    -3.0  235   0     967.2    NA       0.0000   9999     2330  0     0    
2019/09/25  15:59:00  BASE  10.7192  29   13.4887  27   0.9   75    -3.0  245   0     967.1    NA       0.0000   9999     2330  0     0    
2019/09/25  16:00:00  BASE  10.9838  29   13.4887  27   0.9   75    -3.0  273   0     967.0    NA       0.0000   9999     2400  0     0    
2019/09/25  16:01:00  BASE  11.0191  31   13.4887  27   0.9   76    -2.9  290   0     967.0    NA       0.0000   9999     2590  0     0    
2019/09/25  16:02:00  BASE  11.3484  30   13.4887  27   0.9   76    -2.8  313   0     966.9    NA       0.0000   9999     2130  0     0    
2019/09/25  16:03:00  BASE  11.8247  29   13.2182  30   0.9   77    -2.8  334   0     966.9    NA       0.0000   9999     2170  0     0    
2019/09/25  16:04:00  BASE  12.0011  28   14.9411  27   0.9   77    -2.7  366   0     966.8    NA       0.0000   9999     2620  0     0    
2019/09/25  16:05:00  BASE  12.2422  28   14.9411  27   0.9   77    -2.6  441   0     966.7    NA       0.0000   9999     2330  0     0    
2019/09/25  16:06:00  BASE  12.3068  28   14.9411  27   0.9   78    -2.5  424   0     966.7    NA       0.0000   9999     3120  18010 0    
2019/09/25  16:07:00  BASE  12.4538  27   15.2174  25   1.0   78    -2.5  446   0     966.6    NA       0.0000   9999     3740  0     0    
2019/09/25  16:08:00  BASE  13.0242  27   15.2174  25   1.0   78    -2.4  426   0     966.6    NA       0.0000   9999     3770  4360  0    
2019/09/25  16:09:00  BASE  13.1653  27   15.2174  25   1.1   78    -2.3  454   0     966.6    NA       0.0000   9999     3870  0     0    
2019/09/25  16:10:00  BASE  12.9713  26   15.2174  25   1.1   78    -2.2  470   0     966.6    NA       0.0000   9999     3900  0     0    
2019/09/25  16:11:00  BASE  12.836   27   15.2174  25   1.1   79    -2.2  496   0     966.6    NA       0.0000   9999     3870  22020 0    
2019/09/25  16:12:00  BASE  13.2594  29   15.7584  28   1.1   79    -2.2  603   0     966.5    NA       0.0000   9999     3940  0     0    
2019/09/25  16:13:00  BASE  14.1532  28   15.9995  15   1.1   79    -2.1  542   0     966.4    NA       0.0000   9999     3970  0     0    
2019/09/25  16:14:00  BASE  13.8768  29   15.9995  15   1.1   79    -2.1  375   0     966.4    NA       0.0000   9999     3670  0     0    
2019/09/25  16:15:00  BASE  13.3241  29   15.9995  15   1.1   79    -2.1  353   0     966.4    NA       0.0000   9999     3740  0     0    
2019/09/25  16:16:00  BASE  12.6596  27   15.9995  15   1.1   79    -2.1  334   0     966.5    NA       0.0000   9999     3840  0     0    
2019/09/25  16:17:00  BASE  12.4186  28   15.9995  15   1.1   79    -2.1  314   0     966.4    NA       0.0000   9999     4000  0     0    
2019/09/25  16:18:00  BASE  13.183   27   15.9995  15   1.0   79    -2.1  307   0     966.4    NA       0.0000   9999     4300  0     0    
2019/09/25  16:19:00  BASE  13.524   26   16.364   24   0.9   80    -2.2  303   0     966.4    NA       0.0000   9999     4530  0     0    
2019/09/25  16:20:00  BASE  13.8356  27   16.364   24   0.9   80    -2.2  308   0     966.3    NA       0.0000   9999     3540  0     0    
2019/09/25  16:21:00  BASE  14.3354  27   16.6992  28   0.9   80    -2.2  304   0     966.2    NA       0.0000   9999     3250  0     0    
2019/09/25  16:22:00  BASE  14.7529  24   16.6992  28   0.9   80    -2.2  301   0     966.2    NA       0.0000   9999     5510  0     0    
2019/09/25  16:23:00  BASE  14.994   24   16.6992  28   0.9   80    -2.2  296   0     966.2    NA       0.0000   9999     4230  21880 0    
2019/09/25  16:24:00  BASE  15.4291  25   17.3048  23   0.9   80    -2.2  294   0     966.1    NA       0.0000   9999     4460  0     0    
2019/09/25  16:25:00  BASE  16.0642  23   17.5753  21   0.9   80    -2.2  296   0     966.0    NA       0.2540   9999     4530  0     0    
2019/09/25  16:26:00  BASE  16.711   22   17.6341  22   0.9   80    -2.2  299   0     966.0    NA       0.0000   9999     4490  0     0    
2019/09/25  16:27:00  BASE  16.6992  23   17.6341  22   0.8   80    -2.2  303   0     966.0    NA       0.0000   9999     4660  0     0    
2019/09/25  16:28:00  BASE  16.3934  23   17.6341  22   0.8   80    -2.2  309   0     966.0    NA       0.0000   9999     4720  0     0    
2019/09/25  16:29:00  BASE  15.9407  22   17.6341  22   0.8   80    -2.3  325   0     966.1    NA       0.0000   9999     4790  5350  0    
2019/09/25  16:30:00  BASE  15.5761  23   17.6341  22   0.8   80    -2.3  349   0     966.1    NA       0.0000   9999     4820  5380  0    
2019/09/25  16:31:00  BASE  15.5173  26   17.6341  22   0.8   80    -2.2  370   0     966.1    NA       0.0000   9999     4860  0     0    
2019/09/25  16:32:00  BASE  15.5056  24   17.6341  22   0.8   80    -2.2  394   0     966.1    NA       0.0000   9999     5090  0     0    
2019/09/25  16:33:00  BASE  15.1469  21   17.6341  22   0.9   80    -2.2  405   0     966.2    NA       0.0000   9999     5220  0     0    
2019/09/25  16:34:00  BASE  15.0704  21   17.6341  22   0.9   80    -2.1  411   0     966.1    NA       0.0000   9999     5710  0     0    
2019/09/25  16:35:00  BASE  15.4644  21   17.6341  22   1.0   80    -2.1  415   0     966.2    NA       0.0000   9999     5350  0     0    
2019/09/25  16:36:00  BASE  15.2116  22   17.3636  22   1.0   80    -2.1  414   0     966.2    NA       0.0000   9999     5020  24180 0    
2019/09/25  16:37:00  BASE  14.5706  22   17.3636  22   1.0   80    -2.0  408   0     966.2    NA       0.0000   9999     4820  0     0    
2019/09/25  16:38:00  BASE  14.0532  24   16.6698  24   1.1   80    -2.0  394   0     966.3    NA       0.0000   9999     4590  0     0    
2019/09/25  16:39:00  BASE  13.7827  26   16.6698  24   1.1   80    -2.0  377   0     966.3    NA       0.0000   9999     4430  22440 24350
2019/09/25  16:40:00  BASE  13.8886  23   16.6698  24   1.1   80    -2.0  369   0     966.2    NA       0.0000   9999     4490  0     0    
2019/09/25  16:41:00  BASE  14.0708  24   16.6698  24   1.0   80    -2.1  368   0     966.3    NA       0.0000   9999     4530  0     0    
2019/09/25  16:42:00  BASE  13.4887  24   16.2112  19   1.0   80    -2.1  372   0     966.3    NA       0.0000   9999     4460  0     0    
2019/09/25  16:43:00  BASE  12.9301  24   16.2112  19   1.0   79    -2.2  372   0     966.3    NA       0.0000   9999     4360  0     0    
2019/09/25  16:44:00  BASE  12.789   26   16.1818  27   1.0   79    -2.2  374   0     966.3    NA       0.0000   9999     4330  0     0    
2019/09/25  16:45:00  BASE  12.8125  25   16.1818  27   1.0   79    -2.2  374   0     966.3    NA       0.0000   9999     4590  18440 0    
2019/09/25  16:46:00  BASE  13.6181  25   16.1818  27   1.1   79    -2.2  370   0     966.2    NA       0.0000   9999     4720  0     0    
2019/09/25  16:47:00  BASE  14.0473  26   16.1818  27   1.1   79    -2.2  370   0     966.2    NA       0.0000   9999     4690  0     0    
2019/09/25  16:48:00  BASE  13.424   24   16.1818  27   1.1   79    -2.2  365   0     966.2    NA       0.0000   9999     4720  0     0    
2019/09/25  16:49:00  BASE  14.1061  24   16.1818  27   1.1   79    -2.2  357   0     966.2    NA       0.0000   9999     4660  0     0    
2019/09/25  16:50:00  BASE  14.5471  25   16.1818  27   1.1   79    -2.2  354   0     966.2    NA       0.0000   9999     4630  0     0    
2019/09/25  16:51:00  BASE  13.7298  24   15.9995  29   1.1   79    -2.2  350   0     966.2    NA       0.0000   9999     4590  0     0    
2019/09/25  16:52:00  BASE  13.3123  24   15.9995  29   1.1   78    -2.2  346   0     966.2    NA       0.0000   9999     4590  0     0    
2019/09/25  16:53:00  BASE  13.571   23   15.9995  29   1.1   78    -2.2  347   0     966.2    NA       0.0000   9999     4490  0     0    
2019/09/25  16:54:00  BASE  14.6412  23   16.6992  24   1.1   78    -2.2  346   0     966.0    NA       0.2540   9999     4660  0     0    
2019/09/25  16:55:00  BASE  15.3174  22   16.6992  24   1.1   78    -2.2  345   0     966.1    NA       0.0000   9999     4690  0     0    
2019/09/25  16:56:00  BASE  14.5177  23   16.6992  24   1.1   79    -2.2  351   0     966.2    NA       0.0000   9999     4360  0     0    
2019/09/25  16:57:00  BASE  13.1359  24   16.6992  24   1.1   79    -2.2  367   0     966.3    NA       0.0000   9999     4130  0     0    
2019/09/25  16:58:00  BASE  13.4946  23   16.6992  24   1.1   79    -2.2  380   0     966.1    NA       0.0000   9999     4200  0     0    
2019/09/25  16:59:00  BASE  14.7235  23   16.6992  24   1.1   79    -2.2  369   0     966.1    NA       0.0000   9999     4360  0     0    
2019/09/25  17:00:00  BASE  14.3002  24   16.6992  24   1.1   79    -2.2  336   0     966.2    NA       0.0000   9999     4200  0     0    
2019/09/25  17:01:00  BASE  14.159   24   16.6992  24   1.1   78    -2.2  312   0     966.1    NA       0.0000   9999     4270  0     0    
2019/09/25  17:02:00  BASE  14.5177  25   16.6992  24   1.1   78    -2.2  305   0     966.2    NA       0.0000   9999     4270  0     0    
2019/09/25  17:03:00  BASE  14.1355  25   16.6992  24   1.1   78    -2.3  310   0     966.2    NA       0.0000   9999     4430  0     0    
2019/09/25  17:04:00  BASE  13.1653  24   16.364   24   1.1   78    -2.3  317   0     966.3    NA       0.0000   9999     4490  0     0    
2019/09/25  17:05:00  BASE  13.13    24   16.364   24   1.1   78    -2.3  326   0     966.2    NA       0.0000   9999     4360  0     0    
2019/09/25  17:06:00  BASE  13.9709  23   16.364   24   1.1   78    -2.3  320   0     966.2    NA       0.0000   9999     4530  0     0    
2019/09/25  17:07:00  BASE  13.7592  24   16.364   24   1.1   78    -2.3  307   0     966.2    NA       0.0000   9999     4690  0     0    
2019/09/25  17:08:00  BASE  13.671   25   16.2758  27   1.1   78    -2.3  300   0     966.2    NA       0.0000   9999     4460  21100 0    
2019/09/25  17:09:00  BASE  13.0301  25   15.7584  27   1.1   78    -2.3  292   0     966.3    NA       0.0000   9999     4490  5050  0    
2019/09/25  17:10:00  BASE  12.6832  24   15.7584  27   1.1   78    -2.3  288   0     966.3    NA       0.0000   9999     4330  0     0    
2019/09/25  17:11:00  BASE  13.6357  25   15.7584  27   1.1   78    -2.3  283   0     966.2    NA       0.0000   9999     4360  0     0    
2019/09/25  17:12:00  BASE  13.424   27   15.5467  24   1.1   78    -2.4  272   0     966.3    NA       0.0000   9999     4330  0     0    
2019/09/25  17:13:00  BASE  12.9595  29   15.5467  24   1.0   78    -2.3  254   0     966.2    NA       0.0000   9999     4460  0     0    
2019/09/25  17:14:00  BASE  12.8713  29   15.5467  24   1.0   78    -2.3  220   0     966.3    NA       0.0000   9999     4270  0     0    
2019/09/25  17:15:00  BASE  12.6244  29   15.5467  24   1.0   79    -2.3  183   0     966.3    NA       0.0000   9999     4130  0     0    
2019/09/25  17:16:00  BASE  12.0716  29   15.3056  27   1.0   79    -2.3  165   0     966.3    NA       0.0000   9999     4170  0     0    
2019/09/25  17:17:00  BASE  12.1834  28   15.3056  27   1.0   79    -2.2  163   0     966.2    NA       0.0000   9999     4000  0     0    
2019/09/25  17:18:00  BASE  12.4774  31   15.094   24   1.0   79    -2.3  164   0     966.3    NA       0.0000   9999     4070  20540 0    
2019/09/25  17:19:00  BASE  12.4303  32   15.094   24   1.0   79    -2.3  165   0     966.2    NA       0.0000   9999     4200  0     0    
2019/09/25  17:20:00  BASE  12.7302  31   15.094   24   1.0   78    -2.3  164   0     966.2    NA       0.0000   9999     4300  0     0    
2019/09/25  17:21:00  BASE  12.4832  32   14.2472  30   1.0   78    -2.4  159   0     966.2    NA       0.0000   9999     4430  0     0    
2019/09/25  17:22:00  BASE  12.3362  33   14.2178  28   1.0   78    -2.4  159   0     966.1    NA       0.0000   9999     4790  0     0    
2019/09/25  17:23:00  BASE  12.5538  33   14.159   36   1.0   78    -2.4  165   0     966.0    NA       0.0000   9999     4630  0     0    
2019/09/25  17:24:00  BASE  12.7184  37   14.159   36   1.0   78    -2.4  172   0     966.0    NA       0.0000   8000     4360  0     0    
2019/09/25  17:25:00  BASE  12.6244  39   14.2178  38   1.0   78    -2.4  179   0     966.0    NA       0.0000   6000     4690  0     0    
2019/09/25  17:26:00  BASE  12.4009  38   14.2178  38   1.0   78    -2.4  185   0     966.0    NA       0.0000   9999     4590  0     0    
2019/09/25  17:27:00  BASE  12.3245  39   14.2178  38   1.0   78    -2.4  189   0     966.0    NA       0.0000   9999     4560  0     0    
2019/09/25  17:28:00  BASE  12.1951  37   14.2178  38   1.1   78    -2.4  192   0     966.0    NA       0.0000   9999     4460  22050 0    
2019/09/25  17:29:00  BASE  12.1187  35   14.2178  38   1.1   77    -2.4  194   0     966.0    NA       0.0000   9999     4070  0     0    
2019/09/25  17:30:00  BASE  12.9066  35   15.3056  33   1.1   77    -2.5  199   0     965.9    NA       0.0000   9999     4100  0     0    
2019/09/25  17:31:00  BASE  13.524   35   15.3056  33   1.1   77    -2.5  205   0     966.0    NA       0.0000   9999     4490  0     0    
2019/09/25  17:32:00  BASE  12.9478  36   15.3056  33   1.1   77    -2.5  212   0     966.0    NA       0.0000   9999     4040  0     0    
2019/09/25  17:33:00  BASE  12.3245  36   15.3056  33   1.2   77    -2.5  219   0     966.0    NA       0.0000   9999     3810  0     0    
2019/09/25  17:34:00  BASE  12.348   35   15.3056  33   1.2   77    -2.5  228   0     966.0    NA       0.0000   9999     4000  0     0    
2019/09/25  17:35:00  BASE  12.5244  35   15.3056  33   1.2   76    -2.5  235   0     965.9    NA       0.0000   9999     4000  0     0    
2019/09/25  17:36:00  BASE  12.4891  38   15.3056  33   1.2   76    -2.5  242   0     965.9    NA       0.0000   9999     3970  0     0    
2019/09/25  17:37:00  BASE  12.1363  40   15.3056  33   1.3   76    -2.5  249   0     965.9    NA       0.0000   9999     3940  0     0    
2019/09/25  17:38:00  BASE  12.0128  39   15.3056  33   1.3   76    -2.6  252   0     965.9    NA       0.0000   9999     4330  0     0    
2019/09/25  17:39:00  BASE  11.9482  39   15.3056  33   1.3   75    -2.6  250   0     965.9    NA       0.0000   9999     4130  0     0    
2019/09/25  17:40:00  BASE  11.907   38   14.4295  34   1.3   75    -2.6  246   0     965.9    NA       0.0000   9999     4270  0     0    
2019/09/25  17:41:00  BASE  12.2774  36   13.9768  42   1.3   75    -2.6  241   0     965.9    NA       0.0000   9999     4430  0     0    
2019/09/25  17:42:00  BASE  11.8423  38   13.9768  42   1.4   75    -2.6  233   0     965.9    NA       0.0000   9999     4300  0     0    
2019/09/25  17:43:00  BASE  11.2367  37   13.9768  42   1.4   75    -2.6  225   0     965.9    NA       0.0000   9999     4200  0     0    
2019/09/25  17:44:00  BASE  10.8839  37   13.9768  42   1.4   75    -2.6  220   0     965.9    NA       0.0000   9999     4070  0     0    
2019/09/25  17:45:00  BASE  10.6898  41   13.9768  42   1.4   75    -2.6  214   0     965.9    NA       0.0000   9999     4070  0     0    
2019/09/25  17:46:00  BASE  10.8074  40   13.9768  42   1.4   75    -2.6  205   0     965.8    NA       0.0000   9999     4200  0     0    
2019/09/25  17:47:00  BASE  10.7369  38   13.9768  42   1.4   75    -2.6  196   0     965.8    NA       0.0000   9999     4430  0     0    
2019/09/25  17:48:00  BASE  11.125   40   13.3711  44   1.4   75    -2.6  186   0     965.8    NA       0.0000   9999     4200  0     0    
2019/09/25  17:49:00  BASE  11.2426  39   13.1594  43   1.4   74    -2.7  178   0     965.8    NA       0.0000   9999     4040  0     0    
2019/09/25  17:50:00  BASE  11.3425  35   13.1594  43   1.4   74    -2.7  179   0     965.7    NA       0.0000   9999     4040  0     0    
2019/09/25  17:51:00  BASE  11.7482  35   13.1888  39   1.4   74    -2.7  187   0     965.7    NA       0.0000   9999     4100  0     0    
2019/09/25  17:52:00  BASE  11.4307  36   13.1888  39   1.4   75    -2.7  199   0     965.7    NA       0.0000   9999     4330  4990  0    
2019/09/25  17:53:00  BASE  11.5366  37   13.1888  39   1.4   75    -2.6  213   0     965.7    NA       0.0000   9999     4170  4990  0    
2019/09/25  17:54:00  BASE  11.5895  38   13.1888  39   1.4   75    -2.6  227   0     965.7    NA       0.0000   9999     4170  0     0    
2019/09/25  17:55:00  BASE  11.7482  38   13.3123  46   1.4   75    -2.6  243   0     965.7    NA       0.0000   9999     3970  0     0    
2019/09/25  17:56:00  BASE  12.3362  37   13.7004  35   1.4   74    -2.6  261   0     965.7    NA       0.0000   9999     4000  0     0    
2019/09/25  17:57:00  BASE  12.0599  35   13.7004  35   1.4   74    -2.6  279   0     965.7    NA       0.0000   9999     4130  0     0    
2019/09/25  17:58:00  BASE  11.907   35   13.7004  35   1.5   74    -2.7  290   0     965.7    NA       0.0000   9999     4130  0     0    
2019/09/25  17:59:00  BASE  11.713   34   13.7004  35   1.5   74    -2.6  293   0     965.7    NA       0.0000   9999     3970  4690  0    
2019/09/25  18:00:00  BASE  11.366   34   13.7004  35   1.5   74    -2.6  289   0     965.8    NA       0.0000   9999     4000  0     0    
2019/09/25  18:01:00  BASE  11.5718  36   13.7004  35   1.6   74    -2.6  281   0     965.8    NA       0.0000   9999     3970  0     0    
2019/09/25  18:02:00  BASE  11.0015  36   13.7004  35   1.6   74    -2.6  281   0     965.8    NA       0.0000   9999     4130  0     0    
2019/09/25  18:03:00  BASE  10.6663  36   13.7004  35   1.6   74    -2.6  291   0     965.8    NA       0.0000   9999     4040  0     0    
2019/09/25  18:04:00  BASE  11.172   35   13.7004  35   1.6   74    -2.6  308   0     965.8    NA       0.0000   9999     3940  0     0    
2019/09/25  18:05:00  BASE  11.4366  36   13.7004  35   1.6   74    -2.6  333   0     965.8    NA       0.0000   9999     3810  0     0    
2019/09/25  18:06:00  BASE  11.3778  38   12.9772  34   1.6   74    -2.6  340   0     965.8    NA       0.0000   9999     3940  0     0    
2019/09/25  18:07:00  BASE  10.6663  37   12.9772  34   1.6   74    -2.6  346   0     965.9    NA       0.0000   9999     3870  0     0    
2019/09/25  18:08:00  BASE  10.3958  38   12.495   41   1.6   74    -2.6  359   0     965.9    NA       0.2540   9999     5120  0     0    
2019/09/25  18:09:00  BASE  10.0136  40   12.495   41   1.7   73    -2.6  370   0     965.9    NA       0.0000   9999     3640  5220  0    
2019/09/25  18:10:00  BASE  9.60204  40   12.4303  41   1.8   73    -2.6  368   0     965.9    NA       0.0000   9999     3610  4920  0    
2019/09/25  18:11:00  BASE  9.71964  40   12.4303  41   1.8   72    -2.6  362   0     965.9    NA       0.0000   9999     4820  0     0    
2019/09/25  18:12:00  BASE  9.94308  38   12.4303  41   1.8   72    -2.7  364   0     965.9    NA       0.0000   9999     3540  5220  0    
2019/09/25  18:13:00  BASE  10.19    37   12.4303  41   1.9   72    -2.7  392   0     965.9    NA       0.0000   9999     3310  0     0    
2019/09/25  18:14:00  BASE  9.93132  38   12.4303  41   1.9   71    -2.7  382   0     965.9    NA       0.0000   9999     3150  0     0    
2019/09/25  18:15:00  BASE  10.1195  37   12.248   34   1.9   71    -2.7  393   0     965.9    NA       0.0000   9999     3220  0     0    
2019/09/25  18:16:00  BASE  10.0607  35   11.8894  40   1.9   71    -2.8  401   0     965.8    NA       0.0000   9999     3220  0     0    
2019/09/25  18:17:00  BASE  9.97248  36   11.8894  40   2.0   71    -2.7  401   0     965.8    NA       0.0000   9999     3380  0     0    
2019/09/25  18:18:00  BASE  10.2018  37   11.8894  40   2.0   71    -2.7  349   0     965.8    NA       0.0000   9999     4660  0     0    
2019/09/25  18:19:00  BASE  9.8784   35   11.8894  40   2.0   71    -2.7  316   0     965.8    NA       0.0000   9999     4270  4820  18180
2019/09/25  18:20:00  BASE  9.36684  33   11.8894  40   2.0   71    -2.7  274   0     965.9    NA       0.0000   9999     4990  0     0    
2019/09/25  18:21:00  BASE  9.39624  33   11.8894  40   2.0   71    -2.7  231   0     965.8    NA       0.0000   9999     5120  5680  0    
2019/09/25  18:22:00  BASE  10.437   33   12.3715  35   2.0   71    -2.8  205   0     965.8    NA       0.0000   9999     5090  6860  0    
2019/09/25  18:23:00  BASE  10.5899  31   12.3715  35   1.9   71    -2.8  199   0     965.8    NA       0.0000   9999     5150  0     0    
2019/09/25  18:24:00  BASE  10.1371  30   12.3715  35   1.9   71    -2.8  199   0     965.7    NA       0.0000   9999     5150  0     0    
2019/09/25  18:25:00  BASE  10.043   28   12.3715  35   1.8   71    -2.8  196   0     965.7    NA       0.0000   9999     5120  0     0    
2019/09/25  18:26:00  BASE  10.2724  26   12.3715  35   1.8   72    -2.8  189   0     965.7    NA       0.0000   9999     5150  0     0    
2019/09/25  18:27:00  BASE  11.0544  25   12.3715  35   1.8   72    -2.7  182   0     965.6    NA       0.0000   9999     5740  0     0    
2019/09/25  18:28:00  BASE  11.0662  26   12.3715  35   1.7   73    -2.7  176   0     965.7    NA       0.0000   9999     5350  0     0    
2019/09/25  18:29:00  BASE  10.39    24   12.3715  35   1.7   73    -2.7  170   0     965.7    NA       0.0000   9999     3280  5250  0    
2019/09/25  18:30:00  BASE  10.3841  23   12.3715  35   1.7   73    -2.6  164   0     965.7    NA       0.0000   9999     4860  0     0    
2019/09/25  18:31:00  BASE  10.6369  24   12.3715  35   1.7   73    -2.6  160   0     965.7    NA       0.0000   9999     2890  4920  22080
2019/09/25  18:32:00  BASE  11.5248  22   13.5534  24   1.7   73    -2.6  159   0     965.6    NA       0.0000   9999     3050  0     0    
2019/09/25  18:33:00  BASE  12.0893  20   13.5534  24   1.7   73    -2.6  158   0     965.6    NA       0.0000   9999     2850  0     0    
2019/09/25  18:34:00  BASE  11.5601  18   13.5534  24   1.7   73    -2.7  154   0     965.7    NA       0.0000   9999     2850  4920  0    
2019/09/25  18:35:00  BASE  11.7188  19   13.5534  24   1.7   73    -2.7  150   0     965.6    NA       0.0000   9999     3120  3900  0    
2019/09/25  18:36:00  BASE  12.3127  19   13.5534  24   1.7   72    -2.7  146   0     965.7    NA       0.0000   9999     3540  0     0    
2019/09/25  18:37:00  BASE  12.495   15   13.5534  24   1.7   72    -2.7  144   0     965.7    NA       0.0000   9999     2170  0     0    
2019/09/25  18:38:00  BASE  12.3892  12   13.5534  24   1.6   72    -2.8  146   0     965.7    NA       0.0000   9999     2170  0     0    
2019/09/25  18:39:00  BASE  12.3245  13   13.5534  24   1.5   73    -2.8  154   0     965.7    NA       0.0000   9999     2590  0     0    
2019/09/25  18:40:00  BASE  12.1657  12   13.5534  24   1.4   73    -2.8  164   0     965.8    NA       0.0000   9999     2660  4200  0    
2019/09/25  18:41:00  BASE  12.0834  12   13.5534  24   1.3   74    -2.8  175   0     965.8    NA       0.0000   9999     2720  4300  0    
2019/09/25  18:42:00  BASE  12.1657  13   13.3711  19   1.2   75    -2.7  187   0     965.8    NA       0.0000   9999     2590  4330  0    
2019/09/25  18:43:00  BASE  11.6894  11   13.3711  19   1.1   76    -2.6  198   0     965.8    NA       0.0000   9999     2690  4430  0    
2019/09/25  18:44:00  BASE  11.1544  10   13.3711  19   1.1   77    -2.5  204   0     965.9    NA       0.0000   9999     2430  0     0    
2019/09/25  18:45:00  BASE  11.7071  13   13.3711  19   1.1   77    -2.4  204   0     965.8    NA       0.0000   9999     2530  4560  0    
2019/09/25  18:46:00  BASE  12.3774  15   13.7357  15   1.0   78    -2.4  200   0     965.7    NA       0.0000   9999     2460  4920  0    
2019/09/25  18:47:00  BASE  12.7949  17   14.065   18   1.0   78    -2.3  197   0     965.7    NA       0.0000   9999     2490  4790  0    
2019/09/25  18:48:00  BASE  13.2535  18   14.065   13   1.0   79    -2.3  198   0     965.7    NA       0.0000   9999     2530  5180  0    
2019/09/25  18:49:00  BASE  13.2359  16   14.065   13   1.0   79    -2.3  198   0     965.7    NA       0.0000   9999     4990  0     0    
2019/09/25  18:50:00  BASE  12.4715  16   14.065   13   1.0   79    -2.2  192   0     965.8    NA       0.0000   9999     1510  2460  0    
2019/09/25  18:51:00  BASE  11.4131  16   14.065   13   1.0   79    -2.2  184   0     965.9    NA       0.0000   9999     1510  0     0    
2019/09/25  18:52:00  BASE  10.7604  11   14.065   13   1.0   79    -2.2  178   0     965.9    NA       0.0000   9999     1050  4530  0    
2019/09/25  18:53:00  BASE  11.0309  10   14.065   13   1.0   79    -2.2  173   0     965.8    NA       0.0000   9999     1710  0     0    
2019/09/25  18:54:00  BASE  11.5542  11   14.065   13   1.0   79    -2.2  163   0     965.8    NA       0.0000   9999     4330  0     0    
2019/09/25  18:55:00  BASE  11.7188  14   14.065   13   1.0   79    -2.1  154   0     965.8    NA       0.0000   9999     520   0     0    
2019/09/25  18:56:00  BASE  12.3127  18   14.065   13   1.0   80    -2.1  146   0     965.7    NA       0.0000   9999     4820  0     0    
2019/09/25  18:57:00  BASE  12.9654  21   14.065   26   1.0   80    -2.1  137   0     965.6    NA       0.0000   9999     5480  0     0    
2019/09/25  18:58:00  BASE  13.4887  21   14.5824  19   1.0   80    -2.1  132   0     965.6    NA       0.0000   9999     5350  0     0    
2019/09/25  18:59:00  BASE  13.9356  21   14.9705  16   0.9   80    -2.1  131   0     965.6    NA       0.0000   9999     5280  0     0    
2019/09/25  19:00:00  BASE  13.7768  21   15.3056  21   0.8   81    -2.1  134   0     965.6    NA       0.0000   9999     5220  0     0    
2019/09/25  19:01:00  BASE  13.6592  22   15.3056  21   0.8   81    -2.1  136   0     965.6    NA       0.0000   9999     5680  0     0    
2019/09/25  19:02:00  BASE  13.9297  22   15.3056  21   0.8   81    -2.1  133   0     965.6    NA       0.0000   9999     5180  0     0    
2019/09/25  19:03:00  BASE  13.8298  22   15.3056  21   0.7   82    -2.1  126   0     965.6    NA       0.0000   9999     5770  0     0    
2019/09/25  19:04:00  BASE  13.6475  21   15.3056  21   0.7   82    -2.0  120   0     965.6    NA       0.0000   9999     5350  0     0    
2019/09/25  19:05:00  BASE  13.7004  21   15.3056  21   0.7   82    -2.0  116   0     965.6    NA       0.0000   9999     5350  0     0    
2019/09/25  19:06:00  BASE  13.3888  21   15.3056  21   0.7   83    -1.9  115   0     965.6    NA       0.0000   9999     5540  0     0    
2019/09/25  19:07:00  BASE  12.8713  20   15.3056  21   0.7   83    -1.9  116   0     965.7    NA       0.0000   9999     5410  0     0    
2019/09/25  19:08:00  BASE  12.4538  21   15.3056  21   0.7   83    -1.8  116   0     965.7    NA       0.0000   9999     5510  0     0    
2019/09/25  19:09:00  BASE  12.642   21   15.3056  21   0.8   83    -1.8  115   0     965.6    NA       0.0000   9999     5020  0     0    
2019/09/25  19:10:00  BASE  12.689   23   15.2762  18   0.8   83    -1.8  112   0     965.7    NA       0.0000   9999     5450  0     0    
2019/09/25  19:11:00  BASE  12.395   24   15.2762  18   0.8   83    -1.8  107   0     965.6    NA       0.0000   9999     5510  0     0    
2019/09/25  19:12:00  BASE  12.5597  23   15.0352  23   0.8   83    -1.7  103   0     965.6    NA       0.0000   9999     5540  0     0    
2019/09/25  19:13:00  BASE  12.742   23   15.0352  23   0.8   83    -1.7  102   0     965.6    NA       0.0000   9999     5580  0     0    
2019/09/25  19:14:00  BASE  13.0477  21   15.0352  23   0.8   84    -1.7  101   0     965.6    NA       0.0000   9999     4660  0     0    
2019/09/25  19:15:00  BASE  13.4299  21   15.0352  23   0.8   84    -1.6  100   0     965.6    NA       0.0000   9999     4400  0     0    
2019/09/25  19:16:00  BASE  13.377   22   15.0352  23   0.8   84    -1.6  100   0     965.6    NA       0.0000   9999     4720  5610  0    
2019/09/25  19:17:00  BASE  13.4417  22   15.0352  23   0.8   84    -1.6  100   0     965.6    NA       0.0000   9999     4820  0     0    
2019/09/25  19:18:00  BASE  13.7945  22   14.7588  20   0.8   84    -1.6  100   0     965.6    NA       0.0000   9999     5050  0     0    
2019/09/25  19:19:00  BASE  13.6357  21   14.7588  20   0.8   84    -1.6  101   0     965.6    NA       0.0000   9999     4490  0     0    
2019/09/25  19:20:00  BASE  12.8654  21   14.7588  20   0.8   84    -1.6  101   0     965.7    NA       0.0000   9999     4530  0     0    
2019/09/25  19:21:00  BASE  12.7361  21   14.7588  20   0.8   84    -1.6  101   0     965.7    NA       0.0000   9999     4400  0     0    
2019/09/25  19:22:00  BASE  12.9184  22   14.7588  20   0.8   84    -1.6  100   0     965.6    NA       0.0000   9999     3970  0     0    
2019/09/25  19:23:00  BASE  13.4182  21   14.8529  18   0.8   84    -1.6  97    0     965.5    NA       0.0000   9999     5050  0     0    
2019/09/25  19:24:00  BASE  14.3237  22   15.3644  23   0.8   84    -1.6  94    0     965.5    NA       0.0000   9999     3810  5150  0    
2019/09/25  19:25:00  BASE  14.8058  22   16.364   20   0.8   84    -1.6  93    0     965.5    NA       0.0000   9999     3410  0     0    
2019/09/25  19:26:00  BASE  14.9705  21   16.364   20   0.8   84    -1.6  92    0     965.5    NA       0.0000   9999     3480  0     0    
2019/09/25  19:27:00  BASE  14.9117  20   16.364   20   0.7   84    -1.7  93    0     965.5    NA       0.0000   9999     1080  0     0    
2019/09/25  19:28:00  BASE  14.5824  20   16.364   20   0.7   84    -1.7  95    0     965.5    NA       0.0000   9999     1050  0     0    
2019/09/25  19:29:00  BASE  14.0356  21   16.364   20   0.7   84    -1.6  97    0     965.5    NA       0.0000   9999     3810  0     0    
2019/09/25  19:30:00  BASE  13.0654  23   16.364   20   0.8   84    -1.6  99    0     965.7    NA       0.0000   9999     4660  0     0    
2019/09/25  19:31:00  BASE  12.5891  25   16.364   20   0.8   85    -1.5  101   0     965.6    NA       0.0000   9999     4760  0     0    
2019/09/25  19:32:00  BASE  12.836   26   16.364   20   0.8   85    -1.5  102   0     965.6    NA       0.0000   9999     5280  0     0    
2019/09/25  19:33:00  BASE  12.936   26   16.364   20   0.8   85    -1.4  104   0     965.6    NA       0.0000   9999     4820  0     0    
2019/09/25  19:34:00  BASE  12.8478  25   16.364   20   0.8   85    -1.4  107   0     965.6    NA       0.0000   9999     4760  0     0    
2019/09/25  19:35:00  BASE  12.101   27   15.9701  21   0.8   85    -1.4  111   0     965.6    NA       0.0000   9999     4860  0     0    
2019/09/25  19:36:00  BASE  11.8541  28   15.8231  20   0.8   85    -1.4  116   0     965.6    NA       0.0000   UP       9999  5090  0    
2019/09/25  19:37:00  BASE  11.9188  27   15.2174  17   0.8   85    -1.4  120   0     965.5    NA       0.0000   UP       9999  5120  0    
2019/09/25  19:38:00  BASE  11.8423  28   14.4295  19   0.8   85    -1.5  121   0     965.5    NA       0.0000   UP       9999  5480  0    
2019/09/25  19:39:00  BASE  11.6424  28   14.2766  22   0.7   85    -1.5  120   0     965.5    NA       0.0000   UP       9999  5740  7480 
2019/09/25  19:40:00  BASE  11.319   26   14.2766  22   0.7   85    -1.5  118   0     965.6    NA       0.0000   UP       9999  6560  0    
2019/09/25  19:41:00  BASE  11.8952  25   14.2766  22   0.7   86    -1.4  114   0     965.4    NA       0.0000   UP       9999  6200  0    
2019/09/25  19:42:00  BASE  12.6655  26   13.9768  30   0.7   86    -1.4  110   0     965.4    NA       0.0000   UP       9999  6400  0    
2019/09/25  19:43:00  BASE  13.0712  28   14.2766  24   0.7   86    -1.4  107   0     965.3    NA       0.0000   UP       9999  0     0    
2019/09/25  19:44:00  BASE  13.2888  28   14.6412  24   0.7   86    -1.3  103   0     965.3    NA       0.0000   UP       9999  0     0    
2019/09/25  19:45:00  BASE  13.4358  28   14.9411  28   0.8   86    -1.3  101   0     965.3    NA       0.0000   UP       9999  0     0    
2019/09/25  19:46:00  BASE  13.3241  25   15.5173  25   0.8   86    -1.3  98    0     965.3    NA       0.0000   UP       9000  0     0    
2019/09/25  19:47:00  BASE  13.4887  21   15.8819  18   0.8   86    -1.3  96    0     965.3    NA       0.0000   UP       9999  0     0    
2019/09/25  19:48:00  BASE  13.9474  21   15.8819  19   0.8   86    -1.3  93    0     965.3    NA       0.0000   UP       9999  0     0    
2019/09/25  19:49:00  BASE  13.9003  25   15.8819  19   0.8   86    -1.3  91    0     965.3    NA       0.0000   UP       9999  0     0    
2019/09/25  19:50:00  BASE  13.8239  29   15.8819  19   0.8   86    -1.3  88    0     965.3    NA       0.0000   UP       9999  0     0    
2019/09/25  19:51:00  BASE  13.0124  27   15.8819  19   0.7   86    -1.3  85    0     965.4    NA       0.0000   UP       9000  0     0    
2019/09/25  19:52:00  BASE  13.3182  27   16.9403  30   0.7   86    -1.3  83    0     965.3    NA       0.0000   UP       9999  0     0    
2019/09/25  19:53:00  BASE  13.5887  29   16.9403  30   0.7   86    -1.4  81    0     965.3    NA       0.2540   UP       9000  0     0    
2019/09/25  19:54:00  BASE  12.9948  31   16.9403  30   0.6   87    -1.3  78    0     965.3    NA       0.0000   UP       BR    9000  0    
2019/09/25  19:55:00  BASE  13.3711  32   16.9403  30   0.6   87    -1.3  76    0     965.3    NA       0.0000   UP       BR    9000  0    
2019/09/25  19:56:00  BASE  13.5005  32   16.9403  30   0.6   87    -1.3  74    0     965.3    NA       0.0000   UP       BR    9000  0    
2019/09/25  19:57:00  BASE  13.5828  31   16.9403  30   0.6   87    -1.3  73    0     965.2    NA       0.0000   UP       BR    9999  0    
2019/09/25  19:58:00  BASE  13.7298  31   16.9403  30   0.6   87    -1.3  73    0     965.3    NA       0.0000   UP       BR    8000  0    
2019/09/25  19:59:00  BASE  13.1712  31   16.9403  30   0.6   87    -1.3  72    0     965.3    NA       0.0000   UP       BR    7000  0    
2019/09/25  20:00:00  BASE  13.0536  31   16.9403  30   0.6   87    -1.3  71    0     965.3    NA       0.0000   UP       BR    8000  0    
2019/09/25  20:01:00  BASE  13.2476  30   16.9403  30   0.6   87    -1.3  70    0     965.3    NA       0.0000   UP       BR    8000  0    
2019/09/25  20:02:00  BASE  12.8066  29   15.4291  28   0.6   87    -1.3  70    0     965.3    NA       0.0000   UP       BR    7000  22110
2019/09/25  20:03:00  BASE  12.2657  29   15.2174  29   0.6   87    -1.2  70    0     965.3    NA       0.0000   UP       BR    6000  0    
2019/09/25  20:04:00  BASE  12.3656  29   15.2174  29   0.6   88    -1.2  71    0     965.3    NA       0.0000   UP       BR    6000  0    
2019/09/25  20:05:00  BASE  12.2186  27   15.2174  29   0.6   88    -1.2  71    0     965.3    NA       0.0000   UP       BR    5000  0    
2019/09/25  20:06:00  BASE  11.5777  28   15.2174  29   0.6   88    -1.1  72    0     965.3    NA       0.0000   UP       BR    6000  23300
2019/09/25  20:07:00  BASE  11.3484  31   14.4883  31   0.6   88    -1.1  73    0     965.3    NA       0.0000   UP       BR    5000  0    
2019/09/25  20:08:00  BASE  11.713   34   14.4295  26   0.6   88    -1.1  74    0     965.3    NA       0.0000   UP       BR    5000  0    
2019/09/25  20:09:00  BASE  12.1657  35   14.4295  26   0.6   89    -1.1  75    0     965.3    NA       0.0000   UP       BR    3800  0    
2019/09/25  20:10:00  BASE  11.7188  34   14.4295  26   0.6   89    -1.1  76    0     965.3    NA       0.0000   UP       BR    3700  0    
2019/09/25  20:11:00  BASE  11.1838  34   14.2472  22   0.5   89    -1.0  77    0     965.3    NA       0.0000   UP       BR    4000  0    
2019/09/25  20:12:00  BASE  11.0426  35   13.9474  36   0.5   89    -1.0  78    0     965.3    NA       0.0000   UP       BR    4000  0    
2019/09/25  20:13:00  BASE  11.0074  34   13.9474  36   0.5   90    -1.0  78    0     965.3    NA       0.0000   UP       BR    4000  0    
2019/09/25  20:14:00  BASE  11.1485  33   13.7004  39   0.5   90    -1.0  78    0     965.3    NA       0.0000   UP       BR    4700  0    
2019/09/25  20:15:00  BASE  10.8956  36   13.7004  39   0.5   90    -0.9  78    0     965.4    NA       0.0000   UP       BR    4400  430  
2019/09/25  20:16:00  BASE  10.731   38   13.7004  39   0.5   90    -0.9  78    0     965.3    NA       0.0000   UP       BR    3600  4590 
2019/09/25  20:17:00  BASE  10.8721  37   13.7004  39   0.5   91    -0.9  78    0     965.3    NA       0.0000   UP       BR    3500  0    
2019/09/25  20:18:00  BASE  10.4605  36   13.7004  39   0.5   91    -0.8  79    0     965.4    NA       0.0000   UP       BR    4400  0    
2019/09/25  20:19:00  BASE  10.6957  36   13.7004  39   0.5   91    -0.8  79    0     965.3    NA       0.0000   UP       BR    4400  0    
2019/09/25  20:20:00  BASE  10.9897  36   13.7004  39   0.5   91    -0.8  80    0     965.3    NA       0.0000   UP       BR    4400  0    
2019/09/25  20:21:00  BASE  11.0603  36   13.7004  39   0.5   91    -0.8  82    0     965.3    NA       0.0000   UP       BR    4400  4170 
2019/09/25  20:22:00  BASE  11.0485  36   13.7004  39   0.5   91    -0.8  83    0     965.3    NA       0.0000   UP       BR    4400  4070 
2019/09/25  20:23:00  BASE  10.6075  34   13.7004  39   0.5   91    -0.8  83    0     965.4    NA       0.0000   UP       BR    5000  0    
2019/09/25  20:24:00  BASE  10.6487  34   13.1594  34   0.6   91    -0.7  81    0     965.3    NA       0.0000   UP       BR    9999  0    
2019/09/25  20:25:00  BASE  11.2073  35   13.1594  30   0.6   91    -0.7  79    0     965.3    NA       0.0000   UP       BR    9999  0    
2019/09/25  20:26:00  BASE  11.2837  35   13.4593  32   0.6   91    -0.7  76    0     965.4    NA       0.0000   UP       BR    7000  360  
2019/09/25  20:27:00  BASE  10.9721  35   13.4593  32   0.6   91    -0.7  73    0     965.4    NA       0.0000   UP       BR    4100  260  
2019/09/25  20:28:00  BASE  10.9544  34   13.6122  35   0.6   91    -0.7  69    0     965.4    NA       0.0000   -SN      BR    2300  0    
2019/09/25  20:29:00  BASE  11.366   32   13.6122  35   0.6   91    -0.8  65    0     965.3    NA       0.0000   -SN      BR    1800  0    
2019/09/25  20:30:00  BASE  11.954   30   13.7651  31   0.6   90    -0.8  63    0     965.3    NA       0.0000   -SN      BR    1400  230  
2019/09/25  20:31:00  BASE  12.0481  30   13.7651  31   0.6   90    -0.9  62    0     965.3    NA       0.0000   -SN      BR    1000  0    
2019/09/25  20:32:00  BASE  11.7482  29   13.7651  34   0.5   90    -0.9  60    0     965.3    NA       0.0000   -SN      BR    0600  0    
2019/09/25  20:33:00  BASE  11.6189  27   14.159   28   0.5   90    -0.9  59    0     965.3    NA       0.0000   -SN      BR    0450  0    
2019/09/25  20:34:00  BASE  11.9188  27   14.159   28   0.5   91    -0.9  57    0     965.2    NA       0.0000   -SN      BR    0400  0    
2019/09/25  20:35:00  BASE  12.1657  28   14.159   28   0.4   91    -0.9  51    0     965.2    NA       0.0000   SN       FG    0400  0    
2019/09/25  20:36:00  BASE  12.2598  28   14.4883  33   0.4   91    -0.9  46    0     965.2    NA       0.0000   SN       FG    0600  0    
2019/09/25  20:37:00  BASE  12.5126  28   14.6706  38   0.4   91    -0.9  42    0     965.2    NA       0.0000   +SN      FG    0550  0    
2019/09/25  20:38:00  BASE  12.9184  30   15.094   36   0.3   92    -0.8  40    0     965.2    NA       0.0000   +SN      FG    0800  0    
2019/09/25  20:39:00  BASE  12.5303  29   15.094   36   0.3   92    -0.8  38    0     965.2    NA       0.0000   +SN      FG    1500  0    
2019/09/25  20:40:00  BASE  12.2716  27   15.094   36   0.3   93    -0.8  36    0     965.1    NA       0.0000   SN       FG    1700  0    
2019/09/25  20:41:00  BASE  12.5773  29   15.094   36   0.3   93    -0.7  36    0     965.2    NA       0.0000   -SN      FG    1700  0    
2019/09/25  20:42:00  BASE  13.2535  28   15.2174  27   0.2   94    -0.7  35    0     965.1    NA       0.0000   -SN      FG    1100  0    
2019/09/25  20:43:00  BASE  13.7533  29   15.3644  24   0.2   94    -0.6  34    0     965.0    NA       0.0000   -SN      FG    1000  0    
2019/09/25  20:44:00  BASE  13.9944  32   16.9109  28   0.2   95    -0.6  33    0     965.0    NA       0.0000   -SN      FG    1700  0    
2019/09/25  20:45:00  BASE  14.8411  31   16.9109  28   0.2   95    -0.5  34    0     965.0    NA       0.0000   -SN      BR    2000  0    
2019/09/25  20:46:00  BASE  14.8235  27   16.9109  28   0.2   96    -0.4  37    0     965.0    NA       0.0000   -SN      BR    1900  0    
2019/09/25  20:47:00  BASE  14.7588  25   16.9109  28   0.2   96    -0.4  40    0     965.0    NA       0.0000   -SN      BR    2100  0    
2019/09/25  20:48:00  BASE  15.0293  25   16.9109  28   0.2   96    -0.3  48    0     965.0    NA       0.0000   -SN      BR    2000  300  
2019/09/25  20:49:00  BASE  15.2586  24   17.3636  22   0.2   96    -0.3  61    0     964.9    NA       0.0000   -SN      BR    1500  0    
2019/09/25  20:50:00  BASE  15.5467  22   17.3636  22   0.2   97    -0.3  76    0     964.9    NA       0.0000   -SN      BR    0900  0    
2019/09/25  20:51:00  BASE  15.0293  23   17.3636  22   0.1   97    -0.3  96    1     965.0    NA       0.0000   -SN      BR    0450  0    
2019/09/25  20:52:00  BASE  14.6118  25   17.3636  22   0.1   97    -0.3  124   0     964.9    NA       0.0000   -SN      BR    0300  0    
2019/09/25  20:53:00  BASE  14.4766  26   17.3636  22   0.1   97    -0.3  158   0     964.9    NA       0.0000   SN       FG    0400  0    
2019/09/25  20:54:00  BASE  13.8062  24   17.3636  22   0.1   97    -0.3  187   0     965.0    NA       0.0000   SN       FG    0600  0    
2019/09/25  20:55:00  BASE  14.0826  25   17.3636  22   0.1   98    -0.2  192   0     964.9    NA       0.0000   SN       FG    0900  0    
2019/09/25  20:56:00  BASE  15.0352  27   17.3636  22   0.1   98    -0.2  176   0     964.8    NA       0.0000   SN       FG    3700  0    
2019/09/25  20:57:00  BASE  15.876   25   17.3636  22   0.1   98    -0.2  149   0     964.8    NA       0.0000   SN       FG    3800  0    
2019/09/25  20:58:00  BASE  15.9524  23   17.3636  22   0.1   98    -0.2  122   0     964.8    NA       0.0000   SN       FG    6000  0    
2019/09/25  20:59:00  BASE  14.8882  25   17.3636  22   0.0   98    -0.2  110   0     965.0    NA       0.0000   -SN      FG    9999  21130
2019/09/25  21:00:00  BASE  14.2766  22   17.3636  22   0.0   99    -0.2  97    0     964.9    NA       0.0000   -SN      BR    9999  330  
2019/09/25  21:01:00  BASE  14.1179  19   17.3636  22   0.0   99    -0.2  87    0     965.0    NA       0.0000   -SN      BR    9999  0    
2019/09/25  21:02:00  BASE  14.2178  20   17.3636  22   0.0   99    -0.1  77    0     964.9    NA       0.0000   -SN      BR    9999  0    
2019/09/25  21:03:00  BASE  14.747   21   17.3636  22   0.0   99    -0.1  68    0     964.9    NA       0.0000   -SN      BR    8000  0    
2019/09/25  21:04:00  BASE  15.2998  22   17.3636  22   0.1   99    -0.1  59    0     964.9    NA       0.0000   -SN      BR    3500  4400 
2019/09/25  21:05:00  BASE  15.6702  20   17.3636  22   0.1   99    -0.1  52    1     964.9    NA       0.0000   -SN      BR    2100  2620 
2019/09/25  21:06:00  BASE  15.7172  20   17.3636  22   0.1   99    -0.1  46    0     964.9    NA       0.0000   -SN      BR    2100  2460 
2019/09/25  21:07:00  BASE  15.776   20   17.1814  17   0.1   99    -0.1  40    0     964.9    NA       0.0000   -SN      BR    2900  2360 
2019/09/25  21:08:00  BASE  15.3644  19   17.1814  17   0.0   99    -0.1  35    0     965.0    NA       0.0000   -SN      BR    9999  2200 
2019/09/25  21:09:00  BASE  14.4942  18   17.1814  17   0.0   99    -0.1  32    0     965.1    NA       0.0000   -SN      BR    9999  2360 
2019/09/25  21:10:00  BASE  13.9474  18   17.1814  17   0.0   99    -0.2  29    0     965.1    NA       0.0000   -SN      BR    9999  2400 
2019/09/25  21:11:00  BASE  14.2237  20   17.1814  17   0.0   99    -0.2  28    0     965.0    NA       0.0000   -SN      BR    9999  2400 
2019/09/25  21:12:00  BASE  14.5236  21   17.1814  17   0.0   98    -0.2  28    0     965.1    NA       0.0000   -SN      BR    9999  3250 
2019/09/25  21:13:00  BASE  13.9474  20   17.1814  17   0.0   98    -0.2  28    0     965.1    NA       0.0000   -SN      BR    9999  2530 
2019/09/25  21:14:00  BASE  12.8243  17   17.1814  17   0.1   98    -0.2  27    0     965.1    NA       0.0000   -SN      BR    9999  3150 
2019/09/25  21:15:00  BASE  12.1834  16   17.1814  17   0.1   98    -0.2  26    0     965.1    NA       0.0000   -SN      BR    9999  3050 
2019/09/25  21:16:00  BASE  13.7592  20   16.9403  20   0.1   98    -0.2  25    0     964.9    NA       0.0000   -SN      9999  3350  0    
2019/09/25  21:17:00  BASE  15.5114  23   17.6635  27   0.2   97    -0.2  24    0     964.9    NA       0.0000   9999     3410  0     0    
2019/09/25  21:18:00  BASE  15.7466  23   17.6635  27   0.2   97    -0.2  23    0     964.9    NA       0.0000   9999     3580  0     0    
2019/09/25  21:19:00  BASE  15.9348  22   18.1222  23   0.2   97    -0.2  23    0     964.9    NA       0.0000   9999     2200  0     0    
2019/09/25  21:20:00  BASE  16.2112  22   18.1222  23   0.3   96    -0.2  23    0     965.0    NA       0.0000   9999     2300  3710  0    
2019/09/25  21:21:00  BASE  15.9524  21   18.1222  23   0.3   96    -0.3  22    0     965.0    NA       0.0000   9999     2170  3770  0    
2019/09/25  21:22:00  BASE  15.5114  21   18.1222  23   0.3   96    -0.3  21    0     965.0    NA       0.0000   9999     2070  0     0    
2019/09/25  21:23:00  BASE  15.2762  21   18.1222  23   0.3   95    -0.4  20    0     965.1    NA       0.0000   9999     2100  0     0    
2019/09/25  21:24:00  BASE  15.0058  20   18.1222  23   0.2   95    -0.4  20    0     965.1    NA       0.0000   9999     2070  0     0    
2019/09/25  21:25:00  BASE  15.2174  22   18.1222  23   0.2   95    -0.5  20    0     965.1    NA       0.0000   9999     1310  0     0    
2019/09/25  21:26:00  BASE  15.1234  23   18.1222  23   0.3   95    -0.4  20    0     965.1    NA       0.0000   9999     660   0     0    
2019/09/25  21:27:00  BASE  15.0704  24   18.2104  19   0.3   95    -0.4  21    0     965.1    NA       0.0000   9999     2300  0     0    
2019/09/25  21:28:00  BASE  15.6761  24   18.2104  19   0.3   95    -0.4  21    0     965.0    NA       0.0000   9999     390   0     0    
2019/09/25  21:29:00  BASE  16.0406  24   18.2104  19   0.4   95    -0.4  22    0     965.1    NA       0.2540   9999     2590  3250  0    
2019/09/25  21:30:00  BASE  15.9936  26   18.2104  19   0.4   94    -0.4  22    0     965.1    NA       0.0000   -SN      9999  0     0    
2019/09/25  21:31:00  BASE  15.7408  27   18.2104  19   0.4   94    -0.4  21    0     965.1    NA       0.0000   -SN      9999  2850  0    
2019/09/25  21:32:00  BASE  15.8054  25   18.2104  19   0.4   94    -0.5  21    0     965.2    NA       0.0000   -SN      9999  2760  4270 
2019/09/25  21:33:00  BASE  16.2817  23   18.2104  19   0.4   93    -0.5  20    0     965.1    NA       0.0000   -SN      9000  2590  0    
2019/09/25  21:34:00  BASE  16.6228  20   18.2104  19   0.4   93    -0.6  20    0     965.2    NA       0.0000   -SN      8000  0     0    
2019/09/25  21:35:00  BASE  16.5463  19   18.2104  19   0.4   92    -0.7  20    0     965.1    NA       0.0000   -SN      9999  0     0    
2019/09/25  21:36:00  BASE  16.6051  20   18.2104  19   0.4   92    -0.7  20    0     965.1    NA       0.0000   -SN      9999  0     0    
2019/09/25  21:37:00  BASE  16.1288  22   18.1516  27   0.4   92    -0.7  21    0     965.3    NA       0.0000   -SN      9999  0     0    
2019/09/25  21:38:00  BASE  15.8819  21   18.1516  27   0.4   92    -0.8  20    0     965.2    NA       0.0000   -SN      9999  0     0    
2019/09/25  21:39:00  BASE  16.2464  22   18.1516  27   0.4   92    -0.8  20    0     965.2    NA       0.0000   -SN      9999  3580  0    
2019/09/25  21:40:00  BASE  15.9995  24   18.1516  27   0.3   92    -0.8  19    0     965.3    NA       0.0000   -SN      9999  2920  3580 
2019/09/25  21:41:00  BASE  15.9877  24   18.1516  27   0.3   92    -0.8  18    0     965.2    NA       0.0000   -SN      9999  2950  0    
2019/09/25  21:42:00  BASE  15.5761  23   18.1516  27   0.3   92    -0.9  17    0     965.3    NA       0.0000   -SN      9999  2820  0    
2019/09/25  22:03:15  BASE  M        M    M        M    0.2   92    -0.9  M     M     M        NA       0.0000   M        M     M     M    
2019/09/25  22:04:00  BASE  M        M    M        M    0.1   93    -0.9  5     0     965.6    NA       0.0000   9999     0     0     0    
2019/09/25  22:05:00  BASE  13.9474  9    0        M    0.0   94    -0.8  5     0     965.6    NA       0.0000   -SN      9999  0     0    
2019/09/25  22:06:00  BASE  13.6475  7    0        M    -0.1  95    -0.8  4     0     965.7    NA       0.0000   -SN      9999  0     0    
2019/09/25  22:07:00  BASE  13.23    7    0        M    -0.2  96    -0.7  4     0     965.7    NA       0.0000   -SN      9999  0     0    
2019/09/25  22:08:00  BASE  13.5652  8    0        M    -0.2  96    -0.7  4     0     965.6    NA       0.0000   -SN      9999  0     0    
2019/09/25  22:09:00  BASE  13.5828  9    0        M    -0.2  97    -0.7  4     0     965.7    NA       0.0000   -SN      9999  0     0    
2019/09/25  22:10:00  BASE  13.0536  12   0        M    -0.2  97    -0.6  4     0     965.7    NA       0.0000   -SN      9999  0     0    
2019/09/25  22:11:00  BASE  13.3064  13   15.188   19   -0.2  97    -0.6  3     0     965.7    NA       0.0000   -SN      9000  0     0    
2019/09/25  22:12:00  BASE  14.1708  14   15.188   19   -0.2  98    -0.5  3     0     965.6    NA       0.0000   -SN      7000  0     0    
2019/09/25  22:13:00  BASE  14.994   17   16.0936  18   -0.2  98    -0.5  3     0     965.5    NA       0.0000   -SN      4100  260   0    
2019/09/25  22:14:00  BASE  15.0293  18   16.0936  18   -0.2  98    -0.4  3     0     965.5    NA       0.0000   -SN      BR    3000  0    
2019/09/25  22:15:00  BASE  15.041   17   16.758   19   -0.2  98    -0.4  3     0     965.5    NA       0.0000   -SN      BR    2900  0    
2019/09/25  22:16:00  BASE  15.1116  18   16.758   19   -0.2  99    -0.4  3     0     965.6    NA       0.0000   -SN      BR    2100  0    
2019/09/25  22:17:00  BASE  14.7176  17   16.758   19   -0.2  99    -0.3  2     0     965.6    NA       0.0000   -SN      BR    2200  0    
2019/09/25  22:18:00  BASE  14.2708  15   16.758   19   -0.2  99    -0.3  2     0     965.7    NA       0.0000   -SN      BR    2100  0    
2019/09/25  22:19:00  BASE  13.9944  13   16.758   19   -0.2  99    -0.3  2     0     965.7    NA       0.0000   -SN      BR    1900  0    
2019/09/25  22:20:00  BASE  14.1884  14   16.758   19   -0.2  99    -0.3  2     1     965.7    NA       0.0000   -SN      BR    2600  0    
2019/09/25  22:21:00  BASE  14.1296  13   16.758   19   -0.2  99    -0.3  2     0     965.7    NA       0.0000   -SN      BR    2400  850  
2019/09/25  22:22:00  BASE  13.8474  12   16.758   19   -0.2  99    -0.3  2     0     965.7    NA       0.0000   -SN      BR    3000  0    
2019/09/25  22:23:00  BASE  14.1179  14   16.758   19   -0.2  99    -0.4  2     0     965.7    NA       0.0000   -SN      BR    3200  0    
2019/09/25  22:24:00  BASE  14.2766  13   16.758   19   -0.2  99    -0.4  2     0     965.7    NA       0.0000   -SN      BR    3300  0    
2019/09/25  22:25:00  BASE  13.9297  13   15.7878  19   -0.3  99    -0.4  2     0     965.8    NA       0.0000   -SN      BR    3700  0    
2019/09/25  22:26:00  BASE  13.7004  14   15.4585  14   -0.3  99    -0.4  2     0     965.8    NA       0.0000   -SN      BR    4500  0    
2019/09/25  22:27:00  BASE  13.4182  13   15.4585  14   -0.3  99    -0.4  1     0     965.8    NA       0.0000   -SN      BR    4900  0    
2019/09/25  22:28:00  BASE  13.0477  13   15.3056  9    -0.3  100   -0.4  1     0     965.8    NA       0.0000   -SN      BR    3800  0    
2019/09/25  22:29:00  BASE  13.1888  14   15.3056  9    -0.3  100   -0.3  1     0     965.8    NA       0.0000   -SN      BR    3900  0    
2019/09/25  22:30:00  BASE  13.3182  13   15.3056  9    -0.3  100   -0.3  1     0     965.9    NA       0.0000   -SN      BR    3700  0    
2019/09/25  22:31:00  BASE  13.13    12   15.2468  16   -0.3  100   -0.3  1     0     965.9    NA       0.0000   -SN      BR    4900  0    
2019/09/25  22:32:00  BASE  13.3064  11   15.2468  16   -0.3  100   -0.3  1     0     965.9    NA       0.0000   -SN      BR    5000  0    
2019/09/25  22:33:00  BASE  13.4417  10   15.1528  13   -0.3  100   -0.3  1     0     965.9    NA       0.0000   -SN      BR    6000  0    
2019/09/25  22:34:00  BASE  13.1947  11   15.1528  13   -0.3  100   -0.3  1     0     965.9    NA       0.0000   -SN      BR    9000  0    
2019/09/25  22:35:00  BASE  12.8537  12   14.7588  14   -0.3  100   -0.3  1     0     965.9    NA       0.0000   -SN      BR    9000  0    
2019/09/25  22:36:00  BASE  13.0242  12   14.7588  14   -0.3  100   -0.3  1     0     965.9    NA       0.0000   -SN      BR    6000  0    
2019/09/25  22:37:00  BASE  13.6298  11   14.7588  14   -0.3  100   -0.3  1     0     965.8    NA       0.0000   -SN      BR    3900  0    
2019/09/25  22:38:00  BASE  13.477   10   14.7588  14   -0.3  100   -0.3  1     0     966.0    NA       0.0000   -SN      BR    7000  330  
2019/09/25  22:39:00  BASE  12.9242  12   14.7294  9    -0.2  100   -0.2  1     0     966.0    NA       0.0000   -SN      BR    9999  300  
2019/09/25  22:40:00  BASE  13.4887  11   15.094   11   -0.2  100   -0.2  1     0     965.9    NA       0.0000   -SN      BR    8000  660  
2019/09/25  22:41:00  BASE  13.5475  7    15.094   11   -0.2  100   -0.2  1     0     966.1    NA       0.0000   -SN      BR    9999  0    
2019/09/25  22:42:00  BASE  13.2535  10   15.094   11   -0.2  100   -0.2  0     0     966.0    NA       0.0000   -SN      BR    9999  360  
2019/09/25  22:43:00  BASE  12.9419  12   15.094   11   -0.2  100   -0.2  0     0     966.1    NA       0.0000   -SN      BR    9999  0    
2019/09/25  22:44:00  BASE  12.4597  7    15.094   11   -0.2  100   -0.2  0     0     966.1    NA       0.0000   -SN      BR    9999  0    
2019/09/25  22:45:00  BASE  12.0246  3    15.094   11   -0.2  100   -0.2  0     0     966.2    NA       0.0000   -SN      BR    9999  230  
2019/09/25  22:46:00  BASE  11.8364  3    15.094   11   -0.2  100   -0.2  0     0     966.2    NA       0.0000   -SN      BR    9999  260  
2019/09/25  22:47:00  BASE  11.6483  360  15.094   11   -0.2  100   -0.2  0     0     966.2    NA       0.0000   -SN      9999  0     0    
2019/09/25  22:48:00  BASE  10.9309  358  15.094   11   -0.2  100   -0.2  0     0     966.2    NA       0.0000   -SN      9999  0     0    
2019/09/25  22:49:00  BASE  11.2426  357  15.094   11   -0.2  100   -0.2  0     0     966.2    NA       0.0000   -SN      9999  0     0    
2019/09/25  22:50:00  BASE  11.2484  351  14.6118  14   -0.2  100   -0.2  0     0     966.2    NA       0.0000   -SN      9999  0     0    
2019/09/25  22:51:00  BASE  10.8839  351  14.6118  14   -0.1  100   -0.1  0     0     966.2    NA       0.0000   -SN      9999  0     0    
2019/09/25  22:52:00  BASE  11.466   357  14.2766  6    -0.1  100   -0.1  0     0     966.2    NA       0.0000   -SN      9999  0     0    
2019/09/25  22:53:00  BASE  12.0187  1    14.2178  1    -0.2  100   -0.2  0     0     966.2    NA       0.0000   -SN      9999  0     0    
2019/09/25  22:54:00  BASE  12.1598  4    13.4299  7    -0.2  100   -0.2  0     0     966.2    NA       0.0000   -SN      9999  0     0    
2019/09/25  22:55:00  BASE  11.7365  5    13.4299  7    -0.2  100   -0.2  0     0     966.2    NA       0.0000   9999     0     0     0    
2019/09/25  22:56:00  BASE  11.2896  355  13.2476  4    -0.2  100   -0.2  0     0     966.3    NA       0.0000   9999     0     0     0    
2019/09/25  22:57:00  BASE  11.1838  349  13.2476  4    -0.2  100   -0.2  0     0     966.3    NA       0.0000   9999     0     0     0    
2019/09/25  22:58:00  BASE  11.3249  351  13.2476  4    -0.2  100   -0.2  0     0     966.2    NA       0.0000   9999     0     0     0    
2019/09/25  22:59:00  BASE  11.513   351  13.2476  4    -0.3  100   -0.3  0     0     966.2    NA       0.0000   9999     0     0     0    
2019/09/25  23:00:00  BASE  11.4366  353  13.2476  4    -0.3  100   -0.3  0     0     966.3    NA       0.0000   9999     0     0     0    
2019/09/25  23:01:00  BASE  11.0426  354  13.2476  4    -0.3  100   -0.3  0     0     966.4    NA       0.0000   9999     0     0     0    
2019/09/25  23:02:00  BASE  11.0309  356  13.2476  4    -0.3  100   -0.3  0     0     966.3    NA       0.0000   9999     0     0     0    
2019/09/25  23:03:00  BASE  11.7541  359  13.4005  355  -0.3  100   -0.3  0     0     966.3    NA       0.0000   9999     0     0     0    
2019/09/25  23:04:00  BASE  12.1422  356  13.4005  355  -0.3  100   -0.3  0     0     966.3    NA       0.0000   9000     0     0     0    
2019/09/25  23:05:00  BASE  11.6424  349  13.4005  355  -0.3  100   -0.3  0     0     966.4    NA       0.0000   9999     0     0     0    
2019/09/25  23:06:00  BASE  10.925   347  13.4005  355  -0.3  100   -0.3  0     0     966.4    NA       0.0000   -SN      9999  0     0    
2019/09/25  23:07:00  BASE  10.3606  349  13.4005  355  -0.3  100   -0.3  0     0     966.4    NA       0.0000   -SN      9999  0     0    
2019/09/25  23:08:00  BASE  10.3841  353  13.4005  355  -0.3  100   -0.3  0     0     966.4    NA       0.0000   -SN      9999  0     0    
2019/09/25  23:09:00  BASE  10.7134  351  13.4005  355  -0.3  100   -0.3  0     0     966.4    NA       0.0000   -SN      9999  0     0    
2019/09/25  23:10:00  BASE  10.9368  348  13.4005  355  -0.3  100   -0.3  0     0     966.4    NA       0.0000   -SN      9999  0     0    
2019/09/25  23:11:00  BASE  10.9427  349  13.4005  355  -0.3  100   -0.3  0     0     966.5    NA       0.0000   -SN      9999  0     0    
2019/09/25  23:12:00  BASE  10.7192  349  13.4005  355  -0.3  100   -0.3  0     0     966.5    NA       0.0000   -SN      9999  0     0    
2019/09/25  23:13:00  BASE  10.6134  352  13.13    348  -0.3  100   -0.3  0     0     966.5    NA       0.0000   -SN      9999  0     0    
2019/09/25  23:14:00  BASE  10.2782  351  13.13    348  -0.3  100   -0.3  0     0     966.6    NA       0.0000   -SN      9999  0     0    
2019/09/25  23:15:00  BASE  9.99012  348  12.9184  349  -0.3  100   -0.3  0     0     966.6    NA       0.0000   -SN      9999  0     0    
2019/09/25  23:16:00  BASE  10.096   347  12.9184  349  -0.3  100   -0.3  0     0     966.6    NA       0.0000   -SN      9999  0     0    
2019/09/25  23:17:00  BASE  10.4311  346  12.9184  349  -0.3  100   -0.3  0     0     966.6    NA       0.0000   -SN      9999  0     0    
2019/09/25  23:18:00  BASE  10.6016  346  12.9184  349  -0.3  100   -0.3  0     0     966.6    NA       0.0000   -SN      9999  0     0    
2019/09/25  23:19:00  BASE  10.8016  347  12.9184  349  -0.3  100   -0.3  0     0     966.6    NA       0.0000   -SN      9999  0     0    
2019/09/25  23:20:00  BASE  10.8604  348  12.3421  343  -0.3  100   -0.3  0     0     966.6    NA       0.0000   -SN      9999  0     0    
2019/09/25  23:21:00  BASE  10.6134  344  12.3421  343  -0.4  100   -0.4  0     0     966.6    NA       0.0000   -SN      9999  0     0    
2019/09/25  23:22:00  BASE  10.337   343  12.3421  343  -0.4  100   -0.4  0     0     966.6    NA       0.0000   -SN      9999  0     0    
2019/09/25  23:23:00  BASE  10.3841  351  12.3421  343  -0.4  100   -0.4  0     0     966.6    NA       0.0000   -SN      9999  0     0    
2019/09/25  23:24:00  BASE  10.5605  349  12.3421  343  -0.4  100   -0.4  0     0     966.6    NA       0.0000   -SN      9999  0     0    
2019/09/25  23:25:00  BASE  10.6428  348  12.3421  343  -0.4  100   -0.4  0     0     966.7    NA       0.0000   -SN      9999  0     0    
2019/09/25  23:26:00  BASE  10.096   350  12.3421  343  -0.4  100   -0.4  0     0     966.7    NA       0.0000   -SN      9999  0     0    
2019/09/25  23:27:00  BASE  9.7902   351  12.3421  343  -0.4  100   -0.4  0     0     966.7    NA       0.0000   -SN      9999  0     0    
2019/09/25  23:28:00  BASE  9.3492   353  12.3421  343  -0.4  100   -0.4  0     0     966.8    NA       0.0000   -SN      9999  0     0    
2019/09/25  23:29:00  BASE  9.20808  350  12.101   342  -0.4  100   -0.4  0     0     966.7    NA       0.0000   -SN      9999  330   0    
2019/09/25  23:30:00  BASE  10.3429  346  12.101   342  -0.5  100   -0.5  0     0     966.7    NA       0.0000   -SN      9999  260   0    
2019/09/25  23:31:00  BASE  10.8839  347  12.4656  346  -0.5  100   -0.5  0     0     966.7    NA       0.0000   -SN      9999  0     0    
2019/09/25  23:32:00  BASE  10.5252  347  12.4656  346  -0.5  100   -0.5  0     0     966.7    NA       0.0000   -SN      9999  0     0    
2019/09/25  23:33:00  BASE  10.7545  346  12.4656  346  -0.5  100   -0.5  0     0     966.7    NA       0.0000   9999     0     0     0    
2019/09/25  23:34:00  BASE  11.3484  346  12.4656  346  -0.5  100   -0.5  0     0     966.7    NA       0.0000   9999     0     0     0    
2019/09/25  23:35:00  BASE  11.2014  347  12.4656  346  -0.5  100   -0.5  0     0     966.7    NA       0.0000   9999     0     0     0    
2019/09/25  23:36:00  BASE  11.566   347  12.8243  341  -0.5  100   -0.5  0     0     966.7    NA       0.0000   9999     0     0     0    
2019/09/25  23:37:00  BASE  11.1544  345  12.8243  341  -0.5  100   -0.5  0     0     966.8    NA       0.0000   9999     0     0     0    
2019/09/25  23:38:00  BASE  10.4194  345  12.8243  341  -0.5  100   -0.5  0     0     966.8    NA       0.0000   -SN      9999  0     0    
2019/09/25  23:39:00  BASE  10.731   344  12.8243  341  -0.6  100   -0.6  0     0     966.8    NA       0.0000   -SN      9999  0     0    
2019/09/25  23:40:00  BASE  11.419   344  12.8243  341  -0.6  100   -0.6  0     0     966.7    NA       0.0000   -SN      9999  0     0    
2019/09/25  23:41:00  BASE  11.2367  346  12.8243  341  -0.6  100   -0.6  0     0     966.9    NA       0.0000   -SN      9999  0     0    
2019/09/25  23:42:00  BASE  10.9427  347  12.8243  341  -0.6  100   -0.6  0     0     966.8    NA       0.0000   -SN      9999  0     0    
2019/09/25  23:43:00  BASE  10.9074  350  12.8243  341  -0.6  100   -0.6  0     0     966.9    NA       0.0000   -SN      9999  0     0    
2019/09/25  23:44:00  BASE  10.2665  349  12.8243  341  -0.6  100   -0.6  0     0     966.9    NA       0.0000   -SN      9999  0     0    
2019/09/25  23:45:00  BASE  9.9078   346  12.8243  341  -0.6  100   -0.6  0     0     967.0    NA       0.0000   -SN      9999  0     0    
2019/09/25  23:46:00  BASE  10.2018  345  12.642   343  -0.6  100   -0.6  0     0     967.0    NA       0.0000   -SN      9999  0     0    
2019/09/25  23:47:00  BASE  10.4429  346  12.642   343  -0.6  100   -0.6  0     0     967.0    NA       0.0000   -SN      9999  0     0    
2019/09/25  23:48:00  BASE  10.4546  348  12.642   343  -0.7  100   -0.7  0     0     967.0    NA       0.0000   -SN      9999  0     0    
2019/09/25  23:49:00  BASE  10.537   343  12.642   343  -0.7  100   -0.7  0     0     967.0    NA       0.0000   -SN      9999  0     0    
2019/09/25  23:50:00  BASE  10.4194  338  12.4303  345  -0.7  100   -0.7  0     0     967.0    NA       0.0000   -SN      9999  0     0    
2019/09/25  23:51:00  BASE  10.9721  338  12.4303  345  -0.7  100   -0.7  0     0     967.0    NA       0.0000   -SN      9999  0     0    
2019/09/25  23:52:00  BASE  11.4484  341  12.8243  339  -0.7  100   -0.7  0     0     967.0    NA       0.0000   -SN      9999  0     0    
2019/09/25  23:53:00  BASE  11.0603  342  12.8243  339  -0.7  100   -0.7  0     0     967.1    NA       0.0000   -SN      9999  0     0    
2019/09/25  23:54:00  BASE  10.7192  340  12.8243  339  -0.7  100   -0.7  0     0     967.1    NA       0.0000   9999     260   0     0    
2019/09/25  23:55:00  BASE  11.4954  339  13.5534  341  -0.7  100   -0.7  0     0     967.0    NA       0.0000   9999     0     0     0    
2019/09/25  23:56:00  BASE  12.4127  339  14.1238  336  -0.7  100   -0.7  0     0     967.0    NA       0.0000   9999     0     0     0    
2019/09/25  23:57:00  BASE  12.9007  338  14.2766  333  -0.7  100   -0.7  0     0     967.0    NA       0.0000   9999     0     0     0    
2019/09/25  23:58:00  BASE  12.6596  338  14.2766  333  -0.7  100   -0.7  0     0     967.1    NA       0.0000   9999     0     0     0    
2019/09/25  23:59:00  BASE  12.2069  337  14.2766  333  -0.7  100   -0.7  0     0     967.1    NA       0.0000   9999     0     0     0